Darstellungsparameter: Aktuell verwendete Einstellungen:
Skalierung der Graphiken ... ?
xyx+y,   Skalierungsfaktor:      Skalierung: Modus: x, Faktor: 1
Darstellungszeitraum ... ?
Vom - - bis: - -   Zeitraum: 20.02.2009 - 22.08.2009
Min/Max/Avg-Anzeige ... ?
Zeige MMA aktuell
Zeige MMA Monat
Zeige MMA alles
Zeige --A aktuell
Zeige --A Monat
Zeige --A alles
Keine MMA-Anzeige
MMA:
Keine MMA-Graphiken
MMA-Basis: 20.02.2009 - 22.08.2009
Quicknavigation für Darstellung... ?
Tage:      1T, 2T, 3T, 5T -1T -2T -3T -5T +1T +2T +3T +5T
Wochen: 1W, 2W, 3W -1W -2W -3W +1W +2W +3W
Monate: 1M, 3M, 6M -1M -3M -6M +1M +3M +6M
Jahre:    1J, 3J, 5J, 10J -1J -3J -5J -10J +1J +3J +5J +10J
Nutze für die Darstellung ... ?
Originaldaten oder Mittelwerte auf ...
Stundenbasis Tagesbasis Wochenbasis
Monatsbasis Jahresbasis      Datenbasis: Original-Daten
Darstellen als:
Statistik (Auto) Statistik J:M      Darstellung:
Zur Graphik,    zurück zur Übersicht aller Sensoren.
 
Tabellarische Datenbersicht: ?
 
Sensor: Nr:Datum:Temp:Feuchte:Taupunkt:
Aussen-T/F 1 20-02-2009 00:06:59 1.6 C 76 % -2.16 C
2 20-02-2009 00:18:59 1.6 C 74 % -2.52 C
3 20-02-2009 00:30:58 1.6 C 74 % -2.52 C
4 20-02-2009 00:42:58 1.6 C 74 % -2.52 C
5 20-02-2009 00:54:58 1.7 C 74 % -2.42 C
6 20-02-2009 01:06:58 1.7 C 74 % -2.42 C
7 20-02-2009 01:18:58 1.7 C 74 % -2.42 C
8 20-02-2009 01:30:57 1.7 C 74 % -2.42 C
9 20-02-2009 01:42:57 1.6 C 76 % -2.16 C
10 20-02-2009 01:54:57 1.5 C 77 % -2.08 C
11 20-02-2009 02:06:57 1.5 C 78 % -1.91 C
12 20-02-2009 02:18:57 1.5 C 79 % -1.74 C
13 20-02-2009 02:30:57 1.5 C 81 % -1.4 C
14 20-02-2009 02:42:57 1.5 C 80 % -1.57 C
15 20-02-2009 02:55:01 1.6 C 79 % -1.64 C
16 20-02-2009 03:07:01 1.7 C 78 % -1.71 C
17 20-02-2009 03:19:01 1.8 C 78 % -1.62 C
18 20-02-2009 03:31:01 1.7 C 77 % -1.89 C
19 20-02-2009 03:43:01 1.7 C 77 % -1.89 C
20 20-02-2009 03:55:02 1.8 C 78 % -1.62 C
21 20-02-2009 04:07:01 1.7 C 78 % -1.71 C
22 20-02-2009 04:19:01 1.7 C 78 % -1.71 C
23 20-02-2009 04:31:02 1.8 C 78 % -1.62 C
24 20-02-2009 04:43:02 1.9 C 78 % -1.52 C
25 20-02-2009 04:55:02 1.9 C 77 % -1.69 C
Sensor: Nr:Datum:Temp:Feuchte:Taupunkt:
Aussen-T/F 26 20-02-2009 05:07:01 1.9 C 77 % -1.69 C
27 20-02-2009 05:19:01 1.9 C 76 % -1.87 C
28 20-02-2009 05:31:02 2 C 75 % -1.95 C
29 20-02-2009 05:43:02 2 C 75 % -1.95 C
30 20-02-2009 05:55:01 2.1 C 75 % -1.86 C
31 20-02-2009 06:07:01 2.1 C 75 % -1.86 C
32 20-02-2009 06:19:02 2.1 C 76 % -1.68 C
33 20-02-2009 06:31:01 2.1 C 76 % -1.68 C
34 20-02-2009 06:43:01 2 C 77 % -1.6 C
35 20-02-2009 06:55:02 1.8 C 82 % -0.94 C
36 20-02-2009 07:07:01 1.8 C 84 % -0.61 C
37 20-02-2009 07:19:02 1.8 C 85 % -0.45 C
38 20-02-2009 07:31:01 1.8 C 86 % -0.29 C
39 20-02-2009 07:43:01 1.8 C 86 % -0.29 C
40 20-02-2009 07:55:02 1.9 C 86 % -0.19 C
41 20-02-2009 08:07:01 1.9 C 86 % -0.19 C
42 20-02-2009 08:19:01 2 C 84 % -0.41 C
43 20-02-2009 08:31:02 2.3 C 83 % -0.28 C
44 20-02-2009 08:43:02 2.4 C 82 % -0.35 C
45 20-02-2009 08:55:01 2.4 C 82 % -0.35 C
46 20-02-2009 09:07:02 2.3 C 83 % -0.28 C
47 20-02-2009 09:19:01 2.3 C 84 % -0.12 C
48 20-02-2009 09:31:02 2.4 C 85 % 0.14 C
49 20-02-2009 09:43:02 2.5 C 86 % 0.4 C
50 20-02-2009 09:55:01 2.8 C 85 % 0.54 C
Sensor: Nr:Datum:Temp:Feuchte:Taupunkt:
Aussen-T/F 51 20-02-2009 10:07:02 2.8 C 84 % 0.37 C
52 20-02-2009 10:19:01 3 C 83 % 0.4 C
53 20-02-2009 10:31:01 3.2 C 82 % 0.43 C
54 20-02-2009 10:43:01 3.2 C 81 % 0.26 C
55 20-02-2009 10:55:01 3.3 C 81 % 0.36 C
56 20-02-2009 11:07:01 3.4 C 80 % 0.29 C
57 20-02-2009 11:19:02 3.5 C 80 % 0.38 C
58 20-02-2009 11:31:01 3.5 C 81 % 0.55 C
59 20-02-2009 11:43:01 3.4 C 82 % 0.63 C
60 20-02-2009 11:55:02 3.4 C 83 % 0.79 C
61 20-02-2009 12:07:01 3.3 C 83 % 0.7 C
62 20-02-2009 12:19:02 3.3 C 84 % 0.86 C
63 20-02-2009 12:31:01 3.5 C 86 % 1.38 C
64 20-02-2009 12:43:01 3.7 C 86 % 1.58 C
65 20-02-2009 12:55:02 3.8 C 86 % 1.68 C
66 20-02-2009 13:07:01 4.1 C 85 % 1.81 C
67 20-02-2009 13:19:01 4.4 C 84 % 1.94 C
68 20-02-2009 13:31:02 4.5 C 83 % 1.87 C
69 20-02-2009 13:43:02 4.7 C 83 % 2.07 C
70 20-02-2009 13:55:01 4.9 C 82 % 2.09 C
71 20-02-2009 14:07:02 5.2 C 80 % 2.04 C
72 20-02-2009 14:19:01 5.4 C 77 % 1.7 C
73 20-02-2009 14:31:02 5.5 C 76 % 1.62 C
74 20-02-2009 14:43:02 5.7 C 74 % 1.44 C
75 20-02-2009 14:55:01 5.7 C 73 % 1.25 C
Sensor: Nr:Datum:Temp:Feuchte:Taupunkt:
Aussen-T/F 76 20-02-2009 15:07:02 5.8 C 73 % 1.34 C
77 20-02-2009 15:19:01 5.7 C 72 % 1.06 C
78 20-02-2009 15:31:01 5.5 C 71 % 0.67 C
79 20-02-2009 15:43:01 5.4 C 73 % 0.96 C
80 20-02-2009 15:55:01 5.5 C 73 % 1.06 C
81 20-02-2009 16:07:01 5.6 C 75 % 1.53 C
82 20-02-2009 16:19:01 5.6 C 75 % 1.53 C
83 20-02-2009 16:31:01 5.4 C 75 % 1.33 C
84 20-02-2009 16:43:01 5.3 C 77 % 1.6 C
85 20-02-2009 16:55:01 5.1 C 79 % 1.77 C
86 20-02-2009 17:07:01 5 C 81 % 2.02 C
87 20-02-2009 17:19:01 4.9 C 84 % 2.43 C
88 20-02-2009 17:31:01 4.8 C 86 % 2.66 C
89 20-02-2009 17:43:01 4.7 C 87 % 2.73 C
90 20-02-2009 17:55:01 4.7 C 88 % 2.89 C
91 20-02-2009 18:07:01 4.6 C 87 % 2.63 C
92 20-02-2009 18:19:02 4.6 C 87 % 2.63 C
93 20-02-2009 18:31:01 4.6 C 87 % 2.63 C
94 20-02-2009 18:43:01 4.7 C 87 % 2.73 C
95 20-02-2009 18:55:02 4.6 C 88 % 2.79 C
96 20-02-2009 19:07:01 4.6 C 88 % 2.79 C
97 20-02-2009 19:19:02 4.5 C 89 % 2.85 C
98 20-02-2009 19:31:01 4.5 C 89 % 2.85 C
99 20-02-2009 19:43:01 4.6 C 90 % 3.1 C
100 20-02-2009 19:54:01 4.5 C 90 % 3.01 C
Sensor: Nr:Datum:Temp:Feuchte:Taupunkt:
Aussen-T/F 101 20-02-2009 20:06:02 4.5 C 90 % 3.01 C
102 20-02-2009 20:18:01 4.6 C 91 % 3.26 C
103 20-02-2009 20:30:01 4.6 C 91 % 3.26 C
104 20-02-2009 20:42:02 4.6 C 91 % 3.26 C
105 20-02-2009 20:54:01 4.6 C 91 % 3.26 C
106 20-02-2009 21:06:01 4.7 C 91 % 3.36 C
107 20-02-2009 21:18:01 4.8 C 90 % 3.3 C
108 20-02-2009 21:30:01 4.8 C 90 % 3.3 C
109 20-02-2009 21:42:01 4.8 C 89 % 3.14 C
110 20-02-2009 21:54:01 4.7 C 88 % 2.89 C
111 20-02-2009 22:06:01 4.6 C 88 % 2.79 C
112 20-02-2009 22:19:03 4.6 C 88 % 2.79 C
113 20-02-2009 22:31:03 4.5 C 88 % 2.69 C
114 20-02-2009 22:43:03 4.5 C 88 % 2.69 C
115 20-02-2009 22:55:03 4.5 C 88 % 2.69 C
116 20-02-2009 23:07:03 4.4 C 88 % 2.59 C
117 20-02-2009 23:19:03 4.4 C 88 % 2.59 C
118 20-02-2009 23:31:03 4.3 C 88 % 2.49 C
119 20-02-2009 23:43:03 4.3 C 88 % 2.49 C
120 20-02-2009 23:55:03 4.3 C 88 % 2.49 C
121 21-02-2009 00:07:03 4.2 C 88 % 2.39 C
122 21-02-2009 00:19:03 4.2 C 87 % 2.23 C
123 21-02-2009 00:31:03 4.1 C 87 % 2.14 C
124 21-02-2009 00:43:03 4.1 C 86 % 1.97 C
125 21-02-2009 00:55:03 4.1 C 85 % 1.81 C
Sensor: Nr:Datum:Temp:Feuchte:Taupunkt:
Aussen-T/F 126 21-02-2009 01:07:03 4 C 85 % 1.71 C
127 21-02-2009 01:19:03 4 C 85 % 1.71 C
128 21-02-2009 01:31:03 4 C 84 % 1.55 C
129 21-02-2009 01:43:04 4 C 84 % 1.55 C
130 21-02-2009 01:55:04 4 C 84 % 1.55 C
131 21-02-2009 02:07:04 4 C 83 % 1.38 C
132 21-02-2009 02:19:04 4 C 83 % 1.38 C
133 21-02-2009 02:31:04 4 C 83 % 1.38 C
134 21-02-2009 02:43:04 3.9 C 84 % 1.45 C
135 21-02-2009 02:55:04 3.9 C 84 % 1.45 C
136 21-02-2009 03:07:04 3.9 C 84 % 1.45 C
137 21-02-2009 03:19:04 3.8 C 84 % 1.35 C
138 21-02-2009 03:31:04 3.8 C 84 % 1.35 C
139 21-02-2009 03:43:04 3.8 C 84 % 1.35 C
140 21-02-2009 03:55:04 3.8 C 84 % 1.35 C
141 21-02-2009 04:07:04 3.8 C 84 % 1.35 C
142 21-02-2009 04:19:04 3.8 C 84 % 1.35 C
143 21-02-2009 04:31:04 3.7 C 84 % 1.25 C
144 21-02-2009 04:43:04 3.7 C 84 % 1.25 C
145 21-02-2009 04:55:04 3.7 C 85 % 1.42 C
146 21-02-2009 05:07:04 3.6 C 85 % 1.32 C
147 21-02-2009 05:19:04 3.6 C 85 % 1.32 C
148 21-02-2009 05:31:04 3.7 C 86 % 1.58 C
149 21-02-2009 05:43:05 3.8 C 86 % 1.68 C
150 21-02-2009 05:55:05 3.7 C 86 % 1.58 C
Sensor: Nr:Datum:Temp:Feuchte:Taupunkt:
Aussen-T/F 151 21-02-2009 06:07:05 3.7 C 86 % 1.58 C
152 21-02-2009 06:19:05 3.7 C 87 % 1.74 C
153 21-02-2009 06:31:05 3.8 C 87 % 1.84 C
154 21-02-2009 06:43:05 3.8 C 87 % 1.84 C
155 21-02-2009 06:55:05 3.8 C 87 % 1.84 C
156 21-02-2009 07:07:05 3.8 C 88 % 2 C
157 21-02-2009 07:19:05 3.7 C 88 % 1.9 C
158 21-02-2009 07:31:05 3.7 C 88 % 1.9 C
159 21-02-2009 07:43:05 3.7 C 88 % 1.9 C
160 21-02-2009 07:55:05 3.6 C 88 % 1.8 C
161 21-02-2009 08:07:03 3.6 C 88 % 1.8 C
162 21-02-2009 08:19:03 3.6 C 88 % 1.8 C
163 21-02-2009 08:31:02 3.6 C 88 % 1.8 C
164 21-02-2009 08:43:02 3.8 C 88 % 2 C
165 21-02-2009 08:55:03 3.9 C 88 % 2.1 C
166 21-02-2009 09:07:02 4 C 88 % 2.2 C
167 21-02-2009 09:19:02 4 C 87 % 2.04 C
168 21-02-2009 09:31:02 4.1 C 87 % 2.14 C
169 21-02-2009 09:43:02 4.4 C 87 % 2.43 C
170 21-02-2009 09:55:02 4.4 C 86 % 2.27 C
171 21-02-2009 10:07:01 4.5 C 84 % 2.04 C
172 21-02-2009 10:19:02 4.7 C 82 % 1.9 C
173 21-02-2009 10:31:02 5.1 C 80 % 1.94 C
174 21-02-2009 10:43:02 5.3 C 78 % 1.78 C
175 21-02-2009 10:55:01 5.5 C 74 % 1.24 C
Sensor: Nr:Datum:Temp:Feuchte:Taupunkt:
Aussen-T/F 176 21-02-2009 11:07:02 5.5 C 73 % 1.06 C
177 21-02-2009 11:19:01 5.7 C 72 % 1.06 C
178 21-02-2009 11:31:01 6 C 69 % 0.76 C
179 21-02-2009 11:43:01 6 C 68 % 0.55 C
180 21-02-2009 11:55:01 6.4 C 66 % 0.52 C
181 21-02-2009 12:07:01 6.7 C 64 % 0.38 C
182 21-02-2009 12:19:00 6.2 C 61 % -0.75 C
183 21-02-2009 12:31:00 6.4 C 62 % -0.34 C
184 21-02-2009 12:43:00 6.4 C 62 % -0.34 C
185 21-02-2009 12:55:00 6.4 C 61 % -0.56 C
186 21-02-2009 13:07:00 6.5 C 59 % -0.92 C
187 21-02-2009 13:19:00 6.6 C 56 % -1.54 C
188 21-02-2009 13:31:00 6.8 C 56 % -1.35 C
189 21-02-2009 13:43:00 6.7 C 54 % -1.94 C
190 21-02-2009 13:55:59 6.5 C 54 % -2.12 C
191 21-02-2009 14:07:00 6.5 C 54 % -2.12 C
192 21-02-2009 14:19:00 6.5 C 54 % -2.12 C
193 21-02-2009 14:31:59 6.8 C 53 % -2.09 C
194 21-02-2009 14:43:59 6.7 C 53 % -2.19 C
195 21-02-2009 14:54:59 6.5 C 53 % -2.37 C
196 21-02-2009 15:07:59 6.5 C 53 % -2.37 C
197 21-02-2009 15:19:59 6.4 C 52 % -2.72 C
198 21-02-2009 15:31:59 6.3 C 51 % -3.08 C
199 21-02-2009 15:43:59 6.2 C 51 % -3.17 C
200 21-02-2009 15:55:59 6.2 C 53 % -2.65 C
Sensor: Nr:Datum:Temp:Feuchte:Taupunkt:
Aussen-T/F 201 21-02-2009 16:07:59 6.1 C 55 % -2.25 C
202 21-02-2009 16:19:58 6 C 56 % -2.1 C
203 21-02-2009 16:31:58 5.8 C 58 % -1.81 C
204 21-02-2009 16:43:58 5.8 C 58 % -1.81 C
205 21-02-2009 16:55:58 5.7 C 59 % -1.67 C
206 21-02-2009 17:07:58 5.7 C 59 % -1.67 C
207 21-02-2009 17:19:57 5.7 C 58 % -1.9 C
208 21-02-2009 17:31:58 5.6 C 60 % -1.54 C
209 21-02-2009 17:43:58 5.4 C 61 % -1.5 C
210 21-02-2009 17:55:57 5.3 C 61 % -1.6 C
211 21-02-2009 18:07:57 5.1 C 62 % -1.57 C
212 21-02-2009 18:19:58 4.9 C 65 % -1.11 C
213 21-02-2009 18:31:57 4.7 C 67 % -0.89 C
214 21-02-2009 18:43:57 4.6 C 67 % -0.99 C
215 21-02-2009 18:55:57 4.5 C 67 % -1.08 C
216 21-02-2009 19:07:57 4.4 C 68 % -0.98 C
217 21-02-2009 19:19:57 4.2 C 67 % -1.37 C
218 21-02-2009 19:31:56 4.1 C 67 % -1.46 C
219 21-02-2009 19:43:56 4.2 C 67 % -1.37 C
220 21-02-2009 19:55:57 4.3 C 67 % -1.27 C
221 21-02-2009 20:07:56 4.3 C 68 % -1.07 C
222 21-02-2009 20:19:56 4.3 C 68 % -1.07 C
223 21-02-2009 20:31:56 4.3 C 68 % -1.07 C
224 21-02-2009 20:43:56 4.3 C 68 % -1.07 C
225 21-02-2009 20:55:56 4.2 C 68 % -1.17 C
Sensor: Nr:Datum:Temp:Feuchte:Taupunkt:
Aussen-T/F 226 21-02-2009 21:07:55 4.2 C 69 % -0.97 C
227 21-02-2009 21:19:56 4.2 C 69 % -0.97 C
228 21-02-2009 21:31:56 4.3 C 69 % -0.87 C
229 21-02-2009 21:43:56 4.3 C 69 % -0.87 C
230 21-02-2009 21:55:55 4.3 C 69 % -0.87 C
231 21-02-2009 22:07:56 4.3 C 69 % -0.87 C
232 21-02-2009 22:19:55 4.2 C 69 % -0.97 C
233 21-02-2009 22:31:55 4.2 C 69 % -0.97 C
234 21-02-2009 22:43:56 4.2 C 69 % -0.97 C
235 21-02-2009 22:56:57 4.2 C 69 % -0.97 C
236 21-02-2009 23:08:57 4.4 C 67 % -1.18 C
237 21-02-2009 23:20:57 4.5 C 67 % -1.08 C
238 21-02-2009 23:32:57 4.6 C 66 % -1.19 C
239 21-02-2009 23:44:57 4.6 C 66 % -1.19 C
240 21-02-2009 23:56:57 4.6 C 66 % -1.19 C
241 22-02-2009 00:08:57 4.4 C 68 % -0.98 C
242 22-02-2009 00:20:57 4.2 C 69 % -0.97 C
243 22-02-2009 00:32:57 4 C 72 % -0.58 C
244 22-02-2009 00:44:57 3.7 C 76 % -0.13 C
245 22-02-2009 00:56:57 3.7 C 78 % 0.23 C
246 22-02-2009 01:08:57 3.7 C 78 % 0.23 C
247 22-02-2009 01:20:57 3.7 C 78 % 0.23 C
248 22-02-2009 01:32:57 3.8 C 79 % 0.5 C
249 22-02-2009 01:44:58 3.6 C 80 % 0.48 C
250 22-02-2009 01:56:58 3.6 C 80 % 0.48 C
Sensor: Nr:Datum:Temp:Feuchte:Taupunkt:
Aussen-T/F 251 22-02-2009 02:08:58 3.5 C 82 % 0.72 C
252 22-02-2009 02:20:58 3.4 C 82 % 0.63 C
253 22-02-2009 02:32:58 3.4 C 83 % 0.79 C
254 22-02-2009 02:44:58 3.5 C 84 % 1.06 C
255 22-02-2009 02:56:58 3.5 C 84 % 1.06 C
256 22-02-2009 03:08:58 3.5 C 84 % 1.06 C
257 22-02-2009 03:20:58 3.4 C 84 % 0.96 C
258 22-02-2009 03:32:58 3.3 C 85 % 1.03 C
259 22-02-2009 03:44:58 3.3 C 86 % 1.19 C
260 22-02-2009 03:56:58 3.3 C 87 % 1.35 C
261 22-02-2009 04:08:58 3.2 C 87 % 1.25 C
262 22-02-2009 04:20:58 3.2 C 88 % 1.41 C
263 22-02-2009 04:32:58 3.3 C 89 % 1.67 C
264 22-02-2009 04:44:58 3.3 C 89 % 1.67 C
265 22-02-2009 04:56:58 3.3 C 89 % 1.67 C
266 22-02-2009 05:08:58 3.3 C 89 % 1.67 C
267 22-02-2009 05:20:58 3.4 C 89 % 1.76 C
268 22-02-2009 05:32:59 3.5 C 90 % 2.02 C
269 22-02-2009 05:44:59 3.5 C 89 % 1.86 C
270 22-02-2009 05:56:59 3.6 C 89 % 1.96 C
271 22-02-2009 06:08:59 3.7 C 89 % 2.06 C
272 22-02-2009 06:20:59 3.7 C 89 % 2.06 C
273 22-02-2009 06:32:59 3.8 C 89 % 2.16 C
274 22-02-2009 06:44:59 3.8 C 89 % 2.16 C
275 22-02-2009 06:56:59 3.8 C 89 % 2.16 C
Sensor: Nr:Datum:Temp:Feuchte:Taupunkt:
Aussen-T/F 276 22-02-2009 07:08:56 3.9 C 88 % 2.1 C
277 22-02-2009 07:20:56 4 C 88 % 2.2 C
278 22-02-2009 07:32:56 4 C 88 % 2.2 C
279 22-02-2009 07:44:56 4 C 88 % 2.2 C
280 22-02-2009 07:56:56 4.1 C 88 % 2.3 C
281 22-02-2009 08:08:56 4.1 C 88 % 2.3 C
282 22-02-2009 08:20:55 4.2 C 88 % 2.39 C
283 22-02-2009 08:32:55 4.3 C 88 % 2.49 C
284 22-02-2009 08:44:55 4.3 C 87 % 2.33 C
285 22-02-2009 08:56:55 4.3 C 87 % 2.33 C
286 22-02-2009 09:08:55 4.5 C 87 % 2.53 C
287 22-02-2009 09:20:55 4.5 C 87 % 2.53 C
288 22-02-2009 09:32:55 4.6 C 87 % 2.63 C
289 22-02-2009 09:44:55 4.6 C 86 % 2.47 C
290 22-02-2009 09:56:55 4.6 C 87 % 2.63 C
291 22-02-2009 10:08:54 4.7 C 87 % 2.73 C
292 22-02-2009 10:20:55 4.8 C 87 % 2.82 C
293 22-02-2009 10:32:54 4.9 C 87 % 2.92 C
294 22-02-2009 10:44:55 5 C 86 % 2.86 C
295 22-02-2009 10:56:55 5.1 C 85 % 2.79 C
296 22-02-2009 11:08:54 5.2 C 85 % 2.89 C
297 22-02-2009 11:20:55 5.4 C 86 % 3.25 C
298 22-02-2009 11:32:54 5.4 C 86 % 3.25 C
299 22-02-2009 11:44:54 5.8 C 85 % 3.48 C
300 22-02-2009 11:56:54 6.1 C 84 % 3.61 C
Sensor: Nr:Datum:Temp:Feuchte:Taupunkt:
Aussen-T/F 301 22-02-2009 12:08:54 6.2 C 84 % 3.7 C
302 22-02-2009 12:20:54 6.2 C 84 % 3.7 C
303 22-02-2009 12:32:54 6.3 C 84 % 3.8 C
304 22-02-2009 12:44:54 6.5 C 83 % 3.83 C
305 22-02-2009 12:56:54 6.9 C 80 % 3.7 C
306 22-02-2009 13:08:54 7.1 C 76 % 3.16 C
307 22-02-2009 13:20:53 7.1 C 75 % 2.98 C
308 22-02-2009 13:32:53 7.2 C 73 % 2.69 C
309 22-02-2009 13:44:53 7.2 C 73 % 2.69 C
310 22-02-2009 13:56:53 7.3 C 72 % 2.6 C
311 22-02-2009 14:08:53 7.5 C 71 % 2.59 C
312 22-02-2009 14:20:52 7.6 C 70 % 2.49 C
313 22-02-2009 14:32:53 7.5 C 69 % 2.19 C
314 22-02-2009 14:44:52 7.5 C 70 % 2.39 C
315 22-02-2009 14:56:52 7.4 C 71 % 2.5 C
316 22-02-2009 15:08:52 7.3 C 73 % 2.79 C
317 22-02-2009 15:20:53 7.1 C 77 % 3.35 C
318 22-02-2009 15:32:52 7 C 81 % 3.97 C
319 22-02-2009 15:44:52 7 C 83 % 4.32 C
320 22-02-2009 15:56:52 6.9 C 85 % 4.56 C
321 22-02-2009 16:08:52 6.9 C 87 % 4.89 C
322 22-02-2009 16:20:52 6.8 C 87 % 4.79 C
323 22-02-2009 16:32:52 6.8 C 88 % 4.96 C
324 22-02-2009 16:44:51 6.8 C 88 % 4.96 C
325 22-02-2009 16:56:51 6.7 C 88 % 4.86 C
Sensor: Nr:Datum:Temp:Feuchte:Taupunkt:
Aussen-T/F 326 22-02-2009 17:08:51 6.7 C 89 % 5.02 C
327 22-02-2009 17:20:51 6.7 C 89 % 5.02 C
328 22-02-2009 17:32:51 6.6 C 88 % 4.76 C
329 22-02-2009 17:44:51 6.6 C 87 % 4.6 C
330 22-02-2009 17:56:51 6.6 C 86 % 4.43 C
331 22-02-2009 18:08:51 6.6 C 86 % 4.43 C
332 22-02-2009 18:20:50 6.6 C 85 % 4.26 C
333 22-02-2009 18:32:51 6.5 C 84 % 4 C
334 22-02-2009 18:44:50 6.6 C 83 % 3.92 C
335 22-02-2009 18:56:50 6.4 C 83 % 3.73 C
336 22-02-2009 19:08:50 6.3 C 84 % 3.8 C
337 22-02-2009 19:20:50 6.2 C 86 % 4.04 C
338 22-02-2009 19:32:50 6.1 C 86 % 3.94 C
339 22-02-2009 19:44:49 6 C 86 % 3.84 C
340 22-02-2009 19:56:49 5.9 C 86 % 3.74 C
341 22-02-2009 20:08:50 5.9 C 85 % 3.58 C
342 22-02-2009 20:20:50 5.9 C 84 % 3.41 C
343 22-02-2009 20:32:49 5.9 C 84 % 3.41 C
344 22-02-2009 20:44:50 6 C 82 % 3.17 C
345 22-02-2009 20:56:50 6.2 C 80 % 3.01 C
346 22-02-2009 21:08:49 6.1 C 79 % 2.74 C
347 22-02-2009 21:20:49 6 C 80 % 2.82 C
348 22-02-2009 21:32:49 5.9 C 81 % 2.9 C
349 22-02-2009 21:44:49 5.9 C 82 % 3.07 C
350 22-02-2009 21:56:49 5.9 C 82 % 3.07 C
Sensor: Nr:Datum:Temp:Feuchte:Taupunkt:
Aussen-T/F 351 22-02-2009 22:08:48 5.9 C 83 % 3.24 C
352 22-02-2009 22:20:49 5.9 C 83 % 3.24 C
353 22-02-2009 22:33:49 5.8 C 84 % 3.31 C
354 22-02-2009 22:45:49 5.7 C 85 % 3.38 C
355 22-02-2009 22:57:49 5.7 C 85 % 3.38 C
356 22-02-2009 23:09:49 5.6 C 85 % 3.28 C
357 22-02-2009 23:21:49 5.6 C 84 % 3.12 C
358 22-02-2009 23:33:50 5.7 C 82 % 2.87 C
359 22-02-2009 23:45:50 5.7 C 81 % 2.7 C
360 22-02-2009 23:57:50 5.8 C 80 % 2.62 C
361 23-02-2009 00:09:50 5.8 C 78 % 2.27 C
362 23-02-2009 00:21:50 5.9 C 76 % 2 C
363 23-02-2009 00:33:50 5.8 C 75 % 1.72 C
364 23-02-2009 00:45:50 5.8 C 74 % 1.53 C
365 23-02-2009 00:57:50 5.6 C 72 % 0.96 C
366 23-02-2009 01:09:50 5.2 C 72 % 0.58 C
367 23-02-2009 01:21:50 5 C 72 % 0.38 C
368 23-02-2009 01:33:50 5.1 C 70 % 0.09 C
369 23-02-2009 01:45:50 5.2 C 68 % -0.21 C
370 23-02-2009 01:57:50 5.2 C 67 % -0.41 C
371 23-02-2009 02:09:50 5.2 C 66 % -0.62 C
372 23-02-2009 02:21:50 5.2 C 65 % -0.83 C
373 23-02-2009 02:33:50 5.3 C 64 % -0.94 C
374 23-02-2009 02:45:50 5.3 C 63 % -1.16 C
375 23-02-2009 02:57:50 5.3 C 62 % -1.38 C
Sensor: Nr:Datum:Temp:Feuchte:Taupunkt:
Aussen-T/F 376 23-02-2009 03:09:50 5.4 C 61 % -1.5 C
377 23-02-2009 03:21:51 5.6 C 57 % -2.23 C
378 23-02-2009 03:33:51 5.4 C 57 % -2.42 C
379 23-02-2009 03:45:51 5.3 C 58 % -2.28 C
380 23-02-2009 03:57:51 5.3 C 58 % -2.28 C
381 23-02-2009 04:09:51 5.3 C 57 % -2.51 C
382 23-02-2009 04:21:51 5.2 C 56 % -2.84 C
383 23-02-2009 04:33:51 5.2 C 56 % -2.84 C
384 23-02-2009 04:45:51 5.2 C 57 % -2.61 C
385 23-02-2009 04:57:51 5.3 C 56 % -2.75 C
386 23-02-2009 05:09:51 5.4 C 58 % -2.18 C
387 23-02-2009 05:21:51 5.4 C 59 % -1.95 C
388 23-02-2009 05:33:51 5.4 C 59 % -1.95 C
389 23-02-2009 05:45:51 5.3 C 59 % -2.05 C
390 23-02-2009 05:57:51 5 C 62 % -1.66 C
391 23-02-2009 06:09:51 4.2 C 72 % -0.39 C
392 23-02-2009 06:21:51 4.2 C 76 % 0.36 C
393 23-02-2009 06:33:51 4 C 79 % 0.7 C
394 23-02-2009 06:45:51 3.9 C 82 % 1.12 C
395 23-02-2009 06:57:51 3.8 C 83 % 1.19 C
396 23-02-2009 07:09:52 3.9 C 84 % 1.45 C
397 23-02-2009 07:21:52 4 C 83 % 1.38 C
398 23-02-2009 07:33:52 4 C 83 % 1.38 C
399 23-02-2009 07:45:52 4.3 C 81 % 1.34 C
400 23-02-2009 07:57:52 4.7 C 77 % 1.02 C
Sensor: Nr:Datum:Temp:Feuchte:Taupunkt:
Aussen-T/F 401 23-02-2009 08:09:52 4.8 C 74 % 0.57 C
402 23-02-2009 08:21:52 4.9 C 73 % 0.48 C
403 23-02-2009 08:33:52 5 C 71 % 0.19 C
404 23-02-2009 08:45:52 5.1 C 70 % 0.09 C
405 23-02-2009 08:57:52 5.2 C 69 % -0.01 C
406 23-02-2009 09:09:52 5 C 72 % 0.38 C
407 23-02-2009 09:21:52 4.9 C 75 % 0.85 C
408 23-02-2009 09:33:49 5 C 74 % 0.76 C
409 23-02-2009 09:45:48 5.2 C 71 % 0.38 C
410 23-02-2009 09:57:48 5.2 C 71 % 0.38 C
411 23-02-2009 10:09:49 5.3 C 70 % 0.28 C
412 23-02-2009 10:21:49 5.6 C 68 % 0.17 C
413 23-02-2009 10:33:48 5.8 C 68 % 0.36 C
414 23-02-2009 10:45:48 6 C 66 % 0.14 C
415 23-02-2009 10:57:48 6.3 C 65 % 0.22 C
416 23-02-2009 11:09:48 6.7 C 63 % 0.17 C
417 23-02-2009 11:21:48 6.6 C 62 % -0.15 C
418 23-02-2009 11:33:48 6.6 C 62 % -0.15 C
419 23-02-2009 11:45:47 6.6 C 62 % -0.15 C
420 23-02-2009 11:57:47 6.7 C 61 % -0.28 C
421 23-02-2009 12:09:48 6.7 C 62 % -0.05 C
422 23-02-2009 12:21:47 6.8 C 61 % -0.18 C
423 23-02-2009 12:33:47 6.9 C 60 % -0.31 C
424 23-02-2009 12:45:47 7 C 59 % -0.45 C
425 23-02-2009 12:57:47 7.3 C 58 % -0.4 C
Sensor: Nr:Datum:Temp:Feuchte:Taupunkt:
Aussen-T/F 426 23-02-2009 13:09:47 7.3 C 59 % -0.17 C
427 23-02-2009 13:21:47 6.4 C 66 % 0.52 C
428 23-02-2009 13:33:47 5.9 C 74 % 1.63 C
429 23-02-2009 13:45:47 5.9 C 75 % 1.82 C
430 23-02-2009 13:57:47 6.1 C 75 % 2.01 C
431 23-02-2009 14:09:46 6.2 C 73 % 1.73 C
432 23-02-2009 14:21:47 6.4 C 73 % 1.92 C
433 23-02-2009 14:33:46 6.3 C 70 % 1.24 C
434 23-02-2009 14:45:46 5.9 C 73 % 1.44 C
435 23-02-2009 14:57:46 5.7 C 77 % 1.99 C
436 23-02-2009 15:09:46 5.8 C 78 % 2.27 C
437 23-02-2009 15:21:46 6 C 77 % 2.28 C
438 23-02-2009 15:33:46 6.5 C 73 % 2.02 C
439 23-02-2009 15:45:45 6.9 C 71 % 2.02 C
440 23-02-2009 15:57:45 6.8 C 64 % 0.48 C
441 23-02-2009 16:09:46 6.3 C 67 % 0.64 C
442 23-02-2009 16:21:45 6 C 70 % 0.95 C
443 23-02-2009 16:33:45 5.8 C 72 % 1.15 C
444 23-02-2009 16:45:45 5.9 C 72 % 1.25 C
445 23-02-2009 16:57:45 5.9 C 70 % 0.86 C
446 23-02-2009 17:09:45 5.9 C 70 % 0.86 C
447 23-02-2009 17:21:44 5.7 C 71 % 0.86 C
448 23-02-2009 17:33:45 5.7 C 70 % 0.67 C
449 23-02-2009 17:45:44 5.7 C 69 % 0.47 C
450 23-02-2009 17:57:44 5.7 C 69 % 0.47 C
Sensor: Nr:Datum:Temp:Feuchte:Taupunkt:
Aussen-T/F 451 23-02-2009 18:09:03 5.7 C 68 % 0.27 C
452 23-02-2009 18:21:02 5.6 C 69 % 0.37 C
453 23-02-2009 18:33:02 5.4 C 69 % 0.18 C
454 23-02-2009 18:45:02 5.3 C 70 % 0.28 C
455 23-02-2009 18:57:02 5.3 C 70 % 0.28 C
456 23-02-2009 19:09:02 5.4 C 70 % 0.38 C
457 23-02-2009 19:21:01 5.4 C 70 % 0.38 C
458 23-02-2009 19:33:02 5.4 C 66 % -0.43 C
459 23-02-2009 19:45:01 5.6 C 63 % -0.87 C
460 23-02-2009 19:57:01 5.6 C 61 % -1.31 C
461 23-02-2009 20:09:01 5.6 C 61 % -1.31 C
462 23-02-2009 20:21:01 5.6 C 59 % -1.77 C
463 23-02-2009 20:33:01 5.6 C 58 % -2 C
464 23-02-2009 20:45:00 5.6 C 58 % -2 C
465 23-02-2009 20:57:00 5.6 C 57 % -2.23 C
466 23-02-2009 21:09:01 5.6 C 57 % -2.23 C
467 23-02-2009 21:21:00 5.7 C 56 % -2.38 C
468 23-02-2009 21:34:01 5.5 C 57 % -2.33 C
469 23-02-2009 21:46:01 5.6 C 57 % -2.23 C
470 23-02-2009 21:58:01 5.5 C 57 % -2.33 C
471 23-02-2009 22:10:01 5.3 C 59 % -2.05 C
472 23-02-2009 22:22:01 5.1 C 61 % -1.79 C
473 23-02-2009 22:34:01 5 C 63 % -1.44 C
474 23-02-2009 22:46:01 4.9 C 65 % -1.11 C
475 23-02-2009 22:58:01 4.6 C 68 % -0.78 C
Sensor: Nr:Datum:Temp:Feuchte:Taupunkt:
Aussen-T/F 476 23-02-2009 23:10:01 4.6 C 69 % -0.58 C
477 23-02-2009 23:22:01 4.6 C 69 % -0.58 C
478 23-02-2009 23:34:01 4.6 C 69 % -0.58 C
479 23-02-2009 23:46:01 4.6 C 68 % -0.78 C
480 23-02-2009 23:58:01 4.7 C 68 % -0.69 C
481 24-02-2009 00:10:01 4.7 C 68 % -0.69 C
482 24-02-2009 00:22:01 4.7 C 67 % -0.89 C
483 24-02-2009 00:34:01 4.7 C 68 % -0.69 C
484 24-02-2009 00:46:01 4.7 C 67 % -0.89 C
485 24-02-2009 00:58:01 4.7 C 67 % -0.89 C
486 24-02-2009 01:10:02 4.6 C 67 % -0.99 C
487 24-02-2009 01:22:02 4.6 C 67 % -0.99 C
488 24-02-2009 01:34:02 4.5 C 68 % -0.88 C
489 24-02-2009 01:46:02 4.5 C 68 % -0.88 C
490 24-02-2009 01:58:02 4.5 C 68 % -0.88 C
491 24-02-2009 02:10:02 4.4 C 69 % -0.78 C
492 24-02-2009 02:22:02 4.3 C 71 % -0.48 C
493 24-02-2009 02:34:02 4.2 C 72 % -0.39 C
494 24-02-2009 02:46:02 4.3 C 72 % -0.29 C
495 24-02-2009 02:58:02 4.3 C 71 % -0.48 C
496 24-02-2009 03:10:02 4.2 C 71 % -0.58 C
497 24-02-2009 03:22:02 4.2 C 71 % -0.58 C
498 24-02-2009 03:34:02 4.2 C 71 % -0.58 C
499 24-02-2009 03:46:02 4.1 C 71 % -0.67 C
500 24-02-2009 03:58:02 4.1 C 71 % -0.67 C
Sensor: Nr:Datum:Temp:Feuchte:Taupunkt:
Aussen-T/F 501 24-02-2009 04:10:02 4.2 C 70 % -0.77 C
502 24-02-2009 04:22:02 4.1 C 70 % -0.87 C
503 24-02-2009 04:34:02 4.1 C 69 % -1.06 C
504 24-02-2009 04:46:02 4.1 C 69 % -1.06 C
505 24-02-2009 04:58:02 4.1 C 68 % -1.26 C
506 24-02-2009 05:10:03 4.1 C 68 % -1.26 C
507 24-02-2009 05:22:03 4.1 C 68 % -1.26 C
508 24-02-2009 05:34:03 4 C 68 % -1.36 C
509 24-02-2009 05:46:03 4 C 68 % -1.36 C
510 24-02-2009 05:58:03 4.1 C 68 % -1.26 C
511 24-02-2009 06:10:03 4.1 C 68 % -1.26 C
512 24-02-2009 06:22:03 4.1 C 68 % -1.26 C
513 24-02-2009 06:34:03 4 C 68 % -1.36 C
514 24-02-2009 06:46:03 4.1 C 67 % -1.46 C
515 24-02-2009 06:58:03 4 C 68 % -1.36 C
516 24-02-2009 07:10:01 4 C 68 % -1.36 C
517 24-02-2009 07:22:01 4 C 68 % -1.36 C
518 24-02-2009 07:34:01 4 C 68 % -1.36 C
519 24-02-2009 07:46:01 4 C 68 % -1.36 C
520 24-02-2009 07:58:01 4 C 67 % -1.56 C
521 24-02-2009 08:10:00 4.1 C 67 % -1.46 C
522 24-02-2009 08:22:01 4.1 C 67 % -1.46 C
523 24-02-2009 08:34:00 4.1 C 67 % -1.46 C
524 24-02-2009 08:46:00 4.2 C 67 % -1.37 C
525 24-02-2009 08:58:01 4.2 C 67 % -1.37 C
Sensor: Nr:Datum:Temp:Feuchte:Taupunkt:
Aussen-T/F 526 24-02-2009 09:09:59 4.3 C 67 % -1.27 C
527 24-02-2009 09:22:00 4.4 C 66 % -1.38 C
528 24-02-2009 09:34:59 4.6 C 65 % -1.4 C
529 24-02-2009 09:46:00 4.8 C 65 % -1.21 C
530 24-02-2009 09:58:00 4.7 C 64 % -1.51 C
531 24-02-2009 10:10:59 4.9 C 63 % -1.54 C
532 24-02-2009 10:22:59 5 C 62 % -1.66 C
533 24-02-2009 10:34:59 5.1 C 62 % -1.57 C
534 24-02-2009 10:46:59 5.3 C 62 % -1.38 C
535 24-02-2009 10:59:00 5.1 C 62 % -1.57 C
536 24-02-2009 11:10:58 5.1 C 62 % -1.57 C
537 24-02-2009 11:22:59 5.4 C 63 % -1.06 C
538 24-02-2009 11:34:59 5.4 C 61 % -1.5 C
539 24-02-2009 11:46:58 5.7 C 61 % -1.22 C
540 24-02-2009 11:58:58 5.9 C 55 % -2.43 C
541 24-02-2009 12:10:59 6.1 C 52 % -3 C
542 24-02-2009 12:22:58 6 C 51 % -3.35 C
543 24-02-2009 12:34:58 6.1 C 52 % -3 C
544 24-02-2009 12:46:58 6.3 C 54 % -2.31 C
545 24-02-2009 12:58:58 6 C 53 % -2.84 C
546 24-02-2009 13:10:58 6.2 C 52 % -2.91 C
547 24-02-2009 13:22:57 6.3 C 51 % -3.08 C
548 24-02-2009 13:34:57 6.4 C 51 % -2.98 C
549 24-02-2009 13:46:57 6.7 C 50 % -2.97 C
550 24-02-2009 13:58:57 6.8 C 48 % -3.42 C
Sensor: Nr:Datum:Temp:Feuchte:Taupunkt:
Aussen-T/F 551 24-02-2009 14:10:57 6.9 C 46 % -3.9 C
552 24-02-2009 14:22:57 6.4 C 49 % -3.52 C
553 24-02-2009 14:34:57 6.7 C 49 % -3.24 C
554 24-02-2009 14:46:56 6.9 C 49 % -3.06 C
555 24-02-2009 14:58:56 7.1 C 46 % -3.72 C
556 24-02-2009 15:10:56 7 C 44 % -4.4 C
557 24-02-2009 15:22:57 6.9 C 44 % -4.49 C
558 24-02-2009 15:34:56 6.9 C 43 % -4.79 C
559 24-02-2009 15:46:56 7.5 C 43 % -4.25 C
560 24-02-2009 15:58:56 7.6 C 41 % -4.79 C
561 24-02-2009 16:10:56 8.1 C 39 % -5 C
562 24-02-2009 16:22:56 8.1 C 36 % -6.05 C
563 24-02-2009 16:34:55 7.9 C 37 % -5.87 C
564 24-02-2009 16:46:56 8.4 C 36 % -5.78 C
565 24-02-2009 16:58:57 7.8 C 38 % -5.61 C
566 24-02-2009 17:10:55 7.2 C 40 % -5.47 C
567 24-02-2009 17:22:55 6.6 C 42 % -5.37 C
568 24-02-2009 17:34:55 6.5 C 42 % -5.46 C
569 24-02-2009 17:46:55 6.5 C 45 % -4.56 C
570 24-02-2009 17:58:55 6.3 C 46 % -4.45 C
571 24-02-2009 18:10:55 6.2 C 44 % -5.13 C
572 24-02-2009 18:22:54 6.1 C 45 % -4.92 C
573 24-02-2009 18:34:55 5.9 C 49 % -3.98 C
574 24-02-2009 18:46:54 5.8 C 50 % -3.8 C
575 24-02-2009 18:58:54 5.6 C 52 % -3.46 C
Sensor: Nr:Datum:Temp:Feuchte:Taupunkt:
Aussen-T/F 576 24-02-2009 19:10:54 5.4 C 54 % -3.14 C
577 24-02-2009 19:22:54 5 C 54 % -3.52 C
578 24-02-2009 19:34:54 4.4 C 57 % -3.36 C
579 24-02-2009 19:46:53 3.9 C 57 % -3.82 C
580 24-02-2009 19:58:53 3.5 C 59 % -3.74 C
581 24-02-2009 20:10:54 3.4 C 59 % -3.84 C
582 24-02-2009 20:22:54 3.4 C 61 % -3.39 C
583 24-02-2009 20:34:53 3.5 C 64 % -2.65 C
584 24-02-2009 20:46:54 3.4 C 67 % -2.13 C
585 24-02-2009 20:58:54 3.3 C 68 % -2.03 C
586 24-02-2009 21:10:53 3.1 C 69 % -2.02 C
587 24-02-2009 21:22:53 2.8 C 71 % -1.92 C
588 24-02-2009 21:34:52 2.7 C 72 % -1.83 C
589 24-02-2009 21:46:53 2.8 C 73 % -1.55 C
590 24-02-2009 21:58:53 2.7 C 72 % -1.83 C
591 24-02-2009 22:10:52 3 C 73 % -1.35 C
592 24-02-2009 22:22:52 2.8 C 72 % -1.73 C
593 24-02-2009 22:34:53 2.6 C 73 % -1.74 C
594 24-02-2009 22:46:53 2.6 C 73 % -1.74 C
595 24-02-2009 22:58:53 2.6 C 74 % -1.56 C
596 24-02-2009 23:10:53 2.6 C 73 % -1.74 C
597 24-02-2009 23:22:53 2.4 C 74 % -1.75 C
598 24-02-2009 23:34:53 2.3 C 74 % -1.85 C
599 24-02-2009 23:46:53 2 C 75 % -1.95 C
600 24-02-2009 23:58:53 1.8 C 76 % -1.97 C
Sensor: Nr:Datum:Temp:Feuchte:Taupunkt:
Aussen-T/F 601 25-02-2009 00:10:53 1.7 C 77 % -1.89 C
602 25-02-2009 00:22:52 1.7 C 77 % -1.89 C
603 25-02-2009 00:34:52 1.5 C 78 % -1.91 C
604 25-02-2009 00:46:51 1.3 C 79 % -1.93 C
605 25-02-2009 00:58:51 1.1 C 79 % -2.12 C
606 25-02-2009 01:10:52 1.1 C 80 % -1.96 C
607 25-02-2009 01:22:52 0.9 C 81 % -1.98 C
608 25-02-2009 01:34:51 0.7 C 82 % -2.01 C
609 25-02-2009 01:46:51 0.7 C 82 % -2.01 C
610 25-02-2009 01:58:51 0.6 C 83 % -1.95 C
611 25-02-2009 02:10:51 0.5 C 83 % -2.04 C
612 25-02-2009 02:22:51 0.2 C 83 % -2.34 C
613 25-02-2009 02:34:50 0 C 83 % -2.53 C
614 25-02-2009 02:47:53 -0.3 C 83 % -2.83 C
615 25-02-2009 02:59:53 -0.3 C 83 % -2.83 C
616 25-02-2009 03:11:52 -0.4 C 84 % -2.77 C
617 25-02-2009 03:23:52 -0.5 C 84 % -2.86 C
618 25-02-2009 03:35:52 -0.4 C 84 % -2.77 C
619 25-02-2009 03:47:52 -0.7 C 84 % -3.06 C
620 25-02-2009 03:59:52 -0.7 C 84 % -3.06 C
621 25-02-2009 04:11:52 -0.8 C 84 % -3.16 C
622 25-02-2009 04:23:52 -0.8 C 84 % -3.16 C
623 25-02-2009 04:35:51 -0.8 C 85 % -3 C
624 25-02-2009 04:47:51 -0.9 C 86 % -2.94 C
625 25-02-2009 04:59:51 -0.7 C 87 % -2.59 C
Sensor: Nr:Datum:Temp:Feuchte:Taupunkt:
Aussen-T/F 626 25-02-2009 05:11:51 -0.7 C 87 % -2.59 C
627 25-02-2009 05:23:52 -0.6 C 88 % -2.34 C
628 25-02-2009 05:35:51 -0.7 C 89 % -2.28 C
629 25-02-2009 05:47:51 -0.6 C 89 % -2.18 C
630 25-02-2009 05:59:51 -0.6 C 89 % -2.18 C
631 25-02-2009 06:11:51 -0.7 C 89 % -2.28 C
632 25-02-2009 06:23:50 -0.9 C 89 % -2.48 C
633 25-02-2009 06:35:51 -0.8 C 90 % -2.23 C
634 25-02-2009 06:47:50 -0.9 C 90 % -2.33 C
635 25-02-2009 06:59:50 -0.8 C 90 % -2.23 C
636 25-02-2009 07:11:50 -0.7 C 90 % -2.13 C
637 25-02-2009 07:23:50 -0.7 C 90 % -2.13 C
638 25-02-2009 07:35:50 -0.6 C 90 % -2.03 C
639 25-02-2009 07:47:49 -0.7 C 90 % -2.13 C
640 25-02-2009 07:59:49 -0.8 C 90 % -2.23 C
641 25-02-2009 08:11:50 -0.8 C 90 % -2.23 C
642 25-02-2009 08:23:50 -0.9 C 89 % -2.48 C
643 25-02-2009 08:35:49 -0.9 C 89 % -2.48 C
644 25-02-2009 08:47:49 -0.8 C 89 % -2.38 C
645 25-02-2009 08:59:49 -0.3 C 89 % -1.89 C
646 25-02-2009 09:11:49 -0.1 C 89 % -1.69 C
647 25-02-2009 09:23:49 -0.2 C 88 % -1.94 C
648 25-02-2009 09:35:48 -0.2 C 87 % -2.1 C
649 25-02-2009 09:47:49 -0.2 C 87 % -2.1 C
650 25-02-2009 09:59:49 -0.1 C 87 % -2 C
Sensor: Nr:Datum:Temp:Feuchte:Taupunkt:
Aussen-T/F 651 25-02-2009 10:11:48 0.1 C 87 % -1.8 C
652 25-02-2009 10:23:48 0.3 C 87 % -1.6 C
653 25-02-2009 10:35:49 1 C 86 % -1.07 C
654 25-02-2009 10:47:48 1.1 C 83 % -1.46 C
655 25-02-2009 10:59:48 1.4 C 82 % -1.33 C
656 25-02-2009 11:11:48 2 C 80 % -1.08 C
657 25-02-2009 11:23:48 1.7 C 78 % -1.71 C
658 25-02-2009 11:35:48 2.3 C 77 % -1.31 C
659 25-02-2009 11:47:47 3.2 C 74 % -0.98 C
660 25-02-2009 11:59:47 3.5 C 73 % -0.87 C
661 25-02-2009 12:11:48 3.9 C 72 % -0.68 C
662 25-02-2009 12:23:47 4.8 C 70 % -0.2 C
663 25-02-2009 12:35:47 5.8 C 63 % -0.69 C
664 25-02-2009 12:47:47 6.4 C 53 % -2.47 C
665 25-02-2009 12:59:47 6.9 C 45 % -4.19 C
666 25-02-2009 13:11:47 7.4 C 40 % -5.29 C
667 25-02-2009 13:23:46 7.5 C 40 % -5.2 C
668 25-02-2009 13:35:46 7.6 C 40 % -5.11 C
669 25-02-2009 13:47:47 7.8 C 38 % -5.61 C
670 25-02-2009 13:59:47 7.9 C 38 % -5.52 C
671 25-02-2009 14:11:46 8 C 38 % -5.43 C
672 25-02-2009 14:23:46 8.1 C 38 % -5.34 C
673 25-02-2009 14:35:46 8.4 C 37 % -5.42 C
674 25-02-2009 14:47:46 8.7 C 36 % -5.52 C
675 25-02-2009 14:59:46 8.6 C 35 % -5.97 C
Sensor: Nr:Datum:Temp:Feuchte:Taupunkt:
Aussen-T/F 676 25-02-2009 15:11:45 8.6 C 36 % -5.6 C
677 25-02-2009 15:23:46 8.7 C 36 % -5.52 C
678 25-02-2009 15:35:46 8.9 C 35 % -5.71 C
679 25-02-2009 15:47:45 8.6 C 36 % -5.6 C
680 25-02-2009 15:59:45 8.4 C 37 % -5.42 C
681 25-02-2009 16:11:46 8.5 C 38 % -4.98 C
682 25-02-2009 16:23:45 8.6 C 39 % -4.55 C
683 25-02-2009 16:35:45 8.6 C 38 % -4.89 C
684 25-02-2009 16:47:44 8.4 C 40 % -4.4 C
685 25-02-2009 16:59:44 8.1 C 40 % -4.66 C
686 25-02-2009 17:11:45 7.8 C 42 % -4.29 C
687 25-02-2009 17:23:44 7.5 C 45 % -3.65 C
688 25-02-2009 17:35:44 7.2 C 45 % -3.92 C
689 25-02-2009 17:47:44 6.9 C 47 % -3.61 C
690 25-02-2009 17:59:44 6.6 C 47 % -3.89 C
691 25-02-2009 18:11:44 6.4 C 47 % -4.07 C
692 25-02-2009 18:23:44 6.2 C 49 % -3.7 C
693 25-02-2009 18:35:43 6.2 C 50 % -3.43 C
694 25-02-2009 18:47:44 6 C 50 % -3.62 C
695 25-02-2009 18:59:44 5.8 C 51 % -3.54 C
696 25-02-2009 19:11:43 5.6 C 51 % -3.72 C
697 25-02-2009 19:23:43 5.4 C 51 % -3.91 C
698 25-02-2009 19:35:43 5.4 C 51 % -3.91 C
699 25-02-2009 19:47:43 5.4 C 51 % -3.91 C
700 25-02-2009 19:59:43 5.3 C 51 % -4 C
Sensor: Nr:Datum:Temp:Feuchte:Taupunkt:
Aussen-T/F 701 25-02-2009 20:11:42 5.1 C 52 % -3.93 C
702 25-02-2009 20:23:43 5 C 52 % -4.02 C
703 25-02-2009 20:35:43 5.2 C 52 % -3.83 C
704 25-02-2009 20:47:42 5.3 C 51 % -4 C
705 25-02-2009 20:59:42 5.3 C 52 % -3.74 C
706 25-02-2009 21:11:42 5.5 C 50 % -4.08 C
707 25-02-2009 21:23:42 5.6 C 50 % -3.99 C
708 25-02-2009 21:35:42 5.5 C 50 % -4.08 C
709 25-02-2009 21:47:42 5.5 C 50 % -4.08 C
710 25-02-2009 21:59:42 5.6 C 50 % -3.99 C
711 25-02-2009 22:11:41 5.7 C 49 % -4.16 C
712 25-02-2009 22:23:42 5.7 C 49 % -4.16 C
713 25-02-2009 22:36:43 5.7 C 49 % -4.16 C
714 25-02-2009 22:48:43 5.7 C 49 % -4.16 C
715 25-02-2009 23:00:43 5.7 C 49 % -4.16 C
716 25-02-2009 23:12:43 5.7 C 49 % -4.16 C
717 25-02-2009 23:24:43 5.8 C 49 % -4.07 C
718 25-02-2009 23:36:43 5.7 C 49 % -4.16 C
719 25-02-2009 23:48:43 5.6 C 50 % -3.99 C
720 26-02-2009 00:00:43 5.6 C 50 % -3.99 C
721 26-02-2009 00:12:43 5.5 C 51 % -3.81 C
722 26-02-2009 00:24:43 5.6 C 51 % -3.72 C
723 26-02-2009 00:36:43 5.6 C 52 % -3.46 C
724 26-02-2009 00:48:43 5.6 C 52 % -3.46 C
725 26-02-2009 01:00:43 5.6 C 52 % -3.46 C
Sensor: Nr:Datum:Temp:Feuchte:Taupunkt:
Aussen-T/F 726 26-02-2009 01:12:43 5.4 C 53 % -3.39 C
727 26-02-2009 01:24:43 5.3 C 53 % -3.49 C
728 26-02-2009 01:36:43 5.3 C 53 % -3.49 C
729 26-02-2009 01:48:44 5.2 C 54 % -3.33 C
730 26-02-2009 02:00:44 5.2 C 55 % -3.09 C
731 26-02-2009 02:12:44 5.2 C 55 % -3.09 C
732 26-02-2009 02:24:44 5.2 C 56 % -2.84 C
733 26-02-2009 02:36:44 5.2 C 56 % -2.84 C
734 26-02-2009 02:48:44 5.1 C 56 % -2.94 C
735 26-02-2009 03:00:44 5.1 C 57 % -2.7 C
736 26-02-2009 03:12:44 5 C 57 % -2.79 C
737 26-02-2009 03:24:44 5 C 58 % -2.56 C
738 26-02-2009 03:36:44 5.1 C 58 % -2.47 C
739 26-02-2009 03:48:44 5 C 58 % -2.56 C
740 26-02-2009 04:00:44 5 C 58 % -2.56 C
741 26-02-2009 04:12:44 5 C 58 % -2.56 C
742 26-02-2009 04:24:44 5.2 C 60 % -1.92 C
743 26-02-2009 04:36:44 5.3 C 62 % -1.38 C
744 26-02-2009 04:48:44 5.4 C 62 % -1.28 C
745 26-02-2009 05:00:44 5.5 C 62 % -1.19 C
746 26-02-2009 05:12:44 5.5 C 62 % -1.19 C
747 26-02-2009 05:24:44 5.4 C 62 % -1.28 C
748 26-02-2009 05:36:44 5.4 C 62 % -1.28 C
749 26-02-2009 05:48:45 5.4 C 62 % -1.28 C
750 26-02-2009 06:00:45 5.4 C 62 % -1.28 C
Sensor: Nr:Datum:Temp:Feuchte:Taupunkt:
Aussen-T/F 751 26-02-2009 06:12:45 5.4 C 62 % -1.28 C
752 26-02-2009 06:24:45 5.3 C 62 % -1.38 C
753 26-02-2009 06:36:45 5.2 C 63 % -1.25 C
754 26-02-2009 06:48:45 5.2 C 64 % -1.04 C
755 26-02-2009 07:00:42 5.2 C 64 % -1.04 C
756 26-02-2009 07:12:42 5.2 C 65 % -0.83 C
757 26-02-2009 07:24:42 5.2 C 65 % -0.83 C
758 26-02-2009 07:36:42 5.3 C 65 % -0.73 C
759 26-02-2009 07:48:41 5.3 C 65 % -0.73 C
760 26-02-2009 08:00:42 5.3 C 66 % -0.52 C
761 26-02-2009 08:12:42 5.3 C 66 % -0.52 C
762 26-02-2009 08:24:41 5.3 C 67 % -0.32 C
763 26-02-2009 08:36:41 5.4 C 67 % -0.22 C
764 26-02-2009 08:48:41 5.4 C 67 % -0.22 C
765 26-02-2009 09:00:41 5.5 C 67 % -0.13 C
766 26-02-2009 09:12:41 5.6 C 68 % 0.17 C
767 26-02-2009 09:24:41 5.6 C 69 % 0.37 C
768 26-02-2009 09:36:41 5.5 C 72 % 0.86 C
769 26-02-2009 09:48:41 5.4 C 74 % 1.15 C
770 26-02-2009 10:00:40 5.3 C 76 % 1.42 C
771 26-02-2009 10:12:40 5.4 C 77 % 1.7 C
772 26-02-2009 10:24:40 5.4 C 76 % 1.52 C
773 26-02-2009 10:36:40 5.5 C 76 % 1.62 C
774 26-02-2009 10:48:40 5.6 C 75 % 1.53 C
775 26-02-2009 11:00:39 5.7 C 75 % 1.62 C
Sensor: Nr:Datum:Temp:Feuchte:Taupunkt:
Aussen-T/F 776 26-02-2009 11:12:39 5.9 C 74 % 1.63 C
777 26-02-2009 11:24:40 6.3 C 72 % 1.63 C
778 26-02-2009 11:36:40 6.8 C 68 % 1.32 C
779 26-02-2009 11:48:39 7.1 C 65 % 0.98 C
780 26-02-2009 12:00:40 7.3 C 64 % 0.95 C
781 26-02-2009 12:12:40 7.8 C 62 % 0.99 C
782 26-02-2009 12:24:39 7.8 C 60 % 0.53 C
783 26-02-2009 12:36:39 8 C 58 % 0.25 C
784 26-02-2009 12:48:39 8 C 58 % 0.25 C
785 26-02-2009 13:00:39 7.9 C 59 % 0.4 C
786 26-02-2009 13:12:40 7.9 C 60 % 0.63 C
787 26-02-2009 13:24:38 8 C 59 % 0.49 C
788 26-02-2009 13:36:38 8.2 C 58 % 0.44 C
789 26-02-2009 13:48:38 8.3 C 58 % 0.54 C
790 26-02-2009 14:00:38 8.6 C 57 % 0.58 C
791 26-02-2009 14:12:38 8.9 C 54 % 0.11 C
792 26-02-2009 14:24:38 8.8 C 52 % -0.5 C
793 26-02-2009 14:36:38 9.2 C 44 % -2.4 C
794 26-02-2009 14:48:38 9.6 C 40 % -3.32 C
795 26-02-2009 15:00:37 9.5 C 40 % -3.41 C
796 26-02-2009 15:12:37 9.5 C 40 % -3.41 C
797 26-02-2009 15:24:38 9.6 C 39 % -3.65 C
798 26-02-2009 15:36:37 9.4 C 38 % -4.18 C
799 26-02-2009 15:48:37 9.4 C 40 % -3.5 C
800 26-02-2009 16:00:37 9.3 C 39 % -3.92 C
Sensor: Nr:Datum:Temp:Feuchte:Taupunkt:
Aussen-T/F 801 26-02-2009 16:12:37 9.4 C 41 % -3.17 C
802 26-02-2009 16:24:37 9.2 C 41 % -3.35 C
803 26-02-2009 16:36:37 9 C 41 % -3.53 C
804 26-02-2009 16:48:37 9 C 41 % -3.53 C
805 26-02-2009 17:00:37 8.8 C 41 % -3.71 C
806 26-02-2009 17:12:37 8.6 C 42 % -3.57 C
807 26-02-2009 17:24:36 8.6 C 43 % -3.25 C
808 26-02-2009 17:36:36 8.3 C 44 % -3.22 C
809 26-02-2009 17:48:36 8.2 C 45 % -3.01 C
810 26-02-2009 18:00:36 8.1 C 45 % -3.1 C
811 26-02-2009 18:12:36 8 C 46 % -2.9 C
812 26-02-2009 18:24:35 7.9 C 46 % -2.99 C
813 26-02-2009 18:36:02 7.8 C 47 % -2.79 C
814 26-02-2009 18:48:01 7.8 C 47 % -2.79 C
815 26-02-2009 19:00:01 7.7 C 48 % -2.6 C
816 26-02-2009 19:12:01 7.6 C 48 % -2.69 C
817 26-02-2009 19:24:01 7.6 C 49 % -2.41 C
818 26-02-2009 19:36:01 7.5 C 51 % -1.97 C
819 26-02-2009 19:48:00 7.5 C 53 % -1.44 C
820 26-02-2009 20:00:00 7.4 C 54 % -1.28 C
821 26-02-2009 20:12:01 7.4 C 55 % -1.03 C
822 26-02-2009 20:24:00 7.5 C 53 % -1.44 C
823 26-02-2009 20:36:00 7.5 C 53 % -1.44 C
824 26-02-2009 20:48:00 7.4 C 54 % -1.28 C
825 26-02-2009 21:00:00 7.3 C 55 % -1.13 C
Sensor: Nr:Datum:Temp:Feuchte:Taupunkt:
Aussen-T/F 826 26-02-2009 21:12:00 7.2 C 55 % -1.22 C
827 26-02-2009 21:24:00 7.2 C 55 % -1.22 C
828 26-02-2009 21:36:00 7.2 C 55 % -1.22 C
829 26-02-2009 22:00:00 7.2 C 54 % -1.47 C
830 26-02-2009 22:00:00 7.2 C 55 % -1.22 C
831 26-02-2009 22:12:00 7.2 C 55 % -1.22 C
832 26-02-2009 22:25:00 7.2 C 55 % -1.22 C
833 26-02-2009 22:37:00 7.1 C 54 % -1.56 C
834 26-02-2009 22:49:00 7.1 C 54 % -1.56 C
835 26-02-2009 23:01:00 7.2 C 54 % -1.47 C
836 26-02-2009 23:13:00 7.2 C 53 % -1.72 C
837 26-02-2009 23:25:00 7.2 C 54 % -1.47 C
838 26-02-2009 23:37:01 7.1 C 54 % -1.56 C
839 26-02-2009 23:49:01 7.3 C 52 % -1.89 C
840 27-02-2009 00:01:01 7.2 C 52 % -1.98 C
841 27-02-2009 00:13:01 7.2 C 53 % -1.72 C
842 27-02-2009 00:25:01 7.2 C 52 % -1.98 C
843 27-02-2009 00:37:01 7.2 C 53 % -1.72 C
844 27-02-2009 00:49:01 7.2 C 53 % -1.72 C
845 27-02-2009 01:01:01 7.2 C 54 % -1.47 C
846 27-02-2009 01:13:01 7.2 C 54 % -1.47 C
847 27-02-2009 01:25:01 7.3 C 54 % -1.38 C
848 27-02-2009 01:37:01 7.2 C 55 % -1.22 C
849 27-02-2009 01:49:01 7.2 C 55 % -1.22 C
850 27-02-2009 02:01:01 7.2 C 55 % -1.22 C
Sensor: Nr:Datum:Temp:Feuchte:Taupunkt:
Aussen-T/F 851 27-02-2009 02:13:01 7.1 C 58 % -0.59 C
852 27-02-2009 02:25:01 7 C 59 % -0.45 C
853 27-02-2009 02:37:01 7 C 60 % -0.22 C
854 27-02-2009 02:49:01 7 C 60 % -0.22 C
855 27-02-2009 03:01:01 7 C 60 % -0.22 C
856 27-02-2009 03:13:02 7 C 60 % -0.22 C
857 27-02-2009 03:25:02 6.9 C 63 % 0.36 C
858 27-02-2009 03:37:02 6.4 C 70 % 1.34 C
859 27-02-2009 03:49:02 6 C 74 % 1.73 C
860 27-02-2009 04:01:02 5.9 C 78 % 2.37 C
861 27-02-2009 04:13:02 6.1 C 77 % 2.38 C
862 27-02-2009 04:25:02 5.9 C 79 % 2.54 C
863 27-02-2009 04:37:02 5.9 C 80 % 2.72 C
864 27-02-2009 04:49:02 5.9 C 81 % 2.9 C
865 27-02-2009 05:01:02 5.7 C 82 % 2.87 C
866 27-02-2009 05:13:02 5.6 C 84 % 3.12 C
867 27-02-2009 05:25:02 5.6 C 85 % 3.28 C
868 27-02-2009 05:37:02 5.6 C 86 % 3.45 C
869 27-02-2009 05:49:02 5.6 C 86 % 3.45 C
870 27-02-2009 06:01:02 5.6 C 86 % 3.45 C
871 27-02-2009 06:13:02 5.6 C 85 % 3.28 C
872 27-02-2009 06:25:02 5.6 C 85 % 3.28 C
873 27-02-2009 06:37:02 5.6 C 84 % 3.12 C
874 27-02-2009 06:49:02 5.6 C 84 % 3.12 C
875 27-02-2009 07:01:00 5.6 C 83 % 2.95 C
Sensor: Nr:Datum:Temp:Feuchte:Taupunkt:
Aussen-T/F 876 27-02-2009 07:13:00 5.7 C 82 % 2.87 C
877 27-02-2009 07:25:00 5.9 C 80 % 2.72 C
878 27-02-2009 07:37:00 6.1 C 77 % 2.38 C
879 27-02-2009 07:49:00 6.1 C 75 % 2.01 C
880 27-02-2009 08:01:59 6.2 C 73 % 1.73 C
881 27-02-2009 08:13:59 6.4 C 71 % 1.54 C
882 27-02-2009 08:25:00 6.5 C 69 % 1.23 C
883 27-02-2009 08:37:00 6.6 C 68 % 1.13 C
884 27-02-2009 08:49:59 6.7 C 67 % 1.02 C
885 27-02-2009 09:00:59 6.8 C 66 % 0.9 C
886 27-02-2009 09:12:59 6.9 C 66 % 1 C
887 27-02-2009 09:25:59 7 C 64 % 0.67 C
888 27-02-2009 09:37:59 7.2 C 63 % 0.64 C
889 27-02-2009 09:49:58 7.7 C 61 % 0.67 C
890 27-02-2009 10:01:59 7.9 C 59 % 0.4 C
891 27-02-2009 10:13:59 8 C 57 % 0.01 C
892 27-02-2009 10:25:58 8.1 C 56 % -0.13 C
893 27-02-2009 10:37:58 8.6 C 56 % 0.33 C
894 27-02-2009 10:49:58 8.6 C 53 % -0.42 C
895 27-02-2009 11:01:58 8.7 C 53 % -0.33 C
896 27-02-2009 11:13:58 8.7 C 52 % -0.59 C
897 27-02-2009 11:25:57 8.7 C 54 % -0.07 C
898 27-02-2009 11:37:58 8.5 C 55 % -0.01 C
899 27-02-2009 11:49:58 8.3 C 59 % 0.77 C
900 27-02-2009 12:01:57 8 C 62 % 1.18 C
Sensor: Nr:Datum:Temp:Feuchte:Taupunkt:
Aussen-T/F 901 27-02-2009 12:13:57 7.7 C 67 % 1.97 C
902 27-02-2009 12:25:58 7.4 C 70 % 2.3 C
903 27-02-2009 12:37:57 7.2 C 73 % 2.69 C
904 27-02-2009 12:49:57 7 C 77 % 3.25 C
905 27-02-2009 13:01:56 6.8 C 80 % 3.6 C
906 27-02-2009 13:13:56 6.8 C 82 % 3.95 C
907 27-02-2009 13:25:57 7 C 82 % 4.14 C
908 27-02-2009 13:37:56 7.1 C 82 % 4.24 C
909 27-02-2009 13:49:56 7.1 C 80 % 3.89 C
910 27-02-2009 14:01:57 7.1 C 79 % 3.71 C
911 27-02-2009 14:13:57 7.3 C 78 % 3.73 C
912 27-02-2009 14:25:56 7.5 C 78 % 3.92 C
913 27-02-2009 14:37:56 7.5 C 78 % 3.92 C
914 27-02-2009 14:49:56 7.7 C 77 % 3.93 C
915 27-02-2009 15:01:56 7.5 C 74 % 3.17 C
916 27-02-2009 15:13:56 7.6 C 73 % 3.08 C
917 27-02-2009 15:25:56 7.5 C 72 % 2.79 C
918 27-02-2009 15:37:55 7.7 C 71 % 2.78 C
919 27-02-2009 15:49:56 7.9 C 70 % 2.78 C
920 27-02-2009 16:01:55 8 C 67 % 2.26 C
921 27-02-2009 16:13:55 8 C 66 % 2.05 C
922 27-02-2009 16:25:55 8 C 66 % 2.05 C
923 27-02-2009 16:37:55 8 C 64 % 1.62 C
924 27-02-2009 16:49:54 7.9 C 66 % 1.95 C
925 27-02-2009 17:01:54 7.9 C 66 % 1.95 C
Sensor: Nr:Datum:Temp:Feuchte:Taupunkt:
Aussen-T/F 926 27-02-2009 17:13:54 7.9 C 66 % 1.95 C
927 27-02-2009 17:25:55 7.8 C 68 % 2.27 C
928 27-02-2009 17:37:54 7.6 C 70 % 2.49 C
929 27-02-2009 17:49:54 7.5 C 71 % 2.59 C
930 27-02-2009 18:01:54 7.5 C 71 % 2.59 C
931 27-02-2009 18:13:54 7.6 C 71 % 2.69 C
932 27-02-2009 18:25:54 7.6 C 70 % 2.49 C
933 27-02-2009 18:37:53 7.6 C 70 % 2.49 C
934 27-02-2009 18:49:54 7.6 C 70 % 2.49 C
935 27-02-2009 19:01:53 7.6 C 69 % 2.29 C
936 27-02-2009 19:13:53 7.7 C 69 % 2.38 C
937 27-02-2009 19:25:53 7.8 C 69 % 2.48 C
938 27-02-2009 19:37:54 7.8 C 68 % 2.27 C
939 27-02-2009 19:49:53 7.9 C 68 % 2.37 C
940 27-02-2009 20:01:53 7.8 C 68 % 2.27 C
941 27-02-2009 20:13:53 7.8 C 68 % 2.27 C
942 27-02-2009 20:25:53 7.7 C 70 % 2.58 C
943 27-02-2009 20:37:53 7.7 C 70 % 2.58 C
944 27-02-2009 20:49:52 7.5 C 72 % 2.79 C
945 27-02-2009 21:01:53 7.2 C 75 % 3.07 C
946 27-02-2009 21:13:54 7 C 78 % 3.43 C
947 27-02-2009 21:25:52 7 C 80 % 3.79 C
948 27-02-2009 21:37:52 6.9 C 82 % 4.05 C
949 27-02-2009 21:49:52 6.8 C 84 % 4.29 C
950 27-02-2009 22:01:52 6.7 C 84 % 4.19 C
Sensor: Nr:Datum:Temp:Feuchte:Taupunkt:
Aussen-T/F 951 27-02-2009 22:13:52 6.7 C 85 % 4.36 C
952 27-02-2009 22:25:52 6.8 C 84 % 4.29 C
953 27-02-2009 22:37:51 6.9 C 84 % 4.39 C
954 27-02-2009 22:49:52 6.9 C 83 % 4.22 C
955 27-02-2009 23:01:51 6.9 C 82 % 4.05 C
956 27-02-2009 23:13:51 6.9 C 81 % 3.87 C
957 27-02-2009 23:25:51 6.9 C 82 % 4.05 C
958 27-02-2009 23:37:51 6.8 C 82 % 3.95 C
959 27-02-2009 23:50:52 6.9 C 82 % 4.05 C
960 28-02-2009 00:02:52 6.9 C 82 % 4.05 C
961 28-02-2009 00:14:52 6.9 C 81 % 3.87 C
962 28-02-2009 00:26:53 6.9 C 81 % 3.87 C
963 28-02-2009 00:38:53 6.9 C 80 % 3.7 C
964 28-02-2009 00:50:53 6.9 C 80 % 3.7 C
965 28-02-2009 01:02:53 6.9 C 79 % 3.52 C
966 28-02-2009 01:14:53 6.9 C 79 % 3.52 C
967 28-02-2009 01:26:53 6.9 C 79 % 3.52 C
968 28-02-2009 01:38:53 7 C 77 % 3.25 C
969 28-02-2009 01:50:53 7 C 77 % 3.25 C
970 28-02-2009 02:02:53 7.1 C 76 % 3.16 C
971 28-02-2009 02:14:53 7.1 C 76 % 3.16 C
972 28-02-2009 02:26:53 7.3 C 75 % 3.17 C
973 28-02-2009 02:38:53 7.4 C 74 % 3.08 C
974 28-02-2009 02:50:53 7.5 C 73 % 2.98 C
975 28-02-2009 03:02:53 7.5 C 73 % 2.98 C
Sensor: Nr:Datum:Temp:Feuchte:Taupunkt:
Aussen-T/F 976 28-02-2009 03:14:53 7.5 C 73 % 2.98 C
977 28-02-2009 03:26:53 7.5 C 73 % 2.98 C
978 28-02-2009 03:38:53 7.5 C 73 % 2.98 C
979 28-02-2009 03:50:53 7.5 C 73 % 2.98 C
980 28-02-2009 04:02:54 7.6 C 73 % 3.08 C
981 28-02-2009 04:14:54 7.6 C 73 % 3.08 C
982 28-02-2009 04:26:54 7.6 C 72 % 2.88 C
983 28-02-2009 04:38:54 7.6 C 72 % 2.88 C
984 28-02-2009 04:50:54 7.7 C 72 % 2.98 C
985 28-02-2009 05:02:54 7.7 C 72 % 2.98 C
986 28-02-2009 05:14:54 7.8 C 71 % 2.88 C
987 28-02-2009 05:26:54 7.8 C 71 % 2.88 C
988 28-02-2009 05:38:54 7.8 C 71 % 2.88 C
989 28-02-2009 05:50:54 7.7 C 71 % 2.78 C
990 28-02-2009 06:02:54 7.6 C 72 % 2.88 C
991 28-02-2009 06:14:54 7.6 C 72 % 2.88 C
992 28-02-2009 06:26:54 7.5 C 72 % 2.79 C
993 28-02-2009 06:38:54 7.5 C 73 % 2.98 C
994 28-02-2009 06:50:54 7.4 C 73 % 2.89 C
995 28-02-2009 07:02:54 7.4 C 73 % 2.89 C
996 28-02-2009 07:14:54 7.4 C 74 % 3.08 C
997 28-02-2009 07:26:54 7.3 C 74 % 2.98 C
998 28-02-2009 07:38:54 7.3 C 75 % 3.17 C
999 28-02-2009 07:50:55 7.4 C 75 % 3.27 C
1000 28-02-2009 08:02:51 7.5 C 74 % 3.17 C
Sensor: Nr:Datum:Temp:Feuchte:Taupunkt:
Aussen-T/F 1001 28-02-2009 08:14:51 7.6 C 74 % 3.27 C
1002 28-02-2009 08:26:51 7.6 C 73 % 3.08 C
1003 28-02-2009 08:38:51 7.9 C 73 % 3.37 C
1004 28-02-2009 08:50:51 8 C 72 % 3.27 C
1005 28-02-2009 09:02:51 8.1 C 71 % 3.17 C
1006 28-02-2009 09:14:51 8.2 C 71 % 3.26 C
1007 28-02-2009 09:26:51 9 C 67 % 3.21 C
1008 28-02-2009 09:38:51 9.5 C 64 % 3.04 C
1009 28-02-2009 09:50:51 9.3 C 64 % 2.85 C
1010 28-02-2009 10:02:51 9.3 C 64 % 2.85 C
1011 28-02-2009 10:14:50 9.7 C 63 % 3.01 C
1012 28-02-2009 10:26:50 9.8 C 62 % 2.88 C
1013 28-02-2009 10:38:50 9.7 C 63 % 3.01 C
1014 28-02-2009 10:50:50 9.8 C 62 % 2.88 C
1015 28-02-2009 11:02:50 9.9 C 62 % 2.97 C
1016 28-02-2009 11:14:49 10.1 C 61 % 2.93 C
1017 28-02-2009 11:26:49 10.8 C 59 % 3.12 C
1018 28-02-2009 11:38:50 11.2 C 57 % 3.01 C
1019 28-02-2009 11:50:49 10.7 C 59 % 3.03 C
1020 28-02-2009 12:02:49 10.3 C 60 % 2.89 C
1021 28-02-2009 12:14:50 10.3 C 61 % 3.12 C
1022 28-02-2009 12:26:50 11 C 58 % 3.07 C
1023 28-02-2009 12:38:49 11.4 C 56 % 2.95 C
1024 28-02-2009 12:50:49 12 C 54 % 2.99 C
1025 28-02-2009 13:02:49 12.2 C 52 % 2.65 C
Sensor: Nr:Datum:Temp:Feuchte:Taupunkt:
Aussen-T/F 1026 28-02-2009 13:14:49 12.4 C 50 % 2.28 C
1027 28-02-2009 13:26:49 12.7 C 50 % 2.56 C
1028 28-02-2009 13:38:49 13.5 C 47 % 2.42 C
1029 28-02-2009 13:50:49 13.9 C 45 % 2.18 C
1030 28-02-2009 14:02:48 14.2 C 42 % 1.49 C
1031 28-02-2009 14:14:48 14.3 C 42 % 1.58 C
1032 28-02-2009 14:26:49 14 C 43 % 1.63 C
1033 28-02-2009 14:38:47 14.2 C 41 % 1.15 C
1034 28-02-2009 14:50:48 14.9 C 38 % 0.73 C
1035 28-02-2009 15:02:47 15.3 C 36 % 0.34 C
1036 28-02-2009 15:14:47 16.1 C 35 % 0.65 C
1037 28-02-2009 15:26:47 16.8 C 34 % 0.87 C
1038 28-02-2009 15:38:48 18 C 31 % 0.64 C
1039 28-02-2009 15:50:47 18.1 C 31 % 0.73 C
1040 28-02-2009 16:02:47 17.6 C 33 % 1.16 C
1041 28-02-2009 16:14:47 16.8 C 36 % 1.66 C
1042 28-02-2009 16:26:47 16.6 C 37 % 1.87 C
1043 28-02-2009 16:38:47 16.1 C 38 % 1.79 C
1044 28-02-2009 16:50:47 15.6 C 40 % 2.06 C
1045 28-02-2009 17:02:48 15.2 C 41 % 2.05 C
1046 28-02-2009 17:14:46 15 C 42 % 2.21 C
1047 28-02-2009 17:26:46 14.7 C 46 % 3.22 C
1048 28-02-2009 17:38:47 14.3 C 47 % 3.15 C
1049 28-02-2009 17:50:46 13.8 C 49 % 3.28 C
1050 28-02-2009 18:02:46 13.4 C 50 % 3.2 C
Sensor: Nr:Datum:Temp:Feuchte:Taupunkt:
Aussen-T/F 1051 28-02-2009 18:14:46 12.9 C 52 % 3.29 C
1052 28-02-2009 18:26:46 12.2 C 54 % 3.18 C
1053 28-02-2009 18:38:46 12 C 55 % 3.25 C
1054 28-02-2009 18:50:45 11.7 C 56 % 3.23 C
1055 28-02-2009 19:02:45 11.6 C 56 % 3.13 C
1056 28-02-2009 19:14:46 11.4 C 56 % 2.95 C
1057 28-02-2009 19:26:46 11.2 C 57 % 3.01 C
1058 28-02-2009 19:38:45 11.1 C 57 % 2.92 C
1059 28-02-2009 19:50:44 11 C 57 % 2.82 C
1060 28-02-2009 20:02:45 10.7 C 59 % 3.03 C
1061 28-02-2009 20:14:45 10.2 C 60 % 2.79 C
1062 28-02-2009 20:26:45 10 C 61 % 2.84 C
1063 28-02-2009 20:38:44 9.7 C 63 % 3.01 C
1064 28-02-2009 20:50:45 9.6 C 63 % 2.91 C
1065 28-02-2009 21:02:44 9.5 C 64 % 3.04 C
1066 28-02-2009 21:14:45 9.4 C 65 % 3.16 C
1067 28-02-2009 21:26:45 9.2 C 65 % 2.97 C
1068 28-02-2009 21:38:44 9.1 C 66 % 3.09 C
1069 28-02-2009 21:50:44 8.8 C 67 % 3.02 C
1070 28-02-2009 22:02:44 8.7 C 68 % 3.13 C
1071 28-02-2009 22:14:44 8.7 C 69 % 3.34 C
1072 28-02-2009 22:26:44 8.7 C 69 % 3.34 C
1073 28-02-2009 22:38:43 8.4 C 69 % 3.05 C
1074 28-02-2009 22:51:44 8.2 C 70 % 3.06 C
1075 28-02-2009 23:03:44 7.9 C 72 % 3.17 C
Sensor: Nr:Datum:Temp:Feuchte:Taupunkt:
Aussen-T/F 1076 28-02-2009 23:15:44 7.7 C 72 % 2.98 C
1077 28-02-2009 23:27:44 7.5 C 73 % 2.98 C
1078 28-02-2009 23:39:44 7.4 C 74 % 3.08 C
1079 28-02-2009 23:51:45 7.2 C 74 % 2.89 C
1080 01-03-2009 00:03:45 7.1 C 75 % 2.98 C
1081 01-03-2009 00:15:45 7 C 75 % 2.88 C
1082 01-03-2009 00:27:45 7.4 C 77 % 3.64 C
1083 01-03-2009 00:39:45 7.7 C 76 % 3.75 C
1084 01-03-2009 00:51:45 7.7 C 75 % 3.56 C
1085 01-03-2009 01:03:45 7.5 C 74 % 3.17 C
1086 01-03-2009 01:15:45 7.6 C 74 % 3.27 C
1087 01-03-2009 01:27:45 7.7 C 74 % 3.37 C
1088 01-03-2009 01:39:45 7.8 C 74 % 3.46 C
1089 01-03-2009 01:51:45 7.9 C 74 % 3.56 C
1090 01-03-2009 02:03:45 7.8 C 73 % 3.27 C
1091 01-03-2009 02:15:45 7.8 C 73 % 3.27 C
1092 01-03-2009 02:27:45 7.9 C 73 % 3.37 C
1093 01-03-2009 02:39:45 7.7 C 73 % 3.18 C
1094 01-03-2009 02:51:45 7.6 C 73 % 3.08 C
1095 01-03-2009 03:03:45 7.5 C 73 % 2.98 C
1096 01-03-2009 03:15:45 7.2 C 74 % 2.89 C
1097 01-03-2009 03:27:45 6.8 C 75 % 2.69 C
1098 01-03-2009 03:39:46 6.7 C 77 % 2.96 C
1099 01-03-2009 03:51:46 6.5 C 78 % 2.95 C
1100 01-03-2009 04:03:46 6.5 C 78 % 2.95 C
Sensor: Nr:Datum:Temp:Feuchte:Taupunkt:
Aussen-T/F 1101 01-03-2009 04:15:46 6.3 C 78 % 2.75 C
1102 01-03-2009 04:27:46 6.2 C 78 % 2.66 C
1103 01-03-2009 04:39:46 6.2 C 79 % 2.84 C
1104 01-03-2009 04:51:46 6 C 78 % 2.46 C
1105 01-03-2009 05:03:46 6 C 79 % 2.64 C
1106 01-03-2009 05:15:46 6.4 C 80 % 3.21 C
1107 01-03-2009 05:27:46 6.4 C 80 % 3.21 C
1108 01-03-2009 05:39:46 6.4 C 79 % 3.03 C
1109 01-03-2009 05:51:46 6.3 C 78 % 2.75 C
1110 01-03-2009 06:03:46 6.3 C 79 % 2.93 C
1111 01-03-2009 06:15:46 6.5 C 79 % 3.13 C
1112 01-03-2009 06:27:46 6.6 C 79 % 3.23 C
1113 01-03-2009 06:39:46 6.7 C 79 % 3.32 C
1114 01-03-2009 06:51:46 6.8 C 79 % 3.42 C
1115 01-03-2009 07:03:46 6.8 C 79 % 3.42 C
1116 01-03-2009 07:15:46 6.9 C 78 % 3.34 C
1117 01-03-2009 07:27:47 6.8 C 78 % 3.24 C
1118 01-03-2009 07:39:47 6.9 C 78 % 3.34 C
1119 01-03-2009 07:51:47 7 C 77 % 3.25 C
1120 01-03-2009 08:03:47 7.2 C 77 % 3.45 C
1121 01-03-2009 08:15:47 7.4 C 76 % 3.45 C
1122 01-03-2009 08:27:47 7.6 C 75 % 3.46 C
1123 01-03-2009 08:39:47 7.8 C 75 % 3.65 C
1124 01-03-2009 08:51:47 7.9 C 73 % 3.37 C
1125 01-03-2009 09:03:43 8 C 71 % 3.07 C
Sensor: Nr:Datum:Temp:Feuchte:Taupunkt:
Aussen-T/F 1126 01-03-2009 09:15:44 8.1 C 69 % 2.77 C
1127 01-03-2009 09:27:44 8.4 C 69 % 3.05 C
1128 01-03-2009 09:39:44 8.6 C 67 % 2.83 C
1129 01-03-2009 09:51:43 8.7 C 65 % 2.5 C
1130 01-03-2009 10:03:43 9.1 C 64 % 2.66 C
1131 01-03-2009 10:15:43 9.3 C 63 % 2.63 C
1132 01-03-2009 10:27:43 9.6 C 61 % 2.46 C
1133 01-03-2009 10:39:43 10 C 58 % 2.13 C
1134 01-03-2009 10:51:43 10.1 C 58 % 2.22 C
1135 01-03-2009 11:03:43 10.7 C 55 % 2.04 C
1136 01-03-2009 11:15:42 10.5 C 56 % 2.11 C
1137 01-03-2009 11:27:42 10.6 C 55 % 1.95 C
1138 01-03-2009 11:39:42 10.9 C 54 % 1.97 C
1139 01-03-2009 11:51:42 11.5 C 53 % 2.27 C
1140 01-03-2009 12:03:42 11.7 C 51 % 1.91 C
1141 01-03-2009 12:15:42 11.8 C 50 % 1.73 C
1142 01-03-2009 12:27:42 11.6 C 50 % 1.54 C
1143 01-03-2009 12:39:42 12.1 C 48 % 1.44 C
1144 01-03-2009 12:51:42 12.8 C 46 % 1.48 C
1145 01-03-2009 13:03:41 13.3 C 44 % 1.32 C
1146 01-03-2009 13:15:42 13.5 C 43 % 1.18 C
1147 01-03-2009 13:27:42 13.8 C 43 % 1.45 C
1148 01-03-2009 13:39:41 13.3 C 43 % 1 C
1149 01-03-2009 13:51:41 13.6 C 43 % 1.27 C
1150 01-03-2009 14:03:41 13.9 C 43 % 1.54 C
Sensor: Nr:Datum:Temp:Feuchte:Taupunkt:
Aussen-T/F 1151 01-03-2009 14:15:41 13.9 C 42 % 1.22 C
1152 01-03-2009 14:27:41 13.9 C 42 % 1.22 C
1153 01-03-2009 14:39:41 13.9 C 42 % 1.22 C
1154 01-03-2009 14:51:41 14.2 C 41 % 1.15 C
1155 01-03-2009 15:03:41 14.5 C 41 % 1.42 C
1156 01-03-2009 15:15:40 14.4 C 41 % 1.33 C
1157 01-03-2009 15:27:40 15.1 C 39 % 1.26 C
1158 01-03-2009 15:39:40 15.2 C 39 % 1.35 C
1159 01-03-2009 15:51:40 14.8 C 40 % 1.35 C
1160 01-03-2009 16:03:40 14.5 C 40 % 1.08 C
1161 01-03-2009 16:15:39 14.1 C 40 % 0.72 C
1162 01-03-2009 16:27:39 13.7 C 41 % 0.7 C
1163 01-03-2009 16:39:40 13.5 C 42 % 0.86 C
1164 01-03-2009 16:51:39 13.3 C 43 % 1 C
1165 01-03-2009 17:03:39 13.2 C 44 % 1.23 C
1166 01-03-2009 17:15:40 13 C 44 % 1.05 C
1167 01-03-2009 17:27:40 12.8 C 46 % 1.48 C
1168 01-03-2009 17:39:39 12.5 C 46 % 1.21 C
1169 01-03-2009 17:51:39 12.4 C 48 % 1.71 C
1170 01-03-2009 18:03:38 11.8 C 53 % 2.54 C
1171 01-03-2009 18:15:39 11.4 C 55 % 2.69 C
1172 01-03-2009 18:27:39 11.2 C 56 % 2.76 C
1173 01-03-2009 18:39:38 11.1 C 55 % 2.41 C
1174 01-03-2009 18:51:38 10.9 C 57 % 2.73 C
1175 01-03-2009 19:03:38 10.9 C 58 % 2.97 C
Sensor: Nr:Datum:Temp:Feuchte:Taupunkt:
Aussen-T/F 1176 01-03-2009 19:15:38 11 C 56 % 2.57 C
1177 01-03-2009 19:27:38 11 C 56 % 2.57 C
1178 01-03-2009 19:39:38 11.2 C 55 % 2.51 C
1179 01-03-2009 19:51:38 11.5 C 52 % 2 C
1180 01-03-2009 20:03:38 11.9 C 50 % 1.82 C
1181 01-03-2009 20:15:37 12 C 48 % 1.34 C
1182 01-03-2009 20:27:37 12 C 48 % 1.34 C
1183 01-03-2009 20:39:37 11.8 C 49 % 1.45 C
1184 01-03-2009 20:51:37 11.8 C 49 % 1.45 C
1185 01-03-2009 21:03:37 11.7 C 49 % 1.36 C
1186 01-03-2009 21:15:37 11.8 C 49 % 1.45 C
1187 01-03-2009 21:27:37 11.6 C 50 % 1.54 C
1188 01-03-2009 21:39:37 11.4 C 51 % 1.64 C
1189 01-03-2009 21:51:36 11.4 C 51 % 1.64 C
1190 01-03-2009 22:03:36 11.1 C 55 % 2.41 C
1191 01-03-2009 22:15:37 10.5 C 62 % 3.54 C
1192 01-03-2009 22:27:37 10.1 C 67 % 4.26 C
1193 01-03-2009 22:40:37 9.8 C 70 % 4.6 C
1194 01-03-2009 22:52:37 9.7 C 70 % 4.5 C
1195 01-03-2009 23:04:37 9.5 C 72 % 4.71 C
1196 01-03-2009 23:16:37 9.5 C 73 % 4.91 C
1197 01-03-2009 23:28:37 9.6 C 71 % 4.61 C
1198 01-03-2009 23:40:37 9.8 C 68 % 4.18 C
1199 01-03-2009 23:52:37 9.8 C 68 % 4.18 C
1200 02-03-2009 00:04:37 9.8 C 67 % 3.97 C
Sensor: Nr:Datum:Temp:Feuchte:Taupunkt:
Aussen-T/F 1201 02-03-2009 00:16:38 9.8 C 68 % 4.18 C
1202 02-03-2009 00:28:38 9.5 C 71 % 4.51 C
1203 02-03-2009 00:40:38 9.2 C 73 % 4.62 C
1204 02-03-2009 00:52:38 9.1 C 74 % 4.72 C
1205 02-03-2009 01:04:38 9.1 C 74 % 4.72 C
1206 02-03-2009 01:16:38 9.1 C 74 % 4.72 C
1207 02-03-2009 01:28:38 9.1 C 74 % 4.72 C
1208 02-03-2009 01:40:38 9.1 C 73 % 4.52 C
1209 02-03-2009 01:52:38 9 C 75 % 4.81 C
1210 02-03-2009 02:04:38 8.9 C 76 % 4.91 C
1211 02-03-2009 02:16:38 8.8 C 77 % 5 C
1212 02-03-2009 02:28:38 8.7 C 78 % 5.08 C
1213 02-03-2009 02:40:38 8.6 C 78 % 4.99 C
1214 02-03-2009 02:52:38 8.6 C 79 % 5.17 C
1215 02-03-2009 03:04:38 8.7 C 80 % 5.45 C
1216 02-03-2009 03:16:38 8.5 C 82 % 5.61 C
1217 02-03-2009 03:28:38 8.5 C 82 % 5.61 C
1218 02-03-2009 03:40:38 8.5 C 83 % 5.78 C
1219 02-03-2009 03:52:38 8.4 C 83 % 5.69 C
1220 02-03-2009 04:04:39 8.4 C 84 % 5.86 C
1221 02-03-2009 04:16:39 8.4 C 85 % 6.03 C
1222 02-03-2009 04:28:39 8.3 C 86 % 6.1 C
1223 02-03-2009 04:40:39 8.3 C 86 % 6.1 C
1224 02-03-2009 04:52:39 8.3 C 87 % 6.27 C
1225 02-03-2009 05:04:39 8.2 C 87 % 6.17 C
Sensor: Nr:Datum:Temp:Feuchte:Taupunkt:
Aussen-T/F 1226 02-03-2009 05:16:39 8.2 C 87 % 6.17 C
1227 02-03-2009 05:28:39 8.2 C 87 % 6.17 C
1228 02-03-2009 05:40:39 8.1 C 87 % 6.07 C
1229 02-03-2009 05:52:39 8.1 C 86 % 5.9 C
1230 02-03-2009 06:04:39 8.2 C 86 % 6 C
1231 02-03-2009 06:16:39 8.2 C 85 % 5.83 C
1232 02-03-2009 06:28:39 8.2 C 85 % 5.83 C
1233 02-03-2009 06:40:39 8.1 C 85 % 5.73 C
1234 02-03-2009 06:52:39 8.2 C 85 % 5.83 C
1235 02-03-2009 07:04:37 8.2 C 86 % 6 C
1236 02-03-2009 07:16:37 8.4 C 85 % 6.03 C
1237 02-03-2009 07:28:37 8.4 C 84 % 5.86 C
1238 02-03-2009 07:40:37 8.4 C 83 % 5.69 C
1239 02-03-2009 07:52:38 8.3 C 82 % 5.41 C
1240 02-03-2009 08:04:37 8.3 C 83 % 5.59 C
1241 02-03-2009 08:16:36 8.3 C 83 % 5.59 C
1242 02-03-2009 08:28:37 8.2 C 84 % 5.66 C
1243 02-03-2009 08:40:36 8.2 C 84 % 5.66 C
1244 02-03-2009 08:52:36 8.1 C 84 % 5.56 C
1245 02-03-2009 09:04:36 8.1 C 85 % 5.73 C
1246 02-03-2009 09:16:35 8.1 C 85 % 5.73 C
1247 02-03-2009 09:28:35 8.1 C 85 % 5.73 C
1248 02-03-2009 09:40:36 8.1 C 86 % 5.9 C
1249 02-03-2009 09:52:35 8.1 C 86 % 5.9 C
1250 02-03-2009 10:04:35 8.1 C 87 % 6.07 C
Sensor: Nr:Datum:Temp:Feuchte:Taupunkt:
Aussen-T/F 1251 02-03-2009 10:16:36 8.2 C 87 % 6.17 C
1252 02-03-2009 10:28:36 8 C 87 % 5.97 C
1253 02-03-2009 10:40:35 8.1 C 85 % 5.73 C
1254 02-03-2009 10:52:35 8.2 C 84 % 5.66 C
1255 02-03-2009 11:04:35 8.2 C 83 % 5.49 C
1256 02-03-2009 11:16:35 8.1 C 82 % 5.22 C
1257 02-03-2009 11:28:35 8 C 81 % 4.94 C
1258 02-03-2009 11:40:34 8 C 81 % 4.94 C
1259 02-03-2009 11:52:35 8.2 C 82 % 5.32 C
1260 02-03-2009 12:04:34 8.6 C 81 % 5.53 C
1261 02-03-2009 12:16:34 8.8 C 77 % 5 C
1262 02-03-2009 12:28:34 8.9 C 72 % 4.14 C
1263 02-03-2009 12:40:34 8.7 C 70 % 3.54 C
1264 02-03-2009 12:52:34 9.5 C 67 % 3.69 C
1265 02-03-2009 13:04:34 9.2 C 61 % 2.08 C
1266 02-03-2009 13:16:33 9 C 59 % 1.43 C
1267 02-03-2009 13:28:33 9.3 C 59 % 1.71 C
1268 02-03-2009 13:40:34 9.8 C 58 % 1.94 C
1269 02-03-2009 13:52:33 10.6 C 52 % 1.17 C
1270 02-03-2009 14:04:33 10.1 C 48 % -0.4 C
1271 02-03-2009 14:16:33 10.2 C 48 % -0.31 C
1272 02-03-2009 14:28:33 10.7 C 47 % -0.14 C
1273 02-03-2009 14:40:33 10.4 C 46 % -0.7 C
1274 02-03-2009 14:52:32 10.4 C 47 % -0.41 C
1275 02-03-2009 15:04:33 10.3 C 45 % -1.1 C
Sensor: Nr:Datum:Temp:Feuchte:Taupunkt:
Aussen-T/F 1276 02-03-2009 15:16:33 10.3 C 45 % -1.1 C
1277 02-03-2009 15:28:33 10.2 C 45 % -1.19 C
1278 02-03-2009 15:40:32 10.8 C 45 % -0.64 C
1279 02-03-2009 15:52:32 10.7 C 45 % -0.73 C
1280 02-03-2009 16:04:32 10.5 C 44 % -1.22 C
1281 02-03-2009 16:16:32 10.3 C 45 % -1.1 C
1282 02-03-2009 16:28:33 10 C 46 % -1.07 C
1283 02-03-2009 16:40:31 10 C 46 % -1.07 C
1284 02-03-2009 16:52:32 9.8 C 47 % -0.96 C
1285 02-03-2009 17:04:31 9.7 C 50 % -0.21 C
1286 02-03-2009 17:16:31 9.5 C 50 % -0.39 C
1287 02-03-2009 17:28:31 9.2 C 50 % -0.67 C
1288 02-03-2009 17:40:32 8.9 C 52 % -0.41 C
1289 02-03-2009 17:52:31 8.5 C 53 % -0.52 C
1290 02-03-2009 18:04:31 8.3 C 54 % -0.45 C
1291 02-03-2009 18:16:31 8.1 C 56 % -0.13 C
1292 02-03-2009 18:28:31 7.8 C 57 % -0.17 C
1293 02-03-2009 18:40:30 7.8 C 57 % -0.17 C
1294 02-03-2009 18:52:31 7.5 C 58 % -0.21 C
1295 02-03-2009 19:04:30 7.6 C 57 % -0.36 C
1296 02-03-2009 19:16:30 7.5 C 56 % -0.7 C
1297 02-03-2009 19:28:30 7.3 C 57 % -0.64 C
1298 02-03-2009 19:40:30 7.1 C 58 % -0.59 C
1299 02-03-2009 19:52:30 6.8 C 59 % -0.64 C
1300 02-03-2009 20:04:29 6.4 C 60 % -0.78 C
Sensor: Nr:Datum:Temp:Feuchte:Taupunkt:
Aussen-T/F 1301 02-03-2009 20:16:30 6 C 61 % -0.94 C
1302 02-03-2009 20:28:30 5.8 C 63 % -0.69 C
1303 02-03-2009 20:40:30 5.4 C 63 % -1.06 C
1304 02-03-2009 20:52:29 5.1 C 65 % -0.92 C
1305 02-03-2009 21:04:29 4.8 C 67 % -0.8 C
1306 02-03-2009 21:16:29 4.6 C 68 % -0.78 C
1307 02-03-2009 21:28:29 4.4 C 69 % -0.78 C
1308 02-03-2009 21:40:29 4.1 C 70 % -0.87 C
1309 02-03-2009 21:52:29 3.9 C 72 % -0.68 C
1310 02-03-2009 22:04:29 3.7 C 73 % -0.68 C
1311 02-03-2009 22:16:28 3.7 C 73 % -0.68 C
1312 02-03-2009 22:28:28 3.5 C 74 % -0.69 C
1313 02-03-2009 22:40:29 3.4 C 74 % -0.78 C
1314 02-03-2009 22:53:29 3 C 76 % -0.81 C
1315 02-03-2009 23:05:29 2.8 C 78 % -0.65 C
1316 02-03-2009 23:17:29 2.7 C 78 % -0.74 C
1317 02-03-2009 23:29:29 2.9 C 80 % -0.2 C
1318 02-03-2009 23:41:29 3.1 C 79 % -0.18 C
1319 02-03-2009 23:53:29 2.8 C 79 % -0.47 C
1320 03-03-2009 00:05:29 2.6 C 79 % -0.67 C
1321 03-03-2009 00:17:30 2.9 C 79 % -0.37 C
1322 03-03-2009 00:29:30 3.1 C 77 % -0.53 C
1323 03-03-2009 00:41:30 3 C 76 % -0.81 C
1324 03-03-2009 00:53:30 2.9 C 77 % -0.72 C
1325 03-03-2009 01:05:30 3 C 76 % -0.81 C
Sensor: Nr:Datum:Temp:Feuchte:Taupunkt:
Aussen-T/F 1326 03-03-2009 01:17:30 3 C 75 % -0.99 C
1327 03-03-2009 01:29:30 3.1 C 74 % -1.07 C
1328 03-03-2009 01:41:30 3 C 74 % -1.17 C
1329 03-03-2009 01:53:30 2.8 C 75 % -1.18 C
1330 03-03-2009 02:05:30 2.6 C 75 % -1.37 C
1331 03-03-2009 02:17:30 2.4 C 75 % -1.57 C
1332 03-03-2009 02:29:30 2.3 C 76 % -1.48 C
1333 03-03-2009 02:41:30 2.2 C 76 % -1.58 C
1334 03-03-2009 02:53:30 2.1 C 78 % -1.33 C
1335 03-03-2009 03:05:30 1.9 C 80 % -1.18 C
1336 03-03-2009 03:17:30 1.6 C 79 % -1.64 C
1337 03-03-2009 03:29:30 1.5 C 80 % -1.57 C
1338 03-03-2009 03:41:30 1.5 C 81 % -1.4 C
1339 03-03-2009 03:53:30 1.2 C 82 % -1.52 C
1340 03-03-2009 04:05:31 1.2 C 82 % -1.52 C
1341 03-03-2009 04:17:31 1.5 C 83 % -1.06 C
1342 03-03-2009 04:29:31 1.4 C 83 % -1.16 C
1343 03-03-2009 04:41:31 1.3 C 83 % -1.26 C
1344 03-03-2009 04:53:31 1 C 82 % -1.72 C
1345 03-03-2009 05:05:31 0.7 C 83 % -1.85 C
1346 03-03-2009 05:17:31 0.5 C 83 % -2.04 C
1347 03-03-2009 05:29:31 0.3 C 83 % -2.24 C
1348 03-03-2009 05:41:31 0.3 C 83 % -2.24 C
1349 03-03-2009 05:53:31 0.1 C 84 % -2.27 C
1350 03-03-2009 06:05:31 0 C 84 % -2.37 C
Sensor: Nr:Datum:Temp:Feuchte:Taupunkt:
Aussen-T/F 1351 03-03-2009 06:17:31 -0.1 C 84 % -2.47 C
1352 03-03-2009 06:29:31 0 C 84 % -2.37 C
1353 03-03-2009 06:41:31 -0.1 C 84 % -2.47 C
1354 03-03-2009 06:53:31 -0.2 C 84 % -2.57 C
1355 03-03-2009 07:05:29 -0.3 C 84 % -2.67 C
1356 03-03-2009 07:17:28 -0.4 C 84 % -2.77 C
1357 03-03-2009 07:29:28 -0.4 C 84 % -2.77 C
1358 03-03-2009 07:41:29 -0.4 C 85 % -2.61 C
1359 03-03-2009 07:53:28 -0.4 C 85 % -2.61 C
1360 03-03-2009 08:05:28 -0.3 C 85 % -2.51 C
1361 03-03-2009 08:17:28 -0.2 C 86 % -2.25 C
1362 03-03-2009 08:29:28 -0.1 C 86 % -2.16 C
1363 03-03-2009 08:41:28 0.1 C 87 % -1.8 C
1364 03-03-2009 08:53:27 0.4 C 87 % -1.5 C
1365 03-03-2009 09:05:28 0.9 C 87 % -1.01 C
1366 03-03-2009 09:17:27 1.2 C 85 % -1.03 C
1367 03-03-2009 09:29:27 1.2 C 84 % -1.2 C
1368 03-03-2009 09:41:28 1.3 C 83 % -1.26 C
1369 03-03-2009 09:53:27 1.7 C 83 % -0.87 C
1370 03-03-2009 10:05:27 2.1 C 82 % -0.64 C
1371 03-03-2009 10:17:27 2.6 C 81 % -0.32 C
1372 03-03-2009 10:29:27 3.1 C 80 % -0.01 C
1373 03-03-2009 10:41:27 3.7 C 77 % 0.05 C
1374 03-03-2009 10:53:27 4.3 C 74 % 0.09 C
1375 03-03-2009 11:05:26 5 C 68 % -0.4 C
Sensor: Nr:Datum:Temp:Feuchte:Taupunkt:
Aussen-T/F 1376 03-03-2009 11:17:27 5.3 C 68 % -0.12 C
1377 03-03-2009 11:29:27 6.4 C 59 % -1.01 C
1378 03-03-2009 11:41:26 6.7 C 58 % -0.97 C
1379 03-03-2009 11:53:26 7.2 C 55 % -1.22 C
1380 03-03-2009 12:05:26 7.6 C 53 % -1.35 C
1381 03-03-2009 12:17:27 8 C 50 % -1.77 C
1382 03-03-2009 12:29:27 8.2 C 46 % -2.71 C
1383 03-03-2009 12:41:26 8.7 C 45 % -2.55 C
1384 03-03-2009 12:53:26 9 C 41 % -3.53 C
1385 03-03-2009 13:05:26 9.3 C 39 % -3.92 C
1386 03-03-2009 13:17:25 9.6 C 35 % -5.09 C
1387 03-03-2009 13:29:25 9.8 C 33 % -5.68 C
1388 03-03-2009 13:41:25 10.5 C 31 % -5.89 C
1389 03-03-2009 13:53:25 10.8 C 30 % -6.06 C
1390 03-03-2009 14:05:25 11.1 C 28 % -6.69 C
1391 03-03-2009 14:17:24 11 C 27 % -7.25 C
1392 03-03-2009 14:29:24 10.7 C 26 % -7.99 C
1393 03-03-2009 14:41:25 11 C 25 % -8.24 C
1394 03-03-2009 14:53:24 11.8 C 24 % -8.08 C
1395 03-03-2009 15:05:24 11.3 C 22 % -9.61 C
1396 03-03-2009 15:17:24 11 C 26 % -7.74 C
1397 03-03-2009 15:29:24 11.5 C 27 % -6.82 C
1398 03-03-2009 15:41:24 11.6 C 25 % -7.73 C
1399 03-03-2009 15:53:24 11.2 C 23 % -9.13 C
1400 03-03-2009 16:05:23 10.6 C 25 % -8.58 C
Sensor: Nr:Datum:Temp:Feuchte:Taupunkt:
Aussen-T/F 1401 03-03-2009 16:17:24 10.4 C 26 % -8.25 C
1402 03-03-2009 16:29:24 10.5 C 26 % -8.16 C
1403 03-03-2009 16:41:23 10.6 C 26 % -8.08 C
1404 03-03-2009 16:53:23 10.1 C 25 % -9.01 C
1405 03-03-2009 17:05:24 9.9 C 28 % -7.73 C
1406 03-03-2009 17:17:23 10.2 C 28 % -7.47 C
1407 03-03-2009 17:29:23 10.5 C 27 % -7.68 C
1408 03-03-2009 17:41:23 10.2 C 26 % -8.42 C
1409 03-03-2009 17:53:23 9.7 C 28 % -7.9 C
1410 03-03-2009 18:05:23 9.1 C 31 % -7.11 C
1411 03-03-2009 18:17:22 8.2 C 35 % -6.33 C
1412 03-03-2009 18:29:22 7.5 C 38 % -5.88 C
1413 03-03-2009 18:41:23 6.9 C 41 % -5.42 C
1414 03-03-2009 18:53:22 6.6 C 43 % -5.07 C
1415 03-03-2009 19:05:22 6.4 C 43 % -5.25 C
1416 03-03-2009 19:17:22 6.5 C 45 % -4.56 C
1417 03-03-2009 19:29:22 6.8 C 42 % -5.19 C
1418 03-03-2009 19:41:22 6.7 C 43 % -4.97 C
1419 03-03-2009 19:53:22 6.5 C 44 % -4.85 C
1420 03-03-2009 20:05:21 6.4 C 44 % -4.94 C
1421 03-03-2009 20:17:22 6.4 C 43 % -5.25 C
1422 03-03-2009 20:29:22 6.3 C 42 % -5.65 C
1423 03-03-2009 20:41:21 6.1 C 43 % -5.52 C
1424 03-03-2009 20:53:21 6.2 C 42 % -5.74 C
1425 03-03-2009 21:05:21 6.4 C 41 % -5.87 C
Sensor: Nr:Datum:Temp:Feuchte:Taupunkt:
Aussen-T/F 1426 03-03-2009 21:17:21 6 C 40 % -6.55 C
1427 03-03-2009 21:29:21 5.9 C 41 % -6.32 C
1428 03-03-2009 21:41:20 5.8 C 41 % -6.41 C
1429 03-03-2009 21:53:21 5.8 C 40 % -6.73 C
1430 03-03-2009 22:05:20 5.7 C 44 % -5.58 C
1431 03-03-2009 22:17:20 5.8 C 42 % -6.1 C
1432 03-03-2009 22:29:20 6 C 41 % -6.23 C
1433 03-03-2009 22:41:20 5.9 C 42 % -6.01 C
1434 03-03-2009 22:54:21 6 C 41 % -6.23 C
1435 03-03-2009 23:06:22 6.2 C 40 % -6.37 C
1436 03-03-2009 23:18:22 6.4 C 41 % -5.87 C
1437 03-03-2009 23:30:22 6.2 C 42 % -5.74 C
1438 03-03-2009 23:42:22 6.4 C 42 % -5.56 C
1439 03-03-2009 23:54:22 5.9 C 45 % -5.1 C
1440 04-03-2009 00:06:22 5.5 C 46 % -5.18 C
1441 04-03-2009 00:18:22 5 C 48 % -5.08 C
1442 04-03-2009 00:30:22 4.5 C 53 % -4.23 C
1443 04-03-2009 00:42:22 4.4 C 54 % -4.08 C
1444 04-03-2009 00:54:22 4.2 C 56 % -3.78 C
1445 04-03-2009 01:06:22 4.3 C 56 % -3.69 C
1446 04-03-2009 01:18:22 4.1 C 58 % -3.41 C
1447 04-03-2009 01:30:22 3.9 C 60 % -3.14 C
1448 04-03-2009 01:42:22 3.7 C 61 % -3.11 C
1449 04-03-2009 01:54:22 3.6 C 61 % -3.2 C
1450 04-03-2009 02:06:22 3.4 C 62 % -3.17 C
Sensor: Nr:Datum:Temp:Feuchte:Taupunkt:
Aussen-T/F 1451 04-03-2009 02:18:22 3.3 C 64 % -2.84 C
1452 04-03-2009 02:30:22 3.2 C 64 % -2.94 C
1453 04-03-2009 02:42:22 3.2 C 65 % -2.73 C
1454 04-03-2009 02:54:22 3.1 C 66 % -2.62 C
1455 04-03-2009 03:06:23 2.9 C 66 % -2.81 C
1456 04-03-2009 03:18:23 2.7 C 67 % -2.8 C
1457 04-03-2009 03:30:23 2.7 C 68 % -2.6 C
1458 04-03-2009 03:42:23 2.8 C 69 % -2.31 C
1459 04-03-2009 03:54:23 2.8 C 69 % -2.31 C
1460 04-03-2009 04:06:23 2.8 C 70 % -2.11 C
1461 04-03-2009 04:18:23 2.6 C 70 % -2.31 C
1462 04-03-2009 04:30:23 2.5 C 70 % -2.4 C
1463 04-03-2009 04:42:23 2.5 C 71 % -2.21 C
1464 04-03-2009 04:54:23 2.4 C 71 % -2.31 C
1465 04-03-2009 05:06:23 2.5 C 72 % -2.02 C
1466 04-03-2009 05:18:23 2.7 C 71 % -2.02 C
1467 04-03-2009 05:30:23 3 C 69 % -2.12 C
1468 04-03-2009 05:42:23 3.1 C 68 % -2.22 C
1469 04-03-2009 05:54:23 3.2 C 67 % -2.32 C
1470 04-03-2009 06:06:23 3.4 C 66 % -2.33 C
1471 04-03-2009 06:18:23 3.5 C 66 % -2.24 C
1472 04-03-2009 06:30:23 3.5 C 65 % -2.44 C
1473 04-03-2009 06:42:23 3.4 C 66 % -2.33 C
1474 04-03-2009 06:54:23 3.5 C 65 % -2.44 C
1475 04-03-2009 07:06:20 3.6 C 65 % -2.35 C
Sensor: Nr:Datum:Temp:Feuchte:Taupunkt:
Aussen-T/F 1476 04-03-2009 07:18:21 3.7 C 65 % -2.25 C
1477 04-03-2009 07:30:21 3.8 C 64 % -2.37 C
1478 04-03-2009 07:42:21 3.7 C 65 % -2.25 C
1479 04-03-2009 07:54:20 3.8 C 65 % -2.16 C
1480 04-03-2009 08:06:21 3.9 C 64 % -2.27 C
1481 04-03-2009 08:18:20 4 C 64 % -2.18 C
1482 04-03-2009 08:30:20 4.1 C 63 % -2.3 C
1483 04-03-2009 08:42:20 4.2 C 63 % -2.2 C
1484 04-03-2009 08:54:19 4.2 C 63 % -2.2 C
1485 04-03-2009 09:06:20 4.2 C 63 % -2.2 C
1486 04-03-2009 09:18:19 4 C 62 % -2.61 C
1487 04-03-2009 09:30:20 4.1 C 62 % -2.51 C
1488 04-03-2009 09:42:21 4.3 C 61 % -2.54 C
1489 04-03-2009 09:54:19 4.9 C 59 % -2.42 C
1490 04-03-2009 10:06:19 5.4 C 56 % -2.66 C
1491 04-03-2009 10:18:18 5.9 C 54 % -2.68 C
1492 04-03-2009 10:30:19 6.1 C 53 % -2.74 C
1493 04-03-2009 10:42:19 6.8 C 50 % -2.88 C
1494 04-03-2009 10:54:18 7.5 C 47 % -3.06 C
1495 04-03-2009 11:06:18 8 C 44 % -3.49 C
1496 04-03-2009 11:18:19 8.3 C 43 % -3.52 C
1497 04-03-2009 11:30:18 8.6 C 42 % -3.57 C
1498 04-03-2009 11:42:18 8.8 C 42 % -3.39 C
1499 04-03-2009 11:54:18 9.1 C 42 % -3.12 C
1500 04-03-2009 12:06:18 9.4 C 41 % -3.17 C
Sensor: Nr:Datum:Temp:Feuchte:Taupunkt:
Aussen-T/F 1501 04-03-2009 12:18:18 9.9 C 40 % -3.05 C
1502 04-03-2009 12:30:18 10.3 C 37 % -3.73 C
1503 04-03-2009 12:42:18 10.7 C 37 % -3.38 C
1504 04-03-2009 12:54:18 11.1 C 36 % -3.39 C
1505 04-03-2009 13:06:18 11.8 C 32 % -4.34 C
1506 04-03-2009 13:18:17 12.2 C 28 % -5.75 C
1507 04-03-2009 13:30:17 12.2 C 30 % -4.84 C
1508 04-03-2009 13:42:17 11.5 C 33 % -4.19 C
1509 04-03-2009 13:54:17 11.7 C 33 % -4.01 C
1510 04-03-2009 14:06:17 12 C 32 % -4.16 C
1511 04-03-2009 14:18:16 12.4 C 31 % -4.23 C
1512 04-03-2009 14:30:17 12.3 C 30 % -4.75 C
1513 04-03-2009 14:42:17 12.7 C 30 % -4.41 C
1514 04-03-2009 14:54:16 12.9 C 30 % -4.23 C
1515 04-03-2009 15:06:16 13 C 28 % -5.06 C
1516 04-03-2009 15:18:17 13.3 C 28 % -4.8 C
1517 04-03-2009 15:30:16 12.9 C 28 % -5.14 C
1518 04-03-2009 15:42:16 12.3 C 30 % -4.75 C
1519 04-03-2009 15:54:16 11.9 C 32 % -4.25 C
1520 04-03-2009 16:06:16 11.9 C 32 % -4.25 C
1521 04-03-2009 16:18:16 12.7 C 29 % -4.85 C
1522 04-03-2009 16:30:15 12.3 C 31 % -4.32 C
1523 04-03-2009 16:42:15 12.2 C 30 % -4.84 C
1524 04-03-2009 16:54:15 11.9 C 32 % -4.25 C
1525 04-03-2009 17:06:15 11.7 C 31 % -4.84 C
Sensor: Nr:Datum:Temp:Feuchte:Taupunkt:
Aussen-T/F 1526 04-03-2009 17:18:15 11.6 C 31 % -4.93 C
1527 04-03-2009 17:30:15 11.4 C 31 % -5.1 C
1528 04-03-2009 17:42:15 11.3 C 31 % -5.19 C
1529 04-03-2009 17:54:15 11.1 C 31 % -5.37 C
1530 04-03-2009 18:06:15 11 C 32 % -5.04 C
1531 04-03-2009 18:18:14 10.8 C 33 % -4.81 C
1532 04-03-2009 18:30:14 10.3 C 35 % -4.47 C
1533 04-03-2009 18:42:15 9.7 C 39 % -3.57 C
1534 04-03-2009 18:54:14 9 C 42 % -3.21 C
1535 04-03-2009 19:06:14 8.9 C 43 % -2.98 C
1536 04-03-2009 19:18:13 8.7 C 45 % -2.55 C
1537 04-03-2009 19:30:14 8.8 C 43 % -3.07 C
1538 04-03-2009 19:42:14 8.6 C 45 % -2.64 C
1539 04-03-2009 19:54:13 8.9 C 44 % -2.67 C
1540 04-03-2009 20:06:13 8.9 C 45 % -2.37 C
1541 04-03-2009 20:18:14 9 C 45 % -2.28 C
1542 04-03-2009 20:30:13 9 C 46 % -1.98 C
1543 04-03-2009 20:42:13 8.9 C 48 % -1.5 C
1544 04-03-2009 20:54:13 8.8 C 49 % -1.31 C
1545 04-03-2009 21:06:13 8.6 C 51 % -0.95 C
1546 04-03-2009 21:18:13 8.5 C 52 % -0.78 C
1547 04-03-2009 21:30:13 8.4 C 52 % -0.87 C
1548 04-03-2009 21:42:13 8.4 C 51 % -1.13 C
1549 04-03-2009 21:54:13 8.5 C 51 % -1.04 C
1550 04-03-2009 22:06:12 8.5 C 50 % -1.31 C
Sensor: Nr:Datum:Temp:Feuchte:Taupunkt:
Aussen-T/F 1551 04-03-2009 22:19:15 8.6 C 50 % -1.22 C
1552 04-03-2009 22:31:15 8.4 C 51 % -1.13 C
1553 04-03-2009 22:43:15 8.7 C 48 % -1.68 C
1554 04-03-2009 22:55:15 8.7 C 50 % -1.13 C
1555 04-03-2009 23:07:15 8.6 C 50 % -1.22 C
1556 04-03-2009 23:19:15 8.4 C 51 % -1.13 C
1557 04-03-2009 23:31:15 8.3 C 52 % -0.96 C
1558 04-03-2009 23:43:15 8.1 C 53 % -0.89 C
1559 04-03-2009 23:55:15 8 C 55 % -0.47 C
1560 05-03-2009 00:07:15 7.9 C 56 % -0.32 C
1561 05-03-2009 00:19:15 7.9 C 57 % -0.08 C
1562 05-03-2009 00:31:15 7.8 C 60 % 0.53 C
1563 05-03-2009 00:43:15 7.6 C 62 % 0.8 C
1564 05-03-2009 00:55:15 7.5 C 64 % 1.14 C
1565 05-03-2009 01:07:15 7.6 C 63 % 1.02 C
1566 05-03-2009 01:19:15 7.6 C 62 % 0.8 C
1567 05-03-2009 01:31:16 7.6 C 61 % 0.57 C
1568 05-03-2009 01:43:16 7.6 C 61 % 0.57 C
1569 05-03-2009 01:55:16 7.6 C 61 % 0.57 C
1570 05-03-2009 02:07:16 7.6 C 61 % 0.57 C
1571 05-03-2009 02:19:16 7.6 C 61 % 0.57 C
1572 05-03-2009 02:31:16 7.6 C 61 % 0.57 C
1573 05-03-2009 02:43:16 7.6 C 61 % 0.57 C
1574 05-03-2009 02:55:16 7.5 C 62 % 0.7 C
1575 05-03-2009 03:07:16 7.5 C 61 % 0.48 C
Sensor: Nr:Datum:Temp:Feuchte:Taupunkt:
Aussen-T/F 1576 05-03-2009 03:19:16 7.6 C 61 % 0.57 C
1577 05-03-2009 03:31:16 7.6 C 61 % 0.57 C
1578 05-03-2009 03:43:16 7.5 C 61 % 0.48 C
1579 05-03-2009 03:55:16 7.4 C 62 % 0.61 C
1580 05-03-2009 04:07:16 7.3 C 63 % 0.74 C
1581 05-03-2009 04:19:16 7.1 C 65 % 0.98 C
1582 05-03-2009 04:31:16 7.1 C 66 % 1.19 C
1583 05-03-2009 04:43:16 7 C 66 % 1.09 C
1584 05-03-2009 04:55:16 6.7 C 69 % 1.43 C
1585 05-03-2009 05:07:16 6.4 C 71 % 1.54 C
1586 05-03-2009 05:19:16 6.1 C 73 % 1.63 C
1587 05-03-2009 05:31:17 6 C 74 % 1.73 C
1588 05-03-2009 05:43:17 5.7 C 77 % 1.99 C
1589 05-03-2009 05:55:17 5.5 C 80 % 2.33 C
1590 05-03-2009 06:07:17 5.4 C 81 % 2.41 C
1591 05-03-2009 06:19:17 5.2 C 81 % 2.21 C
1592 05-03-2009 06:31:17 5.1 C 81 % 2.12 C
1593 05-03-2009 06:43:17 5 C 82 % 2.19 C
1594 05-03-2009 06:55:17 4.9 C 84 % 2.43 C
1595 05-03-2009 07:07:14 4.9 C 85 % 2.6 C
1596 05-03-2009 07:19:14 4.8 C 85 % 2.5 C
1597 05-03-2009 07:31:14 4.7 C 86 % 2.56 C
1598 05-03-2009 07:43:14 4.7 C 86 % 2.56 C
1599 05-03-2009 07:55:14 4.6 C 86 % 2.47 C
1600 05-03-2009 08:07:13 4.6 C 86 % 2.47 C
Sensor: Nr:Datum:Temp:Feuchte:Taupunkt:
Aussen-T/F 1601 05-03-2009 08:19:14 4.4 C 86 % 2.27 C
1602 05-03-2009 08:31:14 4.2 C 85 % 1.91 C
1603 05-03-2009 08:43:14 3.9 C 85 % 1.61 C
1604 05-03-2009 08:55:13 3.6 C 85 % 1.32 C
1605 05-03-2009 09:07:14 3.4 C 85 % 1.12 C
1606 05-03-2009 09:19:13 3.4 C 85 % 1.12 C
1607 05-03-2009 09:31:13 3.5 C 86 % 1.38 C
1608 05-03-2009 09:43:13 3.2 C 86 % 1.09 C
1609 05-03-2009 09:55:13 3.2 C 86 % 1.09 C
1610 05-03-2009 10:07:13 3.1 C 86 % 0.99 C
1611 05-03-2009 10:19:12 3 C 86 % 0.89 C
1612 05-03-2009 10:31:12 3.1 C 86 % 0.99 C
1613 05-03-2009 10:43:12 3.1 C 87 % 1.15 C
1614 05-03-2009 10:55:12 2.7 C 87 % 0.76 C
1615 05-03-2009 11:07:12 2.7 C 87 % 0.76 C
1616 05-03-2009 11:19:12 2.6 C 87 % 0.66 C
1617 05-03-2009 11:31:12 2.6 C 87 % 0.66 C
1618 05-03-2009 11:43:12 2.5 C 87 % 0.56 C
1619 05-03-2009 11:55:12 2.6 C 87 % 0.66 C
1620 05-03-2009 12:07:11 2.6 C 88 % 0.82 C
1621 05-03-2009 12:19:12 2.8 C 88 % 1.02 C
1622 05-03-2009 12:31:11 2.6 C 88 % 0.82 C
1623 05-03-2009 12:43:11 2.8 C 88 % 1.02 C
1624 05-03-2009 12:55:11 3.1 C 88 % 1.31 C
1625 05-03-2009 13:07:11 2.9 C 88 % 1.11 C
Sensor: Nr:Datum:Temp:Feuchte:Taupunkt:
Aussen-T/F 1626 05-03-2009 13:19:11 2.9 C 88 % 1.11 C
1627 05-03-2009 13:31:11 2.9 C 88 % 1.11 C
1628 05-03-2009 13:43:11 3 C 87 % 1.05 C
1629 05-03-2009 13:55:10 3 C 87 % 1.05 C
1630 05-03-2009 14:07:11 3 C 87 % 1.05 C
1631 05-03-2009 14:19:10 2.9 C 88 % 1.11 C
1632 05-03-2009 14:31:10 3 C 88 % 1.21 C
1633 05-03-2009 14:43:10 3 C 88 % 1.21 C
1634 05-03-2009 14:55:10 3.1 C 88 % 1.31 C
1635 05-03-2009 15:07:10 3 C 88 % 1.21 C
1636 05-03-2009 15:19:10 3.1 C 88 % 1.31 C
1637 05-03-2009 15:31:09 3 C 88 % 1.21 C
1638 05-03-2009 15:43:09 3.1 C 88 % 1.31 C
1639 05-03-2009 15:55:09 3.2 C 89 % 1.57 C
1640 05-03-2009 16:07:09 3.3 C 89 % 1.67 C
1641 05-03-2009 16:19:10 3.2 C 89 % 1.57 C
1642 05-03-2009 16:31:09 3.3 C 89 % 1.67 C
1643 05-03-2009 16:43:09 3.4 C 89 % 1.76 C
1644 05-03-2009 16:55:09 3.5 C 89 % 1.86 C
1645 05-03-2009 17:07:08 3.6 C 89 % 1.96 C
1646 05-03-2009 17:19:09 3.6 C 89 % 1.96 C
1647 05-03-2009 17:31:09 3.6 C 89 % 1.96 C
1648 05-03-2009 17:43:09 3.7 C 89 % 2.06 C
1649 05-03-2009 17:55:08 3.7 C 89 % 2.06 C
1650 05-03-2009 18:07:08 4 C 87 % 2.04 C
Sensor: Nr:Datum:Temp:Feuchte:Taupunkt:
Aussen-T/F 1651 05-03-2009 18:19:09 4 C 87 % 2.04 C
1652 05-03-2009 18:31:08 4 C 87 % 2.04 C
1653 05-03-2009 18:43:08 3.9 C 88 % 2.1 C
1654 05-03-2009 18:55:08 4 C 88 % 2.2 C
1655 05-03-2009 19:07:08 4 C 88 % 2.2 C
1656 05-03-2009 19:19:07 4 C 89 % 2.36 C
1657 05-03-2009 19:31:08 4 C 89 % 2.36 C
1658 05-03-2009 19:43:08 3.8 C 90 % 2.31 C
1659 05-03-2009 19:55:07 3.8 C 90 % 2.31 C
1660 05-03-2009 20:07:07 3.7 C 90 % 2.22 C
1661 05-03-2009 20:19:07 3.7 C 89 % 2.06 C
1662 05-03-2009 20:31:07 3.6 C 89 % 1.96 C
1663 05-03-2009 20:43:07 3.6 C 90 % 2.12 C
1664 05-03-2009 20:55:06 3.6 C 90 % 2.12 C
1665 05-03-2009 21:07:07 3.5 C 90 % 2.02 C
1666 05-03-2009 21:19:06 3.5 C 90 % 2.02 C
1667 05-03-2009 21:31:06 3.5 C 90 % 2.02 C
1668 05-03-2009 21:43:07 3.4 C 90 % 1.92 C
1669 05-03-2009 21:55:06 3.4 C 91 % 2.07 C
1670 05-03-2009 22:07:06 3.4 C 91 % 2.07 C
1671 05-03-2009 22:19:05 3.4 C 91 % 2.07 C
1672 05-03-2009 22:32:06 3.3 C 90 % 1.82 C
1673 05-03-2009 22:44:06 3.2 C 90 % 1.72 C
1674 05-03-2009 22:56:07 3.1 C 90 % 1.62 C
1675 05-03-2009 23:08:07 3 C 90 % 1.52 C
Sensor: Nr:Datum:Temp:Feuchte:Taupunkt:
Aussen-T/F 1676 05-03-2009 23:20:07 3 C 90 % 1.52 C
1677 05-03-2009 23:32:07 2.8 C 90 % 1.33 C
1678 05-03-2009 23:44:07 2.8 C 90 % 1.33 C
1679 05-03-2009 23:56:07 2.8 C 90 % 1.33 C
1680 06-03-2009 00:08:07 2.9 C 91 % 1.58 C
1681 06-03-2009 00:20:07 3 C 90 % 1.52 C
1682 06-03-2009 00:32:07 3 C 90 % 1.52 C
1683 06-03-2009 00:44:07 3 C 90 % 1.52 C
1684 06-03-2009 00:56:07 3 C 91 % 1.68 C
1685 06-03-2009 01:08:07 3.1 C 91 % 1.78 C
1686 06-03-2009 01:20:07 3.1 C 91 % 1.78 C
1687 06-03-2009 01:32:07 3.2 C 91 % 1.88 C
1688 06-03-2009 01:44:07 3.2 C 91 % 1.88 C
1689 06-03-2009 01:56:07 3.2 C 91 % 1.88 C
1690 06-03-2009 02:08:07 3.2 C 91 % 1.88 C
1691 06-03-2009 02:20:07 3.3 C 91 % 1.98 C
1692 06-03-2009 02:32:07 3.3 C 91 % 1.98 C
1693 06-03-2009 02:44:07 3.3 C 91 % 1.98 C
1694 06-03-2009 02:56:08 3.4 C 91 % 2.07 C
1695 06-03-2009 03:08:08 3.4 C 91 % 2.07 C
1696 06-03-2009 03:20:08 3.4 C 91 % 2.07 C
1697 06-03-2009 03:32:08 3.4 C 91 % 2.07 C
1698 06-03-2009 03:44:08 3.5 C 91 % 2.17 C
1699 06-03-2009 03:56:08 3.5 C 91 % 2.17 C
1700 06-03-2009 04:08:08 3.5 C 91 % 2.17 C
Sensor: Nr:Datum:Temp:Feuchte:Taupunkt:
Aussen-T/F 1701 06-03-2009 04:20:08 3.4 C 91 % 2.07 C
1702 06-03-2009 04:32:08 3.4 C 91 % 2.07 C
1703 06-03-2009 04:44:08 3.3 C 90 % 1.82 C
1704 06-03-2009 04:56:08 3.3 C 90 % 1.82 C
1705 06-03-2009 05:08:08 3.3 C 90 % 1.82 C
1706 06-03-2009 05:20:08 3.3 C 91 % 1.98 C
1707 06-03-2009 05:32:08 3.3 C 91 % 1.98 C
1708 06-03-2009 05:44:08 3.3 C 91 % 1.98 C
1709 06-03-2009 05:56:08 3.4 C 92 % 2.23 C
1710 06-03-2009 06:08:08 3.5 C 92 % 2.33 C
1711 06-03-2009 06:20:08 3.6 C 92 % 2.42 C
1712 06-03-2009 06:32:08 3.5 C 92 % 2.33 C
1713 06-03-2009 06:44:08 3.6 C 92 % 2.42 C
1714 06-03-2009 06:56:08 3.6 C 92 % 2.42 C
1715 06-03-2009 07:08:06 3.5 C 92 % 2.33 C
1716 06-03-2009 07:20:06 3.5 C 92 % 2.33 C
1717 06-03-2009 07:32:06 3.3 C 91 % 1.98 C
1718 06-03-2009 07:44:06 3.3 C 92 % 2.13 C
1719 06-03-2009 07:56:06 3.3 C 92 % 2.13 C
1720 06-03-2009 08:08:05 3.3 C 91 % 1.98 C
1721 06-03-2009 08:20:05 3.3 C 91 % 1.98 C
1722 06-03-2009 08:32:05 3.3 C 91 % 1.98 C
1723 06-03-2009 08:44:05 3.2 C 90 % 1.72 C
1724 06-03-2009 08:56:05 3.3 C 90 % 1.82 C
1725 06-03-2009 09:08:05 3.3 C 90 % 1.82 C
Sensor: Nr:Datum:Temp:Feuchte:Taupunkt:
Aussen-T/F 1726 06-03-2009 09:20:05 3.4 C 90 % 1.92 C
1727 06-03-2009 09:32:05 3.4 C 89 % 1.76 C
1728 06-03-2009 09:44:05 3.5 C 89 % 1.86 C
1729 06-03-2009 09:56:05 3.6 C 89 % 1.96 C
1730 06-03-2009 10:08:05 3.6 C 89 % 1.96 C
1731 06-03-2009 10:20:04 3.7 C 88 % 1.9 C
1732 06-03-2009 10:32:04 3.9 C 88 % 2.1 C
1733 06-03-2009 10:44:04 3.8 C 88 % 2 C
1734 06-03-2009 10:56:04 3.8 C 88 % 2 C
1735 06-03-2009 11:08:04 3.9 C 89 % 2.26 C
1736 06-03-2009 11:20:03 4 C 88 % 2.2 C
1737 06-03-2009 11:32:04 4.1 C 88 % 2.3 C
1738 06-03-2009 11:44:03 4.1 C 88 % 2.3 C
1739 06-03-2009 11:56:03 4.2 C 88 % 2.39 C
1740 06-03-2009 12:08:03 4.2 C 87 % 2.23 C
1741 06-03-2009 12:20:04 4.3 C 88 % 2.49 C
1742 06-03-2009 12:32:03 4.3 C 88 % 2.49 C
1743 06-03-2009 12:44:03 4.4 C 87 % 2.43 C
1744 06-03-2009 12:56:03 4.4 C 87 % 2.43 C
1745 06-03-2009 13:08:03 4.5 C 86 % 2.37 C
1746 06-03-2009 13:20:03 4.6 C 85 % 2.3 C
1747 06-03-2009 13:32:02 5 C 82 % 2.19 C
1748 06-03-2009 13:44:02 5 C 82 % 2.19 C
1749 06-03-2009 13:56:03 4.8 C 83 % 2.16 C
1750 06-03-2009 14:08:02 4.7 C 84 % 2.23 C
Sensor: Nr:Datum:Temp:Feuchte:Taupunkt:
Aussen-T/F 1751 06-03-2009 14:20:02 4.7 C 84 % 2.23 C
1752 06-03-2009 14:32:02 4.8 C 83 % 2.16 C
1753 06-03-2009 14:44:02 4.9 C 82 % 2.09 C
1754 06-03-2009 14:56:02 4.9 C 83 % 2.26 C
1755 06-03-2009 15:08:02 4.8 C 82 % 1.99 C
1756 06-03-2009 15:20:01 4.8 C 82 % 1.99 C
1757 06-03-2009 15:32:01 4.9 C 82 % 2.09 C
1758 06-03-2009 15:44:01 4.9 C 82 % 2.09 C
1759 06-03-2009 15:56:01 4.7 C 82 % 1.9 C
1760 06-03-2009 16:08:01 4.7 C 82 % 1.9 C
1761 06-03-2009 16:20:00 4.6 C 82 % 1.8 C
1762 06-03-2009 16:32:01 4.6 C 82 % 1.8 C
1763 06-03-2009 16:44:00 4.5 C 83 % 1.87 C
1764 06-03-2009 16:56:00 4.4 C 84 % 1.94 C
1765 06-03-2009 17:08:00 4.4 C 84 % 1.94 C
1766 06-03-2009 17:20:01 4.3 C 84 % 1.84 C
1767 06-03-2009 17:32:00 4.2 C 83 % 1.58 C
1768 06-03-2009 17:44:00 4.2 C 83 % 1.58 C
1769 06-03-2009 17:56:00 4.2 C 84 % 1.74 C
1770 06-03-2009 18:08:00 4.2 C 83 % 1.58 C
1771 06-03-2009 18:20:00 4.1 C 82 % 1.31 C
1772 06-03-2009 18:32:00 4 C 83 % 1.38 C
1773 06-03-2009 18:44:00 4 C 84 % 1.55 C
1774 06-03-2009 18:56:00 3.9 C 85 % 1.61 C
1775 06-03-2009 19:08:00 3.9 C 84 % 1.45 C
Sensor: Nr:Datum:Temp:Feuchte:Taupunkt:
Aussen-T/F 1776 06-03-2009 19:20:59 4 C 82 % 1.21 C
1777 06-03-2009 19:32:59 4 C 82 % 1.21 C
1778 06-03-2009 19:44:59 4 C 83 % 1.38 C
1779 06-03-2009 19:56:59 3.9 C 84 % 1.45 C
1780 06-03-2009 20:08:59 3.8 C 84 % 1.35 C
1781 06-03-2009 20:20:58 3.8 C 84 % 1.35 C
1782 06-03-2009 20:32:59 3.8 C 83 % 1.19 C
1783 06-03-2009 20:44:58 4 C 80 % 0.87 C
1784 06-03-2009 20:56:58 3.9 C 81 % 0.95 C
1785 06-03-2009 21:08:59 3.8 C 80 % 0.68 C
1786 06-03-2009 21:20:58 3.7 C 78 % 0.23 C
1787 06-03-2009 21:32:58 3.7 C 76 % -0.13 C
1788 06-03-2009 21:44:58 3.8 C 72 % -0.77 C
1789 06-03-2009 21:56:58 3.8 C 70 % -1.16 C
1790 06-03-2009 22:08:58 3.8 C 68 % -1.55 C
1791 06-03-2009 22:21:57 3.7 C 68 % -1.64 C
1792 06-03-2009 22:33:57 3.8 C 67 % -1.75 C
1793 06-03-2009 22:45:57 3.8 C 68 % -1.55 C
1794 06-03-2009 22:57:57 3.8 C 67 % -1.75 C
1795 06-03-2009 23:09:57 3.8 C 66 % -1.95 C
1796 06-03-2009 23:21:57 3.7 C 66 % -2.05 C
1797 06-03-2009 23:33:57 3.8 C 65 % -2.16 C
1798 06-03-2009 23:45:57 3.8 C 65 % -2.16 C
1799 06-03-2009 23:57:57 3.8 C 64 % -2.37 C
1800 07-03-2009 00:09:58 3.7 C 64 % -2.46 C
Sensor: Nr:Datum:Temp:Feuchte:Taupunkt:
Aussen-T/F 1801 07-03-2009 00:21:58 3.8 C 62 % -2.8 C
1802 07-03-2009 00:33:58 3.8 C 61 % -3.01 C
1803 07-03-2009 00:45:58 3.8 C 60 % -3.23 C
1804 07-03-2009 00:57:58 3.7 C 61 % -3.11 C
1805 07-03-2009 01:09:58 3.6 C 63 % -2.77 C
1806 07-03-2009 01:21:58 3.6 C 62 % -2.98 C
1807 07-03-2009 01:33:58 3.6 C 62 % -2.98 C
1808 07-03-2009 01:45:58 3.5 C 62 % -3.08 C
1809 07-03-2009 01:57:58 3.4 C 63 % -2.96 C
1810 07-03-2009 02:09:58 3.4 C 63 % -2.96 C
1811 07-03-2009 02:21:58 3.4 C 63 % -2.96 C
1812 07-03-2009 02:33:58 3.3 C 63 % -3.05 C
1813 07-03-2009 02:45:58 3.3 C 64 % -2.84 C
1814 07-03-2009 02:57:58 3.2 C 64 % -2.94 C
1815 07-03-2009 03:09:58 3.1 C 65 % -2.83 C
1816 07-03-2009 03:21:58 3.2 C 64 % -2.94 C
1817 07-03-2009 03:33:58 3.2 C 64 % -2.94 C
1818 07-03-2009 03:45:58 3.2 C 64 % -2.94 C
1819 07-03-2009 03:57:58 3.2 C 64 % -2.94 C
1820 07-03-2009 04:09:59 3.2 C 64 % -2.94 C
1821 07-03-2009 04:21:59 3.2 C 64 % -2.94 C
1822 07-03-2009 04:33:59 3.1 C 64 % -3.03 C
1823 07-03-2009 04:45:59 3.1 C 64 % -3.03 C
1824 07-03-2009 04:57:59 3.2 C 63 % -3.15 C
1825 07-03-2009 05:09:59 3.2 C 63 % -3.15 C
Sensor: Nr:Datum:Temp:Feuchte:Taupunkt:
Aussen-T/F 1826 07-03-2009 05:21:59 3.2 C 62 % -3.36 C
1827 07-03-2009 05:33:59 3.1 C 63 % -3.24 C
1828 07-03-2009 05:45:59 3 C 63 % -3.34 C
1829 07-03-2009 05:57:59 3 C 62 % -3.55 C
1830 07-03-2009 06:09:59 3 C 61 % -3.77 C
1831 07-03-2009 06:21:58 3 C 60 % -3.99 C
1832 07-03-2009 06:33:57 3 C 61 % -3.77 C
1833 07-03-2009 06:45:57 3 C 61 % -3.77 C
1834 07-03-2009 06:57:57 3 C 61 % -3.77 C
1835 07-03-2009 07:09:57 2.9 C 62 % -3.65 C
1836 07-03-2009 07:21:57 2.9 C 63 % -3.43 C
1837 07-03-2009 07:33:57 2.7 C 64 % -3.41 C
1838 07-03-2009 07:45:57 2.6 C 65 % -3.3 C
1839 07-03-2009 07:57:57 2.7 C 65 % -3.21 C
1840 07-03-2009 08:09:57 2.7 C 64 % -3.41 C
1841 07-03-2009 08:21:56 2.7 C 64 % -3.41 C
1842 07-03-2009 08:33:56 2.6 C 63 % -3.72 C
1843 07-03-2009 08:45:56 2.6 C 63 % -3.72 C
1844 07-03-2009 08:57:56 2.7 C 63 % -3.62 C
1845 07-03-2009 09:09:56 2.7 C 63 % -3.62 C
1846 07-03-2009 09:21:56 3 C 62 % -3.55 C
1847 07-03-2009 09:33:56 3.3 C 61 % -3.49 C
1848 07-03-2009 09:45:56 3.2 C 60 % -3.8 C
1849 07-03-2009 09:57:56 3.1 C 62 % -3.46 C
1850 07-03-2009 10:09:56 3.2 C 63 % -3.15 C
Sensor: Nr:Datum:Temp:Feuchte:Taupunkt:
Aussen-T/F 1851 07-03-2009 10:21:55 3.5 C 63 % -2.86 C
1852 07-03-2009 10:33:55 3.9 C 61 % -2.92 C
1853 07-03-2009 10:45:55 4.5 C 60 % -2.57 C
1854 07-03-2009 10:57:55 5 C 57 % -2.79 C
1855 07-03-2009 11:09:55 5.1 C 58 % -2.47 C
1856 07-03-2009 11:21:54 5.9 C 55 % -2.43 C
1857 07-03-2009 11:33:55 6.6 C 51 % -2.8 C
1858 07-03-2009 11:45:54 7.2 C 48 % -3.06 C
1859 07-03-2009 11:57:54 7.4 C 49 % -2.6 C
1860 07-03-2009 12:09:54 7.5 C 47 % -3.06 C
1861 07-03-2009 12:21:55 7.6 C 45 % -3.55 C
1862 07-03-2009 12:33:54 7.8 C 44 % -3.67 C
1863 07-03-2009 12:45:54 8.2 C 41 % -4.25 C
1864 07-03-2009 12:57:54 7.9 C 41 % -4.52 C
1865 07-03-2009 13:09:54 8.5 C 38 % -4.98 C
1866 07-03-2009 13:21:54 8.4 C 38 % -5.07 C
1867 07-03-2009 13:33:54 9 C 37 % -4.89 C
1868 07-03-2009 13:45:53 8.5 C 36 % -5.69 C
1869 07-03-2009 13:57:53 9.4 C 36 % -4.89 C
1870 07-03-2009 14:09:54 10 C 32 % -5.91 C
1871 07-03-2009 14:21:53 10.8 C 31 % -5.63 C
1872 07-03-2009 14:33:53 11.3 C 29 % -6.06 C
1873 07-03-2009 14:45:53 11.4 C 27 % -6.91 C
1874 07-03-2009 14:57:53 11.3 C 28 % -6.52 C
1875 07-03-2009 15:09:53 11.8 C 26 % -7.05 C
Sensor: Nr:Datum:Temp:Feuchte:Taupunkt:
Aussen-T/F 1876 07-03-2009 15:21:52 11.9 C 25 % -7.47 C
1877 07-03-2009 15:33:52 11 C 32 % -5.04 C
1878 07-03-2009 15:45:52 10.8 C 34 % -4.41 C
1879 07-03-2009 15:57:52 11 C 30 % -5.88 C
1880 07-03-2009 16:09:52 10.7 C 28 % -7.04 C
1881 07-03-2009 16:21:52 10.2 C 30 % -6.58 C
1882 07-03-2009 16:33:52 10.4 C 30 % -6.4 C
1883 07-03-2009 16:45:52 10.6 C 28 % -7.12 C
1884 07-03-2009 16:57:52 10.4 C 27 % -7.77 C
1885 07-03-2009 17:09:51 9.6 C 39 % -3.65 C
1886 07-03-2009 17:21:52 9.2 C 42 % -3.02 C
1887 07-03-2009 17:33:51 8.7 C 45 % -2.55 C
1888 07-03-2009 17:45:51 8.4 C 47 % -2.24 C
1889 07-03-2009 17:57:51 8 C 49 % -2.05 C
1890 07-03-2009 18:09:51 7.8 C 50 % -1.96 C
1891 07-03-2009 18:21:51 7.5 C 52 % -1.7 C
1892 07-03-2009 18:33:51 7.2 C 53 % -1.72 C
1893 07-03-2009 18:45:50 6.8 C 55 % -1.59 C
1894 07-03-2009 18:57:50 6.4 C 56 % -1.72 C
1895 07-03-2009 19:09:51 6.2 C 58 % -1.43 C
1896 07-03-2009 19:21:50 5.8 C 60 % -1.35 C
1897 07-03-2009 19:33:50 5.6 C 61 % -1.31 C
1898 07-03-2009 19:45:50 5.3 C 61 % -1.6 C
1899 07-03-2009 19:57:50 5.3 C 62 % -1.38 C
1900 07-03-2009 20:09:50 5.2 C 62 % -1.47 C
Sensor: Nr:Datum:Temp:Feuchte:Taupunkt:
Aussen-T/F 1901 07-03-2009 20:21:49 5.6 C 62 % -1.09 C
1902 07-03-2009 20:33:50 6 C 59 % -1.39 C
1903 07-03-2009 20:45:50 6 C 58 % -1.62 C
1904 07-03-2009 20:57:50 5.9 C 59 % -1.48 C
1905 07-03-2009 21:09:50 5.9 C 59 % -1.48 C
1906 07-03-2009 21:21:49 5.9 C 59 % -1.48 C
1907 07-03-2009 21:33:49 6 C 57 % -1.86 C
1908 07-03-2009 21:45:49 6.1 C 56 % -2 C
1909 07-03-2009 21:57:49 6.2 C 55 % -2.15 C
1910 07-03-2009 22:09:49 6.4 C 55 % -1.97 C
1911 07-03-2009 22:21:48 6.2 C 55 % -2.15 C
1912 07-03-2009 22:33:49 6.4 C 55 % -1.97 C
1913 07-03-2009 22:46:50 6.4 C 56 % -1.72 C
1914 07-03-2009 22:58:50 6.2 C 57 % -1.67 C
1915 07-03-2009 23:10:50 6.3 C 57 % -1.58 C
1916 07-03-2009 23:22:50 6.3 C 58 % -1.34 C
1917 07-03-2009 23:34:50 6.5 C 55 % -1.87 C
1918 07-03-2009 23:46:50 6.5 C 56 % -1.63 C
1919 07-03-2009 23:58:50 6.4 C 57 % -1.48 C
1920 08-03-2009 00:10:50 6.3 C 57 % -1.58 C
1921 08-03-2009 00:22:50 6.4 C 57 % -1.48 C
1922 08-03-2009 00:34:50 6.3 C 57 % -1.58 C
1923 08-03-2009 00:46:50 6.3 C 58 % -1.34 C
1924 08-03-2009 00:58:51 6.1 C 59 % -1.3 C
1925 08-03-2009 01:10:51 5.9 C 61 % -1.03 C
Sensor: Nr:Datum:Temp:Feuchte:Taupunkt:
Aussen-T/F 1926 08-03-2009 01:22:51 6.1 C 60 % -1.07 C
1927 08-03-2009 01:34:51 6.3 C 60 % -0.88 C
1928 08-03-2009 01:46:51 6.3 C 60 % -0.88 C
1929 08-03-2009 01:58:51 6.5 C 58 % -1.15 C
1930 08-03-2009 02:10:51 6.4 C 59 % -1.01 C
1931 08-03-2009 02:22:51 6.4 C 59 % -1.01 C
1932 08-03-2009 02:34:51 6.4 C 59 % -1.01 C
1933 08-03-2009 02:46:51 6.5 C 61 % -0.46 C
1934 08-03-2009 02:58:51 6.7 C 61 % -0.28 C
1935 08-03-2009 03:10:51 6.6 C 61 % -0.37 C
1936 08-03-2009 03:22:51 6.6 C 62 % -0.15 C
1937 08-03-2009 03:34:51 6.7 C 62 % -0.05 C
1938 08-03-2009 03:46:51 6.9 C 62 % 0.14 C
1939 08-03-2009 03:58:51 7 C 60 % -0.22 C
1940 08-03-2009 04:10:51 7.1 C 61 % 0.1 C
1941 08-03-2009 04:22:51 7.1 C 61 % 0.1 C
1942 08-03-2009 04:34:51 7.1 C 61 % 0.1 C
1943 08-03-2009 04:46:52 7.2 C 61 % 0.2 C
1944 08-03-2009 04:58:52 7.2 C 61 % 0.2 C
1945 08-03-2009 05:10:52 7.2 C 60 % -0.03 C
1946 08-03-2009 05:22:52 7.3 C 60 % 0.06 C
1947 08-03-2009 05:34:52 7.2 C 60 % -0.03 C
1948 08-03-2009 05:46:52 7.3 C 60 % 0.06 C
1949 08-03-2009 05:58:52 7.3 C 60 % 0.06 C
1950 08-03-2009 06:10:52 7.2 C 61 % 0.2 C
Sensor: Nr:Datum:Temp:Feuchte:Taupunkt:
Aussen-T/F 1951 08-03-2009 06:22:52 7.2 C 60 % -0.03 C
1952 08-03-2009 06:34:52 7.3 C 61 % 0.29 C
1953 08-03-2009 06:46:52 7.3 C 61 % 0.29 C
1954 08-03-2009 06:58:52 7.3 C 62 % 0.51 C
1955 08-03-2009 07:10:52 7.3 C 62 % 0.51 C
1956 08-03-2009 07:22:52 7.3 C 63 % 0.74 C
1957 08-03-2009 07:34:52 7.3 C 63 % 0.74 C
1958 08-03-2009 07:46:49 7.3 C 64 % 0.95 C
1959 08-03-2009 07:58:49 7.4 C 65 % 1.26 C
1960 08-03-2009 08:10:50 7.5 C 65 % 1.36 C
1961 08-03-2009 08:22:50 7.8 C 65 % 1.64 C
1962 08-03-2009 08:34:49 8 C 63 % 1.4 C
1963 08-03-2009 08:46:49 8.1 C 62 % 1.27 C
1964 08-03-2009 08:58:49 8 C 63 % 1.4 C
1965 08-03-2009 09:10:49 8 C 63 % 1.4 C
1966 08-03-2009 09:22:49 8.2 C 63 % 1.59 C
1967 08-03-2009 09:34:48 8.2 C 63 % 1.59 C
1968 08-03-2009 09:46:49 8.2 C 63 % 1.59 C
1969 08-03-2009 09:58:49 8.2 C 63 % 1.59 C
1970 08-03-2009 10:10:48 8.3 C 63 % 1.68 C
1971 08-03-2009 10:22:48 8.3 C 63 % 1.68 C
1972 08-03-2009 10:34:48 8.3 C 64 % 1.9 C
1973 08-03-2009 10:46:48 8.5 C 64 % 2.09 C
1974 08-03-2009 10:58:48 8.5 C 65 % 2.31 C
1975 08-03-2009 11:10:47 8.5 C 66 % 2.52 C
Sensor: Nr:Datum:Temp:Feuchte:Taupunkt:
Aussen-T/F 1976 08-03-2009 11:22:48 8.5 C 66 % 2.52 C
1977 08-03-2009 11:34:48 8.7 C 66 % 2.71 C
1978 08-03-2009 11:46:47 8.6 C 66 % 2.62 C
1979 08-03-2009 11:58:47 8.6 C 67 % 2.83 C
1980 08-03-2009 12:10:48 8.8 C 67 % 3.02 C
1981 08-03-2009 12:22:47 9.1 C 64 % 2.66 C
1982 08-03-2009 12:34:47 9.3 C 63 % 2.63 C
1983 08-03-2009 12:46:46 9.3 C 62 % 2.4 C
1984 08-03-2009 12:58:46 9.1 C 65 % 2.88 C
1985 08-03-2009 13:10:47 8.9 C 70 % 3.74 C
1986 08-03-2009 13:22:46 8.7 C 73 % 4.14 C
1987 08-03-2009 13:34:46 8.9 C 74 % 4.53 C
1988 08-03-2009 13:46:47 9.6 C 69 % 4.2 C
1989 08-03-2009 13:58:47 10.2 C 64 % 3.7 C
1990 08-03-2009 14:10:46 10.2 C 63 % 3.48 C
1991 08-03-2009 14:22:46 10.1 C 63 % 3.39 C
1992 08-03-2009 14:34:46 10.4 C 62 % 3.44 C
1993 08-03-2009 14:46:46 10.5 C 61 % 3.31 C
1994 08-03-2009 14:58:46 10.3 C 62 % 3.35 C
1995 08-03-2009 15:10:45 10.2 C 62 % 3.25 C
1996 08-03-2009 15:22:46 9.9 C 66 % 3.86 C
1997 08-03-2009 15:34:45 9.7 C 69 % 4.3 C
1998 08-03-2009 15:46:45 10.1 C 66 % 4.05 C
1999 08-03-2009 15:58:45 9.8 C 68 % 4.18 C
2000 08-03-2009 16:10:45 9.3 C 73 % 4.72 C
Sensor: Nr:Datum:Temp:Feuchte:Taupunkt:
Aussen-T/F 2001 08-03-2009 16:22:45 9 C 78 % 5.38 C
2002 08-03-2009 16:34:45 8.7 C 82 % 5.8 C
2003 08-03-2009 16:46:44 8.5 C 81 % 5.43 C
2004 08-03-2009 16:58:44 8.5 C 81 % 5.43 C
2005 08-03-2009 17:10:45 8.5 C 80 % 5.25 C
2006 08-03-2009 17:22:44 8.4 C 81 % 5.33 C
2007 08-03-2009 17:34:45 8.3 C 82 % 5.41 C
2008 08-03-2009 17:46:44 8.4 C 83 % 5.69 C
2009 08-03-2009 17:58:44 8.3 C 84 % 5.76 C
2010 08-03-2009 18:10:44 8.2 C 84 % 5.66 C
2011 08-03-2009 18:22:44 8.1 C 84 % 5.56 C
2012 08-03-2009 18:34:44 8.1 C 85 % 5.73 C
2013 08-03-2009 18:46:43 8.2 C 77 % 4.42 C
2014 08-03-2009 18:58:43 8.1 C 75 % 3.94 C
2015 08-03-2009 19:10:44 8.1 C 76 % 4.13 C
2016 08-03-2009 19:22:43 7.7 C 77 % 3.93 C
2017 08-03-2009 19:34:43 7.1 C 79 % 3.71 C
2018 08-03-2009 19:46:43 6.9 C 82 % 4.05 C
2019 08-03-2009 19:58:43 7 C 83 % 4.32 C
2020 08-03-2009 20:10:43 6.9 C 84 % 4.39 C
2021 08-03-2009 20:22:43 6.9 C 85 % 4.56 C
2022 08-03-2009 20:34:42 6.6 C 84 % 4.1 C
2023 08-03-2009 20:46:43 6.2 C 83 % 3.53 C
2024 08-03-2009 20:58:43 5.8 C 84 % 3.31 C
2025 08-03-2009 21:10:43 5.4 C 84 % 2.92 C
Sensor: Nr:Datum:Temp:Feuchte:Taupunkt:
Aussen-T/F 2026 08-03-2009 21:22:42 5.2 C 84 % 2.72 C
2027 08-03-2009 21:34:42 5.1 C 84 % 2.63 C
2028 08-03-2009 21:46:42 5.1 C 84 % 2.63 C
2029 08-03-2009 21:58:42 5 C 84 % 2.53 C
2030 08-03-2009 22:10:42 4.8 C 84 % 2.33 C
2031 08-03-2009 22:22:41 4.7 C 84 % 2.23 C
2032 08-03-2009 22:34:41 4.6 C 84 % 2.14 C
2033 08-03-2009 22:46:41 4.8 C 82 % 1.99 C
2034 08-03-2009 22:58:41 5.3 C 71 % 0.48 C
2035 08-03-2009 23:10:41 5.3 C 68 % -0.12 C
2036 08-03-2009 23:23:43 4.7 C 72 % 0.09 C
2037 08-03-2009 23:35:43 4.6 C 73 % 0.19 C
2038 08-03-2009 23:47:43 4.5 C 73 % 0.09 C
2039 08-03-2009 23:59:43 4.4 C 73 % 0 C
2040 09-03-2009 00:11:43 4.4 C 74 % 0.18 C
2041 09-03-2009 00:23:43 4.8 C 74 % 0.57 C
2042 09-03-2009 00:35:43 5.1 C 70 % 0.09 C
2043 09-03-2009 00:47:43 5 C 69 % -0.2 C
2044 09-03-2009 00:59:43 5 C 69 % -0.2 C
2045 09-03-2009 01:11:43 4.7 C 71 % -0.1 C
2046 09-03-2009 01:23:43 4.7 C 63 % -1.73 C
2047 09-03-2009 01:35:43 4.7 C 67 % -0.89 C
2048 09-03-2009 01:47:43 4.7 C 67 % -0.89 C
2049 09-03-2009 01:59:44 4.7 C 61 % -2.16 C
2050 09-03-2009 02:11:44 4.7 C 56 % -3.31 C
Sensor: Nr:Datum:Temp:Feuchte:Taupunkt:
Aussen-T/F 2051 09-03-2009 02:23:44 4.7 C 55 % -3.55 C
2052 09-03-2009 02:35:44 4.3 C 56 % -3.69 C
2053 09-03-2009 02:47:44 3.9 C 60 % -3.14 C
2054 09-03-2009 02:59:44 3.7 C 60 % -3.33 C
2055 09-03-2009 03:11:44 3.6 C 60 % -3.42 C
2056 09-03-2009 03:23:44 3.5 C 61 % -3.3 C
2057 09-03-2009 03:35:44 3.3 C 62 % -3.27 C
2058 09-03-2009 03:47:44 3.3 C 65 % -2.64 C
2059 09-03-2009 03:59:44 3.4 C 66 % -2.33 C
2060 09-03-2009 04:11:44 3.4 C 67 % -2.13 C
2061 09-03-2009 04:23:44 3.6 C 67 % -1.94 C
2062 09-03-2009 04:35:44 3.7 C 69 % -1.45 C
2063 09-03-2009 04:47:44 3.3 C 74 % -0.88 C
2064 09-03-2009 04:59:44 3.2 C 77 % -0.43 C
2065 09-03-2009 05:11:44 3.1 C 78 % -0.35 C
2066 09-03-2009 05:23:44 3.1 C 79 % -0.18 C
2067 09-03-2009 05:35:44 3 C 78 % -0.45 C
2068 09-03-2009 05:47:45 3.2 C 77 % -0.43 C
2069 09-03-2009 05:59:45 3.3 C 76 % -0.52 C
2070 09-03-2009 06:11:45 3.1 C 78 % -0.35 C
2071 09-03-2009 06:23:45 2.5 C 81 % -0.42 C
2072 09-03-2009 06:35:45 2.3 C 83 % -0.28 C
2073 09-03-2009 06:47:45 2.1 C 84 % -0.31 C
2074 09-03-2009 06:59:42 2.2 C 85 % -0.05 C
2075 09-03-2009 07:11:42 2.2 C 84 % -0.22 C
Sensor: Nr:Datum:Temp:Feuchte:Taupunkt:
Aussen-T/F 2076 09-03-2009 07:23:42 2.1 C 79 % -1.15 C
2077 09-03-2009 07:35:41 2.1 C 75 % -1.86 C
2078 09-03-2009 07:47:42 2 C 71 % -2.69 C
2079 09-03-2009 07:59:41 2.1 C 70 % -2.79 C
2080 09-03-2009 08:11:41 2.2 C 69 % -2.88 C
2081 09-03-2009 08:23:41 2.6 C 66 % -3.1 C
2082 09-03-2009 08:35:42 2.5 C 68 % -2.79 C
2083 09-03-2009 08:47:41 3 C 66 % -2.72 C
2084 09-03-2009 08:59:41 3.4 C 65 % -2.54 C
2085 09-03-2009 09:11:41 3.5 C 65 % -2.44 C
2086 09-03-2009 09:23:40 3.3 C 66 % -2.43 C
2087 09-03-2009 09:35:41 3.7 C 66 % -2.05 C
2088 09-03-2009 09:47:40 4.2 C 62 % -2.42 C
2089 09-03-2009 09:59:40 4.5 C 61 % -2.35 C
2090 09-03-2009 10:11:41 4.7 C 62 % -1.94 C
2091 09-03-2009 10:23:40 5.1 C 58 % -2.47 C
2092 09-03-2009 10:35:40 5.3 C 58 % -2.28 C
2093 09-03-2009 10:47:39 5.6 C 57 % -2.23 C
2094 09-03-2009 10:59:40 5.6 C 56 % -2.47 C
2095 09-03-2009 11:11:40 6 C 54 % -2.59 C
2096 09-03-2009 11:23:40 5.8 C 55 % -2.53 C
2097 09-03-2009 11:35:39 6.4 C 53 % -2.47 C
2098 09-03-2009 11:47:40 6.1 C 52 % -3 C
2099 09-03-2009 11:59:39 6.5 C 53 % -2.37 C
2100 09-03-2009 12:11:39 7.2 C 50 % -2.51 C
Sensor: Nr:Datum:Temp:Feuchte:Taupunkt:
Aussen-T/F 2101 09-03-2009 12:23:39 7 C 46 % -3.81 C
2102 09-03-2009 12:35:38 7 C 47 % -3.52 C
2103 09-03-2009 12:47:39 7.2 C 47 % -3.34 C
2104 09-03-2009 12:59:39 7.7 C 43 % -4.07 C
2105 09-03-2009 13:11:39 7.7 C 43 % -4.07 C
2106 09-03-2009 13:23:38 7.4 C 43 % -4.34 C
2107 09-03-2009 13:35:39 7.5 C 44 % -3.94 C
2108 09-03-2009 13:47:38 7.7 C 40 % -5.02 C
2109 09-03-2009 13:59:38 8 C 39 % -5.09 C
2110 09-03-2009 14:11:38 7.7 C 40 % -5.02 C
2111 09-03-2009 14:23:38 8.2 C 40 % -4.57 C
2112 09-03-2009 14:35:38 8.4 C 41 % -4.07 C
2113 09-03-2009 14:47:37 8.3 C 41 % -4.16 C
2114 09-03-2009 14:59:38 7.2 C 47 % -3.34 C
2115 09-03-2009 15:11:38 6.3 C 54 % -2.31 C
2116 09-03-2009 15:23:37 6.9 C 54 % -1.75 C
2117 09-03-2009 15:35:37 8.1 C 46 % -2.8 C
2118 09-03-2009 15:47:38 8.7 C 42 % -3.48 C
2119 09-03-2009 15:59:37 8.6 C 41 % -3.89 C
2120 09-03-2009 16:11:37 9.5 C 39 % -3.74 C
2121 09-03-2009 16:23:37 8.7 C 41 % -3.8 C
2122 09-03-2009 16:35:36 8.7 C 43 % -3.16 C
2123 09-03-2009 16:47:37 8.8 C 43 % -3.07 C
2124 09-03-2009 16:59:36 9.1 C 38 % -4.45 C
2125 09-03-2009 17:11:36 8.3 C 40 % -4.48 C
Sensor: Nr:Datum:Temp:Feuchte:Taupunkt:
Aussen-T/F 2126 09-03-2009 17:23:36 8 C 42 % -4.11 C
2127 09-03-2009 17:35:37 7.9 C 44 % -3.58 C
2128 09-03-2009 17:47:36 7.5 C 46 % -3.35 C
2129 09-03-2009 17:59:36 7.4 C 46 % -3.44 C
2130 09-03-2009 18:11:36 7.4 C 47 % -3.16 C
2131 09-03-2009 18:23:36 7.3 C 47 % -3.25 C
2132 09-03-2009 18:35:36 7 C 50 % -2.69 C
2133 09-03-2009 18:47:35 6.7 C 54 % -1.94 C
2134 09-03-2009 18:59:35 6.4 C 56 % -1.72 C
2135 09-03-2009 19:11:35 6.4 C 55 % -1.97 C
2136 09-03-2009 19:23:35 6.2 C 52 % -2.91 C
2137 09-03-2009 19:35:35 6 C 53 % -2.84 C
2138 09-03-2009 19:47:34 5.8 C 56 % -2.28 C
2139 09-03-2009 19:59:35 5.8 C 57 % -2.04 C
2140 09-03-2009 20:11:35 5.8 C 59 % -1.58 C
2141 09-03-2009 20:23:35 5.5 C 61 % -1.41 C
2142 09-03-2009 20:35:34 5.2 C 63 % -1.25 C
2143 09-03-2009 20:47:35 4.9 C 66 % -0.91 C
2144 09-03-2009 20:59:34 4.8 C 68 % -0.59 C
2145 09-03-2009 21:11:34 4.6 C 69 % -0.58 C
2146 09-03-2009 21:23:34 4.4 C 71 % -0.39 C
2147 09-03-2009 21:35:34 4 C 75 % -0.02 C
2148 09-03-2009 21:48:35 3.8 C 78 % 0.33 C
2149 09-03-2009 22:00:35 3.8 C 78 % 0.33 C
2150 09-03-2009 22:12:35 4.1 C 76 % 0.26 C
Sensor: Nr:Datum:Temp:Feuchte:Taupunkt:
Aussen-T/F 2151 09-03-2009 22:24:35 3.7 C 77 % 0.05 C
2152 09-03-2009 22:36:35 4 C 72 % -0.58 C
2153 09-03-2009 22:48:35 3.9 C 73 % -0.49 C
2154 09-03-2009 23:00:35 3.7 C 74 % -0.49 C
2155 09-03-2009 23:12:35 3.5 C 75 % -0.5 C
2156 09-03-2009 23:24:35 3.3 C 77 % -0.34 C
2157 09-03-2009 23:36:35 3.2 C 78 % -0.26 C
2158 09-03-2009 23:48:35 3.4 C 79 % 0.11 C
2159 10-03-2009 00:00:35 3.4 C 79 % 0.11 C
2160 10-03-2009 00:12:35 3.3 C 79 % 0.02 C
2161 10-03-2009 00:24:35 3.4 C 80 % 0.29 C
2162 10-03-2009 00:36:35 3.7 C 79 % 0.4 C
2163 10-03-2009 00:48:35 3.9 C 77 % 0.25 C
2164 10-03-2009 01:00:35 4.1 C 75 % 0.08 C
2165 10-03-2009 01:12:35 4.2 C 74 % -0.01 C
2166 10-03-2009 01:24:36 4.3 C 72 % -0.29 C
2167 10-03-2009 01:36:36 4.3 C 72 % -0.29 C
2168 10-03-2009 01:48:36 4.4 C 71 % -0.39 C
2169 10-03-2009 02:00:36 4.5 C 70 % -0.48 C
2170 10-03-2009 02:12:36 4.4 C 71 % -0.39 C
2171 10-03-2009 02:24:36 4.6 C 69 % -0.58 C
2172 10-03-2009 02:36:36 4.7 C 67 % -0.89 C
2173 10-03-2009 02:48:36 4.7 C 66 % -1.1 C
2174 10-03-2009 03:00:36 4.7 C 66 % -1.1 C
2175 10-03-2009 03:12:36 4.5 C 67 % -1.08 C
Sensor: Nr:Datum:Temp:Feuchte:Taupunkt:
Aussen-T/F 2176 10-03-2009 03:24:36 4.5 C 67 % -1.08 C
2177 10-03-2009 03:36:36 4.5 C 67 % -1.08 C
2178 10-03-2009 03:48:36 4.5 C 68 % -0.88 C
2179 10-03-2009 04:00:36 4.6 C 67 % -0.99 C
2180 10-03-2009 04:12:36 4.5 C 67 % -1.08 C
2181 10-03-2009 04:24:36 4.6 C 67 % -0.99 C
2182 10-03-2009 04:36:36 4.5 C 67 % -1.08 C
2183 10-03-2009 04:48:36 4.4 C 68 % -0.98 C
2184 10-03-2009 05:00:36 4.4 C 67 % -1.18 C
2185 10-03-2009 05:12:37 4.4 C 68 % -0.98 C
2186 10-03-2009 05:24:37 4.4 C 68 % -0.98 C
2187 10-03-2009 05:36:37 4.3 C 69 % -0.87 C
2188 10-03-2009 05:48:37 4.3 C 70 % -0.68 C
2189 10-03-2009 06:00:37 4.3 C 71 % -0.48 C
2190 10-03-2009 06:12:37 4.1 C 72 % -0.48 C
2191 10-03-2009 06:24:37 4.2 C 72 % -0.39 C
2192 10-03-2009 06:36:37 4.2 C 72 % -0.39 C
2193 10-03-2009 06:48:37 4.3 C 72 % -0.29 C
2194 10-03-2009 07:00:35 4.3 C 71 % -0.48 C
2195 10-03-2009 07:12:35 4.3 C 71 % -0.48 C
2196 10-03-2009 07:24:34 4.2 C 72 % -0.39 C
2197 10-03-2009 07:36:35 4.2 C 72 % -0.39 C
2198 10-03-2009 07:48:34 4.3 C 73 % -0.1 C
2199 10-03-2009 08:00:34 4.5 C 72 % -0.1 C
2200 10-03-2009 08:12:34 4.7 C 71 % -0.1 C
Sensor: Nr:Datum:Temp:Feuchte:Taupunkt:
Aussen-T/F 2201 10-03-2009 08:24:35 4.8 C 71 % 0 C
2202 10-03-2009 08:36:34 4.9 C 70 % -0.1 C
2203 10-03-2009 08:48:34 5 C 69 % -0.2 C
2204 10-03-2009 09:00:33 5 C 69 % -0.2 C
2205 10-03-2009 09:12:33 5.2 C 69 % -0.01 C
2206 10-03-2009 09:24:34 5.2 C 68 % -0.21 C
2207 10-03-2009 09:36:34 5.3 C 67 % -0.32 C
2208 10-03-2009 09:48:33 5.3 C 67 % -0.32 C
2209 10-03-2009 10:00:34 5.4 C 66 % -0.43 C
2210 10-03-2009 10:12:34 5.5 C 66 % -0.33 C
2211 10-03-2009 10:24:33 5.6 C 66 % -0.24 C
2212 10-03-2009 10:36:33 5.7 C 65 % -0.35 C
2213 10-03-2009 10:48:33 5.9 C 65 % -0.16 C
2214 10-03-2009 11:00:33 6.1 C 63 % -0.4 C
2215 10-03-2009 11:12:33 6.3 C 62 % -0.43 C
2216 10-03-2009 11:24:32 6.4 C 62 % -0.34 C
2217 10-03-2009 11:36:33 6.3 C 63 % -0.21 C
2218 10-03-2009 11:48:32 6.3 C 63 % -0.21 C
2219 10-03-2009 12:00:32 6.4 C 63 % -0.12 C
2220 10-03-2009 12:12:32 6.5 C 62 % -0.24 C
2221 10-03-2009 12:24:32 6.6 C 61 % -0.37 C
2222 10-03-2009 12:36:32 6.5 C 61 % -0.46 C
2223 10-03-2009 12:48:32 6.5 C 61 % -0.46 C
2224 10-03-2009 13:00:31 6.6 C 61 % -0.37 C
2225 10-03-2009 13:12:31 6.7 C 61 % -0.28 C
Sensor: Nr:Datum:Temp:Feuchte:Taupunkt:
Aussen-T/F 2226 10-03-2009 13:24:32 6.8 C 61 % -0.18 C
2227 10-03-2009 13:36:31 6.8 C 61 % -0.18 C
2228 10-03-2009 13:48:31 7 C 60 % -0.22 C
2229 10-03-2009 14:00:31 7.1 C 59 % -0.36 C
2230 10-03-2009 14:12:31 7.1 C 58 % -0.59 C
2231 10-03-2009 14:24:31 7.1 C 59 % -0.36 C
2232 10-03-2009 14:36:31 6.9 C 61 % -0.09 C
2233 10-03-2009 14:48:31 6.8 C 62 % 0.04 C
2234 10-03-2009 15:00:31 6.8 C 61 % -0.18 C
2235 10-03-2009 15:12:31 6.8 C 61 % -0.18 C
2236 10-03-2009 15:24:30 6.6 C 61 % -0.37 C
2237 10-03-2009 15:36:30 6.4 C 62 % -0.34 C
2238 10-03-2009 15:48:30 6.4 C 61 % -0.56 C
2239 10-03-2009 16:00:30 6.4 C 58 % -1.25 C
2240 10-03-2009 16:12:30 6.4 C 60 % -0.78 C
2241 10-03-2009 16:24:29 5.9 C 62 % -0.81 C
2242 10-03-2009 16:36:30 5.7 C 66 % -0.14 C
2243 10-03-2009 16:48:30 5.4 C 68 % -0.02 C
2244 10-03-2009 17:00:29 5.6 C 69 % 0.37 C
2245 10-03-2009 17:12:29 5.6 C 68 % 0.17 C
2246 10-03-2009 17:24:30 5.8 C 68 % 0.36 C
2247 10-03-2009 17:36:29 5.7 C 69 % 0.47 C
2248 10-03-2009 17:48:29 5.7 C 69 % 0.47 C
2249 10-03-2009 18:00:28 5.8 C 70 % 0.76 C
2250 10-03-2009 18:12:28 5.7 C 71 % 0.86 C
Sensor: Nr:Datum:Temp:Feuchte:Taupunkt:
Aussen-T/F 2251 10-03-2009 18:24:29 5.8 C 71 % 0.96 C
2252 10-03-2009 18:36:29 5.8 C 71 % 0.96 C
2253 10-03-2009 18:48:28 5.9 C 72 % 1.25 C
2254 10-03-2009 19:00:29 6 C 71 % 1.15 C
2255 10-03-2009 19:12:29 6 C 72 % 1.35 C
2256 10-03-2009 19:24:28 6 C 73 % 1.54 C
2257 10-03-2009 19:36:28 6 C 74 % 1.73 C
2258 10-03-2009 19:48:28 5.8 C 80 % 2.62 C
2259 10-03-2009 20:00:28 5.8 C 82 % 2.97 C
2260 10-03-2009 20:12:28 5.8 C 83 % 3.14 C
2261 10-03-2009 20:24:27 5.9 C 83 % 3.24 C
2262 10-03-2009 20:36:27 6.5 C 79 % 3.13 C
2263 10-03-2009 20:48:27 6.9 C 73 % 2.4 C
2264 10-03-2009 21:00:27 7.2 C 68 % 1.7 C
2265 10-03-2009 21:12:27 7.3 C 66 % 1.38 C
2266 10-03-2009 21:24:27 7.3 C 66 % 1.38 C
2267 10-03-2009 21:36:27 6.8 C 72 % 2.12 C
2268 10-03-2009 21:49:28 6.2 C 74 % 1.92 C
2269 10-03-2009 22:01:28 5.7 C 75 % 1.62 C
2270 10-03-2009 22:13:28 5.6 C 75 % 1.53 C
2271 10-03-2009 22:25:28 5.4 C 77 % 1.7 C
2272 10-03-2009 22:37:28 5.3 C 77 % 1.6 C
2273 10-03-2009 22:49:28 5.2 C 80 % 2.04 C
2274 10-03-2009 23:01:28 5.1 C 80 % 1.94 C
2275 10-03-2009 23:13:28 5.1 C 80 % 1.94 C
Sensor: Nr:Datum:Temp:Feuchte:Taupunkt:
Aussen-T/F 2276 10-03-2009 23:25:28 5.2 C 78 % 1.69 C
2277 10-03-2009 23:37:28 5.4 C 72 % 0.77 C
2278 10-03-2009 23:49:28 5.4 C 69 % 0.18 C
2279 11-03-2009 00:01:28 5.5 C 66 % -0.33 C
2280 11-03-2009 00:13:28 5.5 C 68 % 0.08 C
2281 11-03-2009 00:25:28 5.3 C 69 % 0.09 C
2282 11-03-2009 00:37:28 5.1 C 69 % -0.11 C
2283 11-03-2009 00:49:28 5 C 69 % -0.2 C
2284 11-03-2009 01:01:28 4.8 C 70 % -0.2 C
2285 11-03-2009 01:13:29 4.8 C 70 % -0.2 C
2286 11-03-2009 01:25:29 4.9 C 69 % -0.3 C
2287 11-03-2009 01:37:29 4.9 C 69 % -0.3 C
2288 11-03-2009 01:49:29 4.8 C 69 % -0.39 C
2289 11-03-2009 02:01:29 4.9 C 68 % -0.5 C
2290 11-03-2009 02:13:29 5 C 66 % -0.81 C
2291 11-03-2009 02:25:29 4.9 C 67 % -0.7 C
2292 11-03-2009 02:37:29 4.9 C 68 % -0.5 C
2293 11-03-2009 02:49:29 4.8 C 68 % -0.59 C
2294 11-03-2009 03:01:29 4.6 C 68 % -0.78 C
2295 11-03-2009 03:13:29 4.5 C 69 % -0.68 C
2296 11-03-2009 03:25:29 4.5 C 69 % -0.68 C
2297 11-03-2009 03:37:29 4.6 C 69 % -0.58 C
2298 11-03-2009 03:49:29 4.7 C 67 % -0.89 C
2299 11-03-2009 04:01:29 4.7 C 67 % -0.89 C
2300 11-03-2009 04:13:29 4.7 C 66 % -1.1 C
Sensor: Nr:Datum:Temp:Feuchte:Taupunkt:
Aussen-T/F 2301 11-03-2009 04:25:29 4.7 C 65 % -1.3 C
2302 11-03-2009 04:37:29 4.7 C 65 % -1.3 C
2303 11-03-2009 04:49:29 4.7 C 65 % -1.3 C
2304 11-03-2009 05:01:30 4.7 C 64 % -1.51 C
2305 11-03-2009 05:13:30 4.6 C 64 % -1.61 C
2306 11-03-2009 05:25:30 4.6 C 64 % -1.61 C
2307 11-03-2009 05:37:30 4.6 C 63 % -1.82 C
2308 11-03-2009 05:49:30 4.6 C 63 % -1.82 C
2309 11-03-2009 06:01:30 4.6 C 62 % -2.04 C
2310 11-03-2009 06:13:30 4.1 C 66 % -1.67 C
2311 11-03-2009 06:25:30 3.9 C 72 % -0.68 C
2312 11-03-2009 06:37:30 3.6 C 76 % -0.22 C
2313 11-03-2009 06:49:30 3.6 C 78 % 0.13 C
2314 11-03-2009 07:01:27 3.7 C 78 % 0.23 C
2315 11-03-2009 07:13:28 3.9 C 77 % 0.25 C
2316 11-03-2009 07:25:28 3.9 C 77 % 0.25 C
2317 11-03-2009 07:37:27 3.8 C 78 % 0.33 C
2318 11-03-2009 07:49:27 4 C 76 % 0.16 C
2319 11-03-2009 08:01:27 4.3 C 73 % -0.1 C
2320 11-03-2009 08:13:27 4.5 C 70 % -0.48 C
2321 11-03-2009 08:25:27 4.5 C 70 % -0.48 C
2322 11-03-2009 08:37:26 4.7 C 69 % -0.49 C
2323 11-03-2009 08:49:27 4.9 C 68 % -0.5 C
2324 11-03-2009 09:01:26 4.8 C 70 % -0.2 C
2325 11-03-2009 09:13:26 4.6 C 73 % 0.19 C
Sensor: Nr:Datum:Temp:Feuchte:Taupunkt:
Aussen-T/F 2326 11-03-2009 09:25:26 4.6 C 73 % 0.19 C
2327 11-03-2009 09:37:26 4.8 C 73 % 0.38 C
2328 11-03-2009 09:49:26 4.9 C 73 % 0.48 C
2329 11-03-2009 10:01:25 4.9 C 71 % 0.09 C
2330 11-03-2009 10:13:26 5 C 69 % -0.2 C
2331 11-03-2009 10:25:26 4.8 C 70 % -0.2 C
2332 11-03-2009 10:37:25 4.8 C 70 % -0.2 C
2333 11-03-2009 10:49:25 4.8 C 69 % -0.39 C
2334 11-03-2009 11:01:26 5.2 C 66 % -0.62 C
2335 11-03-2009 11:13:25 5.2 C 66 % -0.62 C
2336 11-03-2009 11:25:25 5.2 C 65 % -0.83 C
2337 11-03-2009 11:37:25 5.4 C 64 % -0.85 C
2338 11-03-2009 11:49:25 5.9 C 63 % -0.59 C
2339 11-03-2009 12:01:25 6.7 C 57 % -1.2 C
2340 11-03-2009 12:13:24 7.1 C 54 % -1.56 C
2341 11-03-2009 12:25:24 7.4 C 54 % -1.28 C
2342 11-03-2009 12:37:24 7.3 C 50 % -2.42 C
2343 11-03-2009 12:49:24 7.4 C 51 % -2.06 C
2344 11-03-2009 13:01:24 7.1 C 52 % -2.07 C
2345 11-03-2009 13:13:24 6.2 C 63 % -0.31 C
2346 11-03-2009 13:25:24 6.5 C 65 % 0.41 C
2347 11-03-2009 13:37:24 7.3 C 61 % 0.29 C
2348 11-03-2009 13:49:24 7.9 C 51 % -1.6 C
2349 11-03-2009 14:01:23 8 C 45 % -3.19 C
2350 11-03-2009 14:13:24 8.1 C 47 % -2.52 C
Sensor: Nr:Datum:Temp:Feuchte:Taupunkt:
Aussen-T/F 2351 11-03-2009 14:25:24 7.6 C 47 % -2.97 C
2352 11-03-2009 14:37:23 8.5 C 41 % -3.98 C
2353 11-03-2009 14:49:23 8.5 C 40 % -4.31 C
2354 11-03-2009 15:01:23 8.6 C 41 % -3.89 C
2355 11-03-2009 15:13:23 9.3 C 39 % -3.92 C
2356 11-03-2009 15:25:23 9.4 C 40 % -3.5 C
2357 11-03-2009 15:37:23 9.7 C 40 % -3.23 C
2358 11-03-2009 15:49:22 9.1 C 41 % -3.44 C
2359 11-03-2009 16:01:23 8.5 C 42 % -3.66 C
2360 11-03-2009 16:13:22 8.4 C 44 % -3.13 C
2361 11-03-2009 16:25:22 8.5 C 45 % -2.73 C
2362 11-03-2009 16:37:22 8.6 C 46 % -2.35 C
2363 11-03-2009 16:49:22 8.3 C 46 % -2.62 C
2364 11-03-2009 17:01:22 9.1 C 46 % -1.89 C
2365 11-03-2009 17:13:21 8.5 C 43 % -3.34 C
2366 11-03-2009 17:25:21 8.4 C 45 % -2.83 C
2367 11-03-2009 17:37:22 8.3 C 44 % -3.22 C
2368 11-03-2009 17:49:21 8.3 C 44 % -3.22 C
2369 11-03-2009 18:01:21 8.1 C 44 % -3.4 C
2370 11-03-2009 18:13:22 7.6 C 47 % -2.97 C
2371 11-03-2009 18:25:22 7.1 C 50 % -2.6 C
2372 11-03-2009 18:37:21 6.8 C 54 % -1.84 C
2373 11-03-2009 18:49:21 6.5 C 55 % -1.87 C
2374 11-03-2009 19:01:20 6.4 C 56 % -1.72 C
2375 11-03-2009 19:13:21 6.3 C 57 % -1.58 C
Sensor: Nr:Datum:Temp:Feuchte:Taupunkt:
Aussen-T/F 2376 11-03-2009 19:25:21 6.1 C 55 % -2.25 C
2377 11-03-2009 19:37:20 5.8 C 56 % -2.28 C
2378 11-03-2009 19:49:20 5.6 C 57 % -2.23 C
2379 11-03-2009 20:01:20 5.7 C 57 % -2.14 C
2380 11-03-2009 20:13:20 5.8 C 56 % -2.28 C
2381 11-03-2009 20:25:20 5.5 C 57 % -2.33 C
2382 11-03-2009 20:37:20 5.3 C 58 % -2.28 C
2383 11-03-2009 20:49:20 5.1 C 59 % -2.24 C
2384 11-03-2009 21:01:20 4.8 C 61 % -2.07 C
2385 11-03-2009 21:13:20 4.6 C 62 % -2.04 C
2386 11-03-2009 21:25:20 4.3 C 64 % -1.89 C
2387 11-03-2009 21:37:19 4.2 C 65 % -1.78 C
2388 11-03-2009 21:49:20 4 C 65 % -1.97 C
2389 11-03-2009 22:02:20 4.1 C 65 % -1.87 C
2390 11-03-2009 22:14:20 3.7 C 67 % -1.85 C
2391 11-03-2009 22:26:20 3.5 C 68 % -1.84 C
2392 11-03-2009 22:38:20 3.4 C 68 % -1.93 C
2393 11-03-2009 22:50:21 3.1 C 69 % -2.02 C
2394 11-03-2009 23:02:21 3.3 C 69 % -1.83 C
2395 11-03-2009 23:14:21 3 C 70 % -1.92 C
2396 11-03-2009 23:26:21 2.8 C 72 % -1.73 C
2397 11-03-2009 23:38:21 2.8 C 73 % -1.55 C
2398 11-03-2009 23:50:21 3.1 C 71 % -1.63 C
2399 12-03-2009 00:02:21 3.4 C 70 % -1.54 C
2400 12-03-2009 00:14:21 3.5 C 69 % -1.64 C
Sensor: Nr:Datum:Temp:Feuchte:Taupunkt:
Aussen-T/F 2401 12-03-2009 00:26:21 3.5 C 68 % -1.84 C
2402 12-03-2009 00:38:21 3.5 C 68 % -1.84 C
2403 12-03-2009 00:50:21 3.5 C 68 % -1.84 C
2404 12-03-2009 01:02:21 3.5 C 68 % -1.84 C
2405 12-03-2009 01:14:21 3.4 C 68 % -1.93 C
2406 12-03-2009 01:26:21 3.4 C 68 % -1.93 C
2407 12-03-2009 01:38:21 3.4 C 69 % -1.73 C
2408 12-03-2009 01:50:21 3.4 C 68 % -1.93 C
2409 12-03-2009 02:02:21 3.5 C 68 % -1.84 C
2410 12-03-2009 02:14:21 3.4 C 68 % -1.93 C
2411 12-03-2009 02:26:21 3.5 C 68 % -1.84 C
2412 12-03-2009 02:38:22 3.6 C 67 % -1.94 C
2413 12-03-2009 02:50:22 3.6 C 67 % -1.94 C
2414 12-03-2009 03:02:22 3.8 C 65 % -2.16 C
2415 12-03-2009 03:14:22 3.8 C 64 % -2.37 C
2416 12-03-2009 03:26:22 3.8 C 64 % -2.37 C
2417 12-03-2009 03:38:22 3.9 C 64 % -2.27 C
2418 12-03-2009 03:50:22 4.1 C 61 % -2.73 C
2419 12-03-2009 04:02:22 4 C 62 % -2.61 C
2420 12-03-2009 04:14:22 4 C 62 % -2.61 C
2421 12-03-2009 04:26:22 4.1 C 62 % -2.51 C
2422 12-03-2009 04:38:22 4.2 C 61 % -2.64 C
2423 12-03-2009 04:50:22 4.2 C 61 % -2.64 C
2424 12-03-2009 05:02:22 4.4 C 60 % -2.67 C
2425 12-03-2009 05:14:22 4.3 C 60 % -2.76 C
Sensor: Nr:Datum:Temp:Feuchte:Taupunkt:
Aussen-T/F 2426 12-03-2009 05:26:22 4.5 C 58 % -3.03 C
2427 12-03-2009 05:38:22 4.6 C 59 % -2.71 C
2428 12-03-2009 05:50:22 4.4 C 60 % -2.67 C
2429 12-03-2009 06:02:22 4.4 C 61 % -2.45 C
2430 12-03-2009 06:14:22 4.5 C 61 % -2.35 C
2431 12-03-2009 06:26:23 4.7 C 60 % -2.39 C
2432 12-03-2009 06:38:23 4.8 C 59 % -2.52 C
2433 12-03-2009 06:50:23 4.8 C 59 % -2.52 C
2434 12-03-2009 07:02:20 4.7 C 59 % -2.61 C
2435 12-03-2009 07:14:20 4.7 C 60 % -2.39 C
2436 12-03-2009 07:26:20 4.7 C 60 % -2.39 C
2437 12-03-2009 07:38:20 4.8 C 60 % -2.29 C
2438 12-03-2009 07:50:19 4.9 C 59 % -2.42 C
2439 12-03-2009 08:02:19 5 C 59 % -2.33 C
2440 12-03-2009 08:14:20 5.1 C 58 % -2.47 C
2441 12-03-2009 08:26:20 5.1 C 58 % -2.47 C
2442 12-03-2009 08:38:19 5.2 C 58 % -2.37 C
2443 12-03-2009 08:50:19 5.1 C 62 % -1.57 C
2444 12-03-2009 09:02:19 5 C 65 % -1.02 C
2445 12-03-2009 09:14:19 4.9 C 69 % -0.3 C
2446 12-03-2009 09:26:19 4.8 C 71 % 0 C
2447 12-03-2009 09:38:18 4.7 C 73 % 0.28 C
2448 12-03-2009 09:50:19 4.8 C 72 % 0.19 C
2449 12-03-2009 10:02:18 4.6 C 73 % 0.19 C
2450 12-03-2009 10:14:18 4.6 C 74 % 0.38 C
Sensor: Nr:Datum:Temp:Feuchte:Taupunkt:
Aussen-T/F 2451 12-03-2009 10:26:18 4.5 C 75 % 0.46 C
2452 12-03-2009 10:38:18 4.7 C 74 % 0.47 C
2453 12-03-2009 10:50:18 5.1 C 70 % 0.09 C
2454 12-03-2009 11:02:18 5.4 C 68 % -0.02 C
2455 12-03-2009 11:14:17 5.5 C 66 % -0.33 C
2456 12-03-2009 11:26:17 5.5 C 66 % -0.33 C
2457 12-03-2009 11:38:18 5.5 C 68 % 0.08 C
2458 12-03-2009 11:50:17 5.7 C 66 % -0.14 C
2459 12-03-2009 12:02:17 6.1 C 64 % -0.19 C
2460 12-03-2009 12:14:18 6.5 C 63 % -0.02 C
2461 12-03-2009 12:26:18 6.5 C 63 % -0.02 C
2462 12-03-2009 12:38:17 6.5 C 64 % 0.19 C
2463 12-03-2009 12:50:17 6.6 C 64 % 0.29 C
2464 12-03-2009 13:02:16 6.7 C 64 % 0.38 C
2465 12-03-2009 13:14:17 6.8 C 64 % 0.48 C
2466 12-03-2009 13:26:17 6.8 C 64 % 0.48 C
2467 12-03-2009 13:38:16 6.8 C 64 % 0.48 C
2468 12-03-2009 13:50:17 6.9 C 64 % 0.57 C
2469 12-03-2009 14:02:16 6.9 C 65 % 0.79 C
2470 12-03-2009 14:14:16 6.8 C 66 % 0.9 C
2471 12-03-2009 14:26:16 6.9 C 67 % 1.21 C
2472 12-03-2009 14:38:16 6.9 C 67 % 1.21 C
2473 12-03-2009 14:50:16 7 C 69 % 1.71 C
2474 12-03-2009 15:02:16 6.8 C 72 % 2.12 C
2475 12-03-2009 15:14:15 6.5 C 74 % 2.21 C
Sensor: Nr:Datum:Temp:Feuchte:Taupunkt:
Aussen-T/F 2476 12-03-2009 15:26:15 6.4 C 77 % 2.67 C
2477 12-03-2009 15:38:16 6.8 C 79 % 3.42 C
2478 12-03-2009 15:50:15 6.9 C 78 % 3.34 C
2479 12-03-2009 16:02:15 7 C 75 % 2.88 C
2480 12-03-2009 16:14:14 7.1 C 75 % 2.98 C
2481 12-03-2009 16:26:14 7.1 C 75 % 2.98 C
2482 12-03-2009 16:38:15 7.2 C 75 % 3.07 C
2483 12-03-2009 16:50:14 7.1 C 75 % 2.98 C
2484 12-03-2009 17:02:14 7.1 C 75 % 2.98 C
2485 12-03-2009 17:14:15 6.9 C 78 % 3.34 C
2486 12-03-2009 17:26:15 6.9 C 80 % 3.7 C
2487 12-03-2009 17:38:14 6.9 C 80 % 3.7 C
2488 12-03-2009 17:50:14 6.9 C 80 % 3.7 C
2489 12-03-2009 18:02:14 6.8 C 81 % 3.77 C
2490 12-03-2009 18:14:14 6.7 C 83 % 4.02 C
2491 12-03-2009 18:26:14 6.7 C 84 % 4.19 C
2492 12-03-2009 18:38:14 6.7 C 86 % 4.53 C
2493 12-03-2009 18:50:13 6.7 C 87 % 4.69 C
2494 12-03-2009 19:02:13 6.7 C 88 % 4.86 C
2495 12-03-2009 19:14:13 6.7 C 89 % 5.02 C
2496 12-03-2009 19:26:13 6.9 C 90 % 5.38 C
2497 12-03-2009 19:38:13 6.9 C 91 % 5.54 C
2498 12-03-2009 19:50:13 7.1 C 90 % 5.57 C
2499 12-03-2009 20:02:13 7.2 C 91 % 5.83 C
2500 12-03-2009 20:14:13 7.1 C 91 % 5.73 C
Sensor: Nr:Datum:Temp:Feuchte:Taupunkt:
Aussen-T/F 2501 12-03-2009 20:26:13 7.2 C 91 % 5.83 C
2502 12-03-2009 20:38:12 7.1 C 91 % 5.73 C
2503 12-03-2009 20:50:13 7.2 C 91 % 5.83 C
2504 12-03-2009 21:02:13 7.1 C 91 % 5.73 C
2505 12-03-2009 21:14:12 7.1 C 91 % 5.73 C
2506 12-03-2009 21:26:12 7.1 C 91 % 5.73 C
2507 12-03-2009 21:38:12 7.2 C 91 % 5.83 C
2508 12-03-2009 21:50:12 7.2 C 91 % 5.83 C
2509 12-03-2009 22:03:12 7.2 C 90 % 5.67 C
2510 12-03-2009 22:15:12 7.2 C 90 % 5.67 C
2511 12-03-2009 22:27:12 7.3 C 90 % 5.77 C
2512 12-03-2009 22:39:12 7.4 C 89 % 5.71 C
2513 12-03-2009 22:51:12 7.4 C 88 % 5.55 C
2514 12-03-2009 23:03:12 7.5 C 88 % 5.64 C
2515 12-03-2009 23:15:12 7.6 C 87 % 5.58 C
2516 12-03-2009 23:27:12 7.7 C 86 % 5.51 C
2517 12-03-2009 23:39:12 7.7 C 86 % 5.51 C
2518 12-03-2009 23:51:12 7.8 C 86 % 5.61 C
2519 13-03-2009 00:03:12 7.8 C 85 % 5.44 C
2520 13-03-2009 00:15:12 7.8 C 86 % 5.61 C
2521 13-03-2009 00:27:12 7.8 C 86 % 5.61 C
2522 13-03-2009 00:39:12 7.8 C 86 % 5.61 C
2523 13-03-2009 00:51:12 7.7 C 87 % 5.68 C
2524 13-03-2009 01:03:12 7.7 C 87 % 5.68 C
2525 13-03-2009 01:15:12 7.7 C 88 % 5.84 C
Sensor: Nr:Datum:Temp:Feuchte:Taupunkt:
Aussen-T/F 2526 13-03-2009 01:27:12 7.6 C 88 % 5.74 C
2527 13-03-2009 01:39:12 7.6 C 88 % 5.74 C
2528 13-03-2009 01:51:12 7.5 C 89 % 5.81 C
2529 13-03-2009 02:03:13 7.5 C 89 % 5.81 C
2530 13-03-2009 02:15:13 7.5 C 90 % 5.97 C
2531 13-03-2009 02:27:13 7.5 C 90 % 5.97 C
2532 13-03-2009 02:39:13 7.4 C 90 % 5.87 C
2533 13-03-2009 02:51:13 7.4 C 91 % 6.03 C
2534 13-03-2009 03:03:13 7.3 C 91 % 5.93 C
2535 13-03-2009 03:15:13 7.5 C 91 % 6.13 C
2536 13-03-2009 03:27:13 7.5 C 89 % 5.81 C
2537 13-03-2009 03:39:13 7.4 C 88 % 5.55 C
2538 13-03-2009 03:51:13 7.3 C 87 % 5.28 C
2539 13-03-2009 04:03:13 7.3 C 86 % 5.12 C
2540 13-03-2009 04:15:13 7.3 C 87 % 5.28 C
2541 13-03-2009 04:27:13 7.3 C 87 % 5.28 C
2542 13-03-2009 04:39:13 7.1 C 87 % 5.09 C
2543 13-03-2009 04:51:13 7.2 C 86 % 5.02 C
2544 13-03-2009 05:03:13 7.3 C 85 % 4.95 C
2545 13-03-2009 05:15:13 6.9 C 84 % 4.39 C
2546 13-03-2009 05:27:13 6.6 C 85 % 4.26 C
2547 13-03-2009 05:39:13 6.3 C 85 % 3.97 C
2548 13-03-2009 05:51:14 6.1 C 86 % 3.94 C
2549 13-03-2009 06:03:14 5.9 C 87 % 3.91 C
2550 13-03-2009 06:15:14 5.7 C 87 % 3.71 C
Sensor: Nr:Datum:Temp:Feuchte:Taupunkt:
Aussen-T/F 2551 13-03-2009 06:27:14 5.6 C 88 % 3.77 C
2552 13-03-2009 06:39:14 5.5 C 88 % 3.67 C
2553 13-03-2009 06:51:14 5.4 C 88 % 3.58 C
2554 13-03-2009 07:03:12 5.4 C 88 % 3.58 C
2555 13-03-2009 07:15:12 5.4 C 89 % 3.74 C
2556 13-03-2009 07:27:12 5.4 C 89 % 3.74 C
2557 13-03-2009 07:39:12 5.4 C 89 % 3.74 C
2558 13-03-2009 07:51:12 5.5 C 89 % 3.84 C
2559 13-03-2009 08:03:11 5.7 C 89 % 4.03 C
2560 13-03-2009 08:15:12 5.9 C 90 % 4.39 C
2561 13-03-2009 08:27:12 5.9 C 90 % 4.39 C
2562 13-03-2009 08:39:11 5.9 C 90 % 4.39 C
2563 13-03-2009 08:51:11 5.9 C 89 % 4.23 C
2564 13-03-2009 09:03:11 5.9 C 89 % 4.23 C
2565 13-03-2009 09:15:11 6.4 C 89 % 4.72 C
2566 13-03-2009 09:27:11 7.3 C 90 % 5.77 C
2567 13-03-2009 09:39:11 7.4 C 86 % 5.22 C
2568 13-03-2009 09:51:10 8 C 82 % 5.12 C
2569 13-03-2009 10:03:11 8.6 C 78 % 4.99 C
2570 13-03-2009 10:15:10 8.8 C 73 % 4.24 C
2571 13-03-2009 10:27:10 9.3 C 65 % 3.07 C
2572 13-03-2009 10:39:10 9.5 C 63 % 2.82 C
2573 13-03-2009 10:51:10 9.7 C 60 % 2.32 C
2574 13-03-2009 11:03:10 10 C 59 % 2.37 C
2575 13-03-2009 11:15:10 10.3 C 56 % 1.92 C
Sensor: Nr:Datum:Temp:Feuchte:Taupunkt:
Aussen-T/F 2576 13-03-2009 11:27:10 10.2 C 55 % 1.58 C
2577 13-03-2009 11:39:09 10.7 C 56 % 2.29 C
2578 13-03-2009 11:51:10 11.7 C 49 % 1.36 C
2579 13-03-2009 12:03:09 11.6 C 47 % 0.69 C
2580 13-03-2009 12:15:09 11.9 C 45 % 0.36 C
2581 13-03-2009 12:27:10 11.3 C 44 % -0.49 C
2582 13-03-2009 12:39:09 10.9 C 43 % -1.17 C
2583 13-03-2009 12:51:09 11.7 C 46 % 0.48 C
2584 13-03-2009 13:03:08 11.9 C 40 % -1.25 C
2585 13-03-2009 13:15:09 11.8 C 41 % -1.01 C
2586 13-03-2009 13:27:09 12.1 C 35 % -2.88 C
2587 13-03-2009 13:39:09 12.5 C 35 % -2.52 C
2588 13-03-2009 13:51:08 14.1 C 32 % -2.32 C
2589 13-03-2009 14:03:09 13.9 C 31 % -2.93 C
2590 13-03-2009 14:15:08 13.1 C 32 % -3.2 C
2591 13-03-2009 14:27:08 13.2 C 30 % -3.97 C
2592 13-03-2009 14:39:08 13.4 C 30 % -3.8 C
2593 13-03-2009 14:51:07 13.6 C 31 % -3.19 C
2594 13-03-2009 15:03:08 14 C 29 % -3.73 C
2595 13-03-2009 15:15:08 13.7 C 28 % -4.45 C
2596 13-03-2009 15:27:08 13.9 C 29 % -3.82 C
2597 13-03-2009 15:39:07 14.1 C 29 % -3.64 C
2598 13-03-2009 15:51:08 13.6 C 28 % -4.54 C
2599 13-03-2009 16:03:07 13.8 C 29 % -3.9 C
2600 13-03-2009 16:15:07 13.5 C 28 % -4.63 C
Sensor: Nr:Datum:Temp:Feuchte:Taupunkt:
Aussen-T/F 2601 13-03-2009 16:27:07 13.3 C 29 % -4.33 C
2602 13-03-2009 16:39:07 13.1 C 30 % -4.06 C
2603 13-03-2009 16:51:07 13.2 C 31 % -3.54 C
2604 13-03-2009 17:03:06 13 C 30 % -4.15 C
2605 13-03-2009 17:15:07 12.9 C 30 % -4.23 C
2606 13-03-2009 17:27:07 12.8 C 34 % -2.65 C
2607 13-03-2009 17:39:06 12.6 C 36 % -2.06 C
2608 13-03-2009 17:51:06 12.4 C 41 % -0.47 C
2609 13-03-2009 18:03:06 11.7 C 42 % -0.77 C
2610 13-03-2009 18:15:06 11.1 C 43 % -0.99 C
2611 13-03-2009 18:27:06 10.4 C 44 % -1.31 C
2612 13-03-2009 18:39:05 9.8 C 46 % -1.25 C
2613 13-03-2009 18:51:06 9.2 C 48 % -1.22 C
2614 13-03-2009 19:03:06 9 C 48 % -1.41 C
2615 13-03-2009 19:15:05 8.6 C 52 % -0.68 C
2616 13-03-2009 19:27:05 8.3 C 54 % -0.45 C
2617 13-03-2009 19:39:05 8.1 C 54 % -0.63 C
2618 13-03-2009 19:51:05 8 C 54 % -0.73 C
2619 13-03-2009 20:03:05 7.8 C 57 % -0.17 C
2620 13-03-2009 20:15:04 7.6 C 59 % 0.11 C
2621 13-03-2009 20:27:04 7.4 C 60 % 0.16 C
2622 13-03-2009 20:39:05 7.2 C 61 % 0.2 C
2623 13-03-2009 20:51:04 6.9 C 63 % 0.36 C
2624 13-03-2009 21:03:04 6.6 C 64 % 0.29 C
2625 13-03-2009 21:15:04 6.5 C 64 % 0.19 C
Sensor: Nr:Datum:Temp:Feuchte:Taupunkt:
Aussen-T/F 2626 13-03-2009 21:27:04 6.3 C 64 % 0 C
2627 13-03-2009 21:39:04 6.1 C 65 % 0.03 C
2628 13-03-2009 21:51:04 5.9 C 67 % 0.25 C
2629 13-03-2009 22:03:04 5.8 C 67 % 0.16 C
2630 13-03-2009 22:15:03 5.8 C 67 % 0.16 C
2631 13-03-2009 22:27:03 5.6 C 67 % -0.03 C
2632 13-03-2009 22:39:04 5.6 C 68 % 0.17 C
2633 13-03-2009 22:52:05 5.4 C 69 % 0.18 C
2634 13-03-2009 23:04:05 5.3 C 70 % 0.28 C
2635 13-03-2009 23:16:05 5.2 C 70 % 0.19 C
2636 13-03-2009 23:28:05 5 C 70 % 0 C
2637 13-03-2009 23:40:05 4.9 C 72 % 0.29 C
2638 13-03-2009 23:52:05 4.8 C 72 % 0.19 C
2639 14-03-2009 00:04:05 4.6 C 73 % 0.19 C
2640 14-03-2009 00:16:05 4.5 C 73 % 0.09 C
2641 14-03-2009 00:28:05 4.5 C 74 % 0.28 C
2642 14-03-2009 00:40:06 4.4 C 74 % 0.18 C
2643 14-03-2009 00:52:06 4.2 C 76 % 0.36 C
2644 14-03-2009 01:04:06 4.1 C 76 % 0.26 C
2645 14-03-2009 01:16:06 4 C 76 % 0.16 C
2646 14-03-2009 01:28:06 4 C 76 % 0.16 C
2647 14-03-2009 01:40:06 3.7 C 78 % 0.23 C
2648 14-03-2009 01:52:06 3.9 C 78 % 0.42 C
2649 14-03-2009 02:04:06 3.8 C 78 % 0.33 C
2650 14-03-2009 02:16:06 3.7 C 78 % 0.23 C
Sensor: Nr:Datum:Temp:Feuchte:Taupunkt:
Aussen-T/F 2651 14-03-2009 02:28:06 3.5 C 79 % 0.21 C
2652 14-03-2009 02:40:06 3.4 C 79 % 0.11 C
2653 14-03-2009 02:52:06 3.6 C 80 % 0.48 C
2654 14-03-2009 03:04:06 3.6 C 80 % 0.48 C
2655 14-03-2009 03:16:06 3.2 C 80 % 0.09 C
2656 14-03-2009 03:28:06 3.3 C 80 % 0.19 C
2657 14-03-2009 03:40:06 3.4 C 81 % 0.46 C
2658 14-03-2009 03:52:06 3.4 C 81 % 0.46 C
2659 14-03-2009 04:04:06 3.4 C 81 % 0.46 C
2660 14-03-2009 04:16:06 3.3 C 81 % 0.36 C
2661 14-03-2009 04:28:06 3 C 80 % -0.1 C
2662 14-03-2009 04:40:07 3 C 81 % 0.07 C
2663 14-03-2009 04:52:07 2.7 C 82 % -0.06 C
2664 14-03-2009 05:04:07 2.6 C 82 % -0.16 C
2665 14-03-2009 05:16:07 2.6 C 83 % 0.01 C
2666 14-03-2009 05:28:07 2.6 C 83 % 0.01 C
2667 14-03-2009 05:40:07 2.8 C 84 % 0.37 C
2668 14-03-2009 05:52:07 3 C 84 % 0.57 C
2669 14-03-2009 06:04:07 3.2 C 84 % 0.76 C
2670 14-03-2009 06:16:07 3.3 C 84 % 0.86 C
2671 14-03-2009 06:28:07 3.3 C 84 % 0.86 C
2672 14-03-2009 06:40:07 3.5 C 84 % 1.06 C
2673 14-03-2009 06:52:07 3.7 C 84 % 1.25 C
2674 14-03-2009 07:04:07 3.8 C 83 % 1.19 C
2675 14-03-2009 07:16:07 3.8 C 82 % 1.02 C
Sensor: Nr:Datum:Temp:Feuchte:Taupunkt:
Aussen-T/F 2676 14-03-2009 07:28:07 3.8 C 82 % 1.02 C
2677 14-03-2009 07:40:07 4.1 C 81 % 1.14 C
2678 14-03-2009 07:52:07 4.2 C 80 % 1.07 C
2679 14-03-2009 08:04:07 4.4 C 79 % 1.09 C
2680 14-03-2009 08:16:04 4.6 C 79 % 1.28 C
2681 14-03-2009 08:28:04 4.8 C 79 % 1.47 C
2682 14-03-2009 08:40:05 5.4 C 77 % 1.7 C
2683 14-03-2009 08:52:05 5.6 C 75 % 1.53 C
2684 14-03-2009 09:04:04 5.9 C 74 % 1.63 C
2685 14-03-2009 09:16:04 6.2 C 72 % 1.54 C
2686 14-03-2009 09:28:04 6.3 C 70 % 1.24 C
2687 14-03-2009 09:40:04 6.8 C 70 % 1.72 C
2688 14-03-2009 09:52:04 7.1 C 66 % 1.19 C
2689 14-03-2009 10:04:04 7.4 C 65 % 1.26 C
2690 14-03-2009 10:16:03 7.9 C 64 % 1.52 C
2691 14-03-2009 10:28:03 8.5 C 61 % 1.42 C
2692 14-03-2009 10:40:04 9.4 C 58 % 1.57 C
2693 14-03-2009 10:52:03 9.8 C 57 % 1.7 C
2694 14-03-2009 11:04:03 10.4 C 55 % 1.76 C
2695 14-03-2009 11:16:03 10.9 C 53 % 1.71 C
2696 14-03-2009 11:28:03 11.3 C 52 % 1.81 C
2697 14-03-2009 11:40:03 11.6 C 50 % 1.54 C
2698 14-03-2009 11:52:02 12.1 C 48 % 1.44 C
2699 14-03-2009 12:04:03 12.5 C 45 % 0.91 C
2700 14-03-2009 12:16:03 12.4 C 43 % 0.19 C
Sensor: Nr:Datum:Temp:Feuchte:Taupunkt:
Aussen-T/F 2701 14-03-2009 12:28:03 13 C 43 % 0.73 C
2702 14-03-2009 12:40:02 13.4 C 41 % 0.43 C
2703 14-03-2009 12:52:03 13.7 C 40 % 0.36 C
2704 14-03-2009 13:04:02 13.6 C 40 % 0.27 C
2705 14-03-2009 13:16:02 13.8 C 40 % 0.45 C
2706 14-03-2009 13:28:02 14.1 C 39 % 0.37 C
2707 14-03-2009 13:40:02 14.5 C 38 % 0.37 C
2708 14-03-2009 13:52:02 14.7 C 37 % 0.18 C
2709 14-03-2009 14:04:01 15.4 C 35 % 0.04 C
2710 14-03-2009 14:16:01 15.8 C 34 % -0.01 C
2711 14-03-2009 14:28:01 15.9 C 33 % -0.33 C
2712 14-03-2009 14:40:01 15.9 C 33 % -0.33 C
2713 14-03-2009 14:52:01 16.9 C 30 % -0.76 C
2714 14-03-2009 15:04:01 17.5 C 30 % -0.25 C
2715 14-03-2009 15:16:01 17 C 31 % -0.23 C
2716 14-03-2009 15:28:01 16.1 C 35 % 0.65 C
2717 14-03-2009 15:40:01 15.7 C 37 % 1.07 C
2718 14-03-2009 15:52:00 16.8 C 35 % 1.27 C
2719 14-03-2009 16:04:01 17.2 C 33 % 0.81 C
2720 14-03-2009 16:16:00 16.2 C 35 % 0.74 C
2721 14-03-2009 16:28:00 15.6 C 38 % 1.35 C
2722 14-03-2009 16:40:00 15.7 C 39 % 1.8 C
2723 14-03-2009 16:52:00 15.4 C 39 % 1.53 C
2724 14-03-2009 17:04:00 15.4 C 39 % 1.53 C
2725 14-03-2009 17:16:00 15.4 C 40 % 1.89 C
Sensor: Nr:Datum:Temp:Feuchte:Taupunkt:
Aussen-T/F 2726 14-03-2009 17:28:00 15.2 C 41 % 2.05 C
2727 14-03-2009 17:39:59 15 C 41 % 1.87 C
2728 14-03-2009 17:52:00 14.7 C 43 % 2.27 C
2729 14-03-2009 18:04:59 14.5 C 43 % 2.09 C
2730 14-03-2009 18:16:59 14.4 C 44 % 2.32 C
2731 14-03-2009 18:28:59 14.2 C 45 % 2.45 C
2732 14-03-2009 18:40:59 14.1 C 46 % 2.67 C
2733 14-03-2009 18:52:59 13.8 C 51 % 3.85 C
2734 14-03-2009 19:04:58 12.3 C 67 % 6.36 C
2735 14-03-2009 19:16:59 11.5 C 77 % 7.61 C
2736 14-03-2009 19:28:59 11.1 C 81 % 7.97 C
2737 14-03-2009 19:40:59 11.4 C 83 % 8.62 C
2738 14-03-2009 19:52:58 10.7 C 83 % 7.93 C
2739 14-03-2009 20:04:59 10.4 C 83 % 7.64 C
2740 14-03-2009 20:16:58 10.4 C 84 % 7.82 C
2741 14-03-2009 20:28:58 10.3 C 84 % 7.72 C
2742 14-03-2009 20:40:59 10.2 C 85 % 7.79 C
2743 14-03-2009 20:52:57 10 C 83 % 7.25 C
2744 14-03-2009 21:04:57 9.6 C 74 % 5.2 C
2745 14-03-2009 21:16:58 9.6 C 74 % 5.2 C
2746 14-03-2009 21:28:57 9.4 C 76 % 5.39 C
2747 14-03-2009 21:40:57 9.3 C 77 % 5.48 C
2748 14-03-2009 21:52:57 9.1 C 78 % 5.47 C
2749 14-03-2009 22:04:57 9 C 79 % 5.56 C
2750 14-03-2009 22:17:58 9 C 78 % 5.38 C
Sensor: Nr:Datum:Temp:Feuchte:Taupunkt:
Aussen-T/F 2751 14-03-2009 22:29:58 9.1 C 76 % 5.1 C
2752 14-03-2009 22:41:58 9.2 C 75 % 5.01 C
2753 14-03-2009 22:53:58 9.2 C 74 % 4.81 C
2754 14-03-2009 23:05:58 9.2 C 74 % 4.81 C
2755 14-03-2009 23:17:58 9.2 C 73 % 4.62 C
2756 14-03-2009 23:29:58 9.2 C 67 % 3.4 C
2757 14-03-2009 23:41:58 9.1 C 66 % 3.09 C
2758 14-03-2009 23:53:58 9.1 C 64 % 2.66 C
2759 15-03-2009 00:05:58 9.1 C 63 % 2.44 C
2760 15-03-2009 00:17:58 9.1 C 62 % 2.22 C
2761 15-03-2009 00:29:58 9 C 62 % 2.12 C
2762 15-03-2009 00:41:58 9.1 C 61 % 1.99 C
2763 15-03-2009 00:53:58 9 C 61 % 1.89 C
2764 15-03-2009 01:05:58 9 C 61 % 1.89 C
2765 15-03-2009 01:17:58 9 C 60 % 1.66 C
2766 15-03-2009 01:29:58 8.8 C 63 % 2.16 C
2767 15-03-2009 01:41:58 8.8 C 62 % 1.93 C
2768 15-03-2009 01:53:59 8.9 C 62 % 2.03 C
2769 15-03-2009 02:05:59 8.8 C 62 % 1.93 C
2770 15-03-2009 02:16:59 8.6 C 65 % 2.4 C
2771 15-03-2009 02:28:59 8.9 C 64 % 2.47 C
2772 15-03-2009 02:40:59 8.8 C 63 % 2.16 C
2773 15-03-2009 02:52:59 8.8 C 64 % 2.38 C
2774 15-03-2009 03:04:59 8.6 C 65 % 2.4 C
2775 15-03-2009 03:16:59 8.7 C 64 % 2.28 C
Sensor: Nr:Datum:Temp:Feuchte:Taupunkt:
Aussen-T/F 2776 15-03-2009 03:28:59 8.6 C 63 % 1.97 C
2777 15-03-2009 03:40:59 8.6 C 62 % 1.74 C
2778 15-03-2009 03:52:59 8.6 C 61 % 1.52 C
2779 15-03-2009 04:04:59 8.6 C 61 % 1.52 C
2780 15-03-2009 04:16:59 8.6 C 60 % 1.29 C
2781 15-03-2009 04:28:59 8.6 C 61 % 1.52 C
2782 15-03-2009 04:40:59 8.6 C 61 % 1.52 C
2783 15-03-2009 04:52:59 8.6 C 61 % 1.52 C
2784 15-03-2009 05:04:59 8.6 C 61 % 1.52 C
2785 15-03-2009 05:16:59 8.5 C 61 % 1.42 C
2786 15-03-2009 05:28:59 8.5 C 61 % 1.42 C
2787 15-03-2009 05:40:59 8.5 C 61 % 1.42 C
2788 15-03-2009 05:53:00 8.5 C 60 % 1.19 C
2789 15-03-2009 06:05:00 8.5 C 59 % 0.96 C
2790 15-03-2009 06:17:00 8.5 C 58 % 0.72 C
2791 15-03-2009 06:29:00 8.5 C 58 % 0.72 C
2792 15-03-2009 06:41:00 8.4 C 58 % 0.63 C
2793 15-03-2009 06:53:00 8.4 C 58 % 0.63 C
2794 15-03-2009 07:05:00 8.4 C 57 % 0.39 C
2795 15-03-2009 07:17:00 8.4 C 56 % 0.15 C
2796 15-03-2009 07:29:00 8.4 C 56 % 0.15 C
2797 15-03-2009 07:41:00 8.5 C 56 % 0.24 C
2798 15-03-2009 07:53:00 8.5 C 56 % 0.24 C
2799 15-03-2009 08:05:00 8.5 C 55 % -0.01 C
2800 15-03-2009 08:17:00 8.5 C 55 % -0.01 C
Sensor: Nr:Datum:Temp:Feuchte:Taupunkt:
Aussen-T/F 2801 15-03-2009 08:29:00 8.9 C 55 % 0.36 C
2802 15-03-2009 08:41:00 8.7 C 55 % 0.18 C
2803 15-03-2009 08:53:00 8.8 C 55 % 0.27 C
2804 15-03-2009 09:05:58 8.8 C 55 % 0.27 C
2805 15-03-2009 09:17:58 8.8 C 55 % 0.27 C
2806 15-03-2009 09:29:58 8.9 C 54 % 0.11 C
2807 15-03-2009 09:41:58 9.1 C 54 % 0.3 C
2808 15-03-2009 09:53:57 9.2 C 52 % -0.13 C
2809 15-03-2009 10:05:58 9.3 C 52 % -0.04 C
2810 15-03-2009 10:17:57 9.3 C 51 % -0.3 C
2811 15-03-2009 10:29:57 9.3 C 50 % -0.57 C
2812 15-03-2009 10:41:57 9.6 C 49 % -0.57 C
2813 15-03-2009 10:53:57 9.7 C 48 % -0.76 C
2814 15-03-2009 11:05:57 9.9 C 47 % -0.87 C
2815 15-03-2009 11:17:57 10.1 C 47 % -0.69 C
2816 15-03-2009 11:29:56 10.2 C 45 % -1.19 C
2817 15-03-2009 11:41:56 10.4 C 46 % -0.7 C
2818 15-03-2009 11:53:57 10.5 C 45 % -0.91 C
2819 15-03-2009 12:05:56 10.8 C 43 % -1.26 C
2820 15-03-2009 12:17:56 11.2 C 39 % -2.22 C
2821 15-03-2009 12:29:56 11.4 C 38 % -2.39 C
2822 15-03-2009 12:41:56 11.4 C 38 % -2.39 C
2823 15-03-2009 12:53:56 11.5 C 33 % -4.19 C
2824 15-03-2009 13:05:55 11.3 C 32 % -4.77 C
2825 15-03-2009 13:17:56 11.5 C 32 % -4.6 C
Sensor: Nr:Datum:Temp:Feuchte:Taupunkt:
Aussen-T/F 2826 15-03-2009 13:29:56 11.2 C 34 % -4.06 C
2827 15-03-2009 13:41:56 11.1 C 35 % -3.76 C
2828 15-03-2009 13:53:55 11 C 36 % -3.47 C
2829 15-03-2009 14:05:56 10.9 C 40 % -2.15 C
2830 15-03-2009 14:17:55 11.1 C 40 % -1.97 C
2831 15-03-2009 14:29:55 11 C 40 % -2.06 C
2832 15-03-2009 14:41:56 10.8 C 41 % -1.91 C
2833 15-03-2009 14:53:55 10.7 C 40 % -2.33 C
2834 15-03-2009 15:05:55 10.6 C 43 % -1.44 C
2835 15-03-2009 15:17:54 10.6 C 45 % -0.82 C
2836 15-03-2009 15:29:54 10.9 C 45 % -0.55 C
2837 15-03-2009 15:41:54 10.8 C 44 % -0.95 C
2838 15-03-2009 15:53:54 10.6 C 44 % -1.13 C
2839 15-03-2009 16:05:54 10.7 C 45 % -0.73 C
2840 15-03-2009 16:17:54 10.8 C 45 % -0.64 C
2841 15-03-2009 16:29:54 10.8 C 45 % -0.64 C
2842 15-03-2009 16:41:54 10.7 C 45 % -0.73 C
2843 15-03-2009 16:53:54 10.6 C 45 % -0.82 C
2844 15-03-2009 17:05:53 10.6 C 46 % -0.52 C
2845 15-03-2009 17:17:54 10.4 C 48 % -0.12 C
2846 15-03-2009 17:29:53 10.1 C 52 % 0.7 C
2847 15-03-2009 17:41:53 9.9 C 54 % 1.04 C
2848 15-03-2009 17:53:53 9.9 C 53 % 0.78 C
2849 15-03-2009 18:05:53 9.8 C 53 % 0.69 C
2850 15-03-2009 18:17:53 9.8 C 54 % 0.95 C
Sensor: Nr:Datum:Temp:Feuchte:Taupunkt:
Aussen-T/F 2851 15-03-2009 18:29:53 9.7 C 54 % 0.86 C
2852 15-03-2009 18:41:53 9.8 C 52 % 0.43 C
2853 15-03-2009 18:53:52 9.8 C 51 % 0.16 C
2854 15-03-2009 19:05:02 9.8 C 50 % -0.11 C
2855 15-03-2009 19:17:01 9.7 C 51 % 0.07 C
2856 15-03-2009 19:29:01 9.6 C 52 % 0.24 C
2857 15-03-2009 19:41:02 9.5 C 53 % 0.41 C
2858 15-03-2009 19:53:01 9.5 C 53 % 0.41 C
2859 15-03-2009 20:05:02 9.4 C 55 % 0.83 C
2860 15-03-2009 20:17:01 9.2 C 56 % 0.89 C
2861 15-03-2009 20:29:01 9.2 C 57 % 1.14 C
2862 15-03-2009 20:41:01 9.1 C 59 % 1.52 C
2863 15-03-2009 20:53:01 9 C 60 % 1.66 C
2864 15-03-2009 21:05:01 9 C 60 % 1.66 C
2865 15-03-2009 21:17:00 8.9 C 62 % 2.03 C
2866 15-03-2009 21:29:00 8.9 C 63 % 2.25 C
2867 15-03-2009 21:41:01 8.9 C 64 % 2.47 C
2868 15-03-2009 21:54:08 8.7 C 64 % 2.28 C
2869 15-03-2009 22:06:08 8.7 C 65 % 2.5 C
2870 15-03-2009 22:18:08 8.7 C 65 % 2.5 C
2871 15-03-2009 22:30:08 8.6 C 66 % 2.62 C
2872 15-03-2009 22:42:08 8.5 C 67 % 2.73 C
2873 15-03-2009 22:54:08 8.4 C 67 % 2.64 C
2874 15-03-2009 23:06:08 8.4 C 67 % 2.64 C
2875 15-03-2009 23:18:09 8.4 C 68 % 2.85 C
Sensor: Nr:Datum:Temp:Feuchte:Taupunkt:
Aussen-T/F 2876 15-03-2009 23:30:09 8.3 C 68 % 2.75 C
2877 15-03-2009 23:42:09 8.3 C 68 % 2.75 C
2878 15-03-2009 23:54:09 8.1 C 70 % 2.97 C
2879 16-03-2009 00:06:09 8 C 71 % 3.07 C
2880 16-03-2009 00:18:09 8.1 C 71 % 3.17 C
2881 16-03-2009 00:30:09 8.1 C 71 % 3.17 C
2882 16-03-2009 00:42:09 8.1 C 70 % 2.97 C
2883 16-03-2009 00:54:09 8.1 C 69 % 2.77 C
2884 16-03-2009 01:06:09 8.2 C 68 % 2.66 C
2885 16-03-2009 01:18:09 8 C 69 % 2.67 C
2886 16-03-2009 01:30:09 7.8 C 73 % 3.27 C
2887 16-03-2009 01:42:09 7.7 C 75 % 3.56 C
2888 16-03-2009 01:54:09 7.5 C 77 % 3.74 C
2889 16-03-2009 02:06:09 7.4 C 78 % 3.82 C
2890 16-03-2009 02:18:09 7.4 C 79 % 4 C
2891 16-03-2009 02:30:09 7.4 C 79 % 4 C
2892 16-03-2009 02:42:09 7.3 C 80 % 4.09 C
2893 16-03-2009 02:54:09 7.2 C 81 % 4.16 C
2894 16-03-2009 03:06:09 7.2 C 81 % 4.16 C
2895 16-03-2009 03:18:09 7.1 C 82 % 4.24 C
2896 16-03-2009 03:30:10 7.1 C 82 % 4.24 C
2897 16-03-2009 03:42:10 6.9 C 83 % 4.22 C
2898 16-03-2009 03:54:10 6.8 C 84 % 4.29 C
2899 16-03-2009 04:06:10 6.8 C 84 % 4.29 C
2900 16-03-2009 04:18:10 6.8 C 85 % 4.46 C
Sensor: Nr:Datum:Temp:Feuchte:Taupunkt:
Aussen-T/F 2901 16-03-2009 04:30:10 6.7 C 85 % 4.36 C
2902 16-03-2009 04:42:10 6.7 C 85 % 4.36 C
2903 16-03-2009 04:54:10 6.8 C 86 % 4.63 C
2904 16-03-2009 05:06:10 6.7 C 86 % 4.53 C
2905 16-03-2009 05:18:10 6.5 C 85 % 4.17 C
2906 16-03-2009 05:30:10 6.6 C 86 % 4.43 C
2907 16-03-2009 05:42:10 6.7 C 86 % 4.53 C
2908 16-03-2009 05:54:01 6.6 C 86 % 4.43 C
2909 16-03-2009 06:06:01 6.6 C 86 % 4.43 C
2910 16-03-2009 06:18:01 6.6 C 86 % 4.43 C
2911 16-03-2009 06:30:01 6.6 C 86 % 4.43 C
2912 16-03-2009 06:42:01 6.7 C 86 % 4.53 C
2913 16-03-2009 06:54:00 6.6 C 85 % 4.26 C
2914 16-03-2009 07:06:01 6.5 C 85 % 4.17 C
2915 16-03-2009 07:18:00 6.5 C 85 % 4.17 C
2916 16-03-2009 07:30:00 6.6 C 86 % 4.43 C
2917 16-03-2009 07:42:00 6.7 C 86 % 4.53 C
2918 16-03-2009 07:53:59 6.8 C 86 % 4.63 C
2919 16-03-2009 08:06:00 6.9 C 86 % 4.72 C
2920 16-03-2009 08:18:00 7 C 85 % 4.66 C
2921 16-03-2009 08:30:00 7 C 84 % 4.49 C
2922 16-03-2009 08:42:59 7.1 C 84 % 4.58 C
2923 16-03-2009 08:54:00 7.2 C 84 % 4.68 C
2924 16-03-2009 09:06:59 7.4 C 84 % 4.88 C
2925 16-03-2009 09:18:59 7.3 C 83 % 4.61 C
Sensor: Nr:Datum:Temp:Feuchte:Taupunkt:
Aussen-T/F 2926 16-03-2009 09:30:58 7.2 C 81 % 4.16 C
2927 16-03-2009 09:42:58 7.3 C 79 % 3.91 C
2928 16-03-2009 09:54:59 7.6 C 79 % 4.2 C
2929 16-03-2009 10:06:59 7.9 C 78 % 4.31 C
2930 16-03-2009 10:18:58 8.2 C 75 % 4.04 C
2931 16-03-2009 10:30:59 8.4 C 72 % 3.65 C
2932 16-03-2009 10:42:59 8.7 C 69 % 3.34 C
2933 16-03-2009 10:54:58 8.8 C 68 % 3.23 C
2934 16-03-2009 11:06:58 8.8 C 66 % 2.81 C
2935 16-03-2009 11:18:57 9.1 C 64 % 2.66 C
2936 16-03-2009 11:30:58 9.2 C 62 % 2.31 C
2937 16-03-2009 11:42:58 9.5 C 61 % 2.37 C
2938 16-03-2009 11:54:57 9.7 C 61 % 2.55 C
2939 16-03-2009 12:06:57 10 C 57 % 1.89 C
2940 16-03-2009 12:18:58 9.9 C 55 % 1.3 C
2941 16-03-2009 12:30:57 9.5 C 56 % 1.17 C
2942 16-03-2009 12:42:57 9.5 C 57 % 1.42 C
2943 16-03-2009 12:54:57 9.8 C 57 % 1.7 C
2944 16-03-2009 13:06:57 10 C 55 % 1.39 C
2945 16-03-2009 13:18:57 10.2 C 55 % 1.58 C
2946 16-03-2009 13:30:56 10.1 C 52 % 0.7 C
2947 16-03-2009 13:42:56 9.8 C 55 % 1.2 C
2948 16-03-2009 13:54:56 9.5 C 56 % 1.17 C
2949 16-03-2009 14:06:56 9.4 C 56 % 1.08 C
2950 16-03-2009 14:18:56 9.5 C 56 % 1.17 C
Sensor: Nr:Datum:Temp:Feuchte:Taupunkt:
Aussen-T/F 2951 16-03-2009 14:30:56 9.5 C 55 % 0.92 C
2952 16-03-2009 14:42:56 9.7 C 56 % 1.36 C
2953 16-03-2009 14:54:56 9.9 C 55 % 1.3 C
2954 16-03-2009 15:06:56 10 C 54 % 1.13 C
2955 16-03-2009 15:18:55 10.3 C 54 % 1.41 C
2956 16-03-2009 15:30:55 9.9 C 53 % 0.78 C
2957 16-03-2009 15:42:55 9.8 C 55 % 1.2 C
2958 16-03-2009 15:54:55 9.9 C 55 % 1.3 C
2959 16-03-2009 16:06:55 9.7 C 56 % 1.36 C
2960 16-03-2009 16:18:55 9.8 C 56 % 1.45 C
2961 16-03-2009 16:30:55 9.8 C 56 % 1.45 C
2962 16-03-2009 16:42:55 10 C 55 % 1.39 C
2963 16-03-2009 16:54:55 9.8 C 55 % 1.2 C
2964 16-03-2009 17:06:54 9.7 C 57 % 1.61 C
2965 16-03-2009 17:18:55 9.7 C 57 % 1.61 C
2966 16-03-2009 17:30:54 9.7 C 57 % 1.61 C
2967 16-03-2009 17:42:54 9.6 C 57 % 1.51 C
2968 16-03-2009 17:54:54 9.2 C 58 % 1.38 C
2969 16-03-2009 18:06:53 9.2 C 59 % 1.62 C
2970 16-03-2009 18:18:54 9.2 C 60 % 1.85 C
2971 16-03-2009 18:30:54 9 C 60 % 1.66 C
2972 16-03-2009 18:42:54 8.9 C 62 % 2.03 C
2973 16-03-2009 18:54:53 8.7 C 63 % 2.06 C
2974 16-03-2009 19:06:54 8.7 C 64 % 2.28 C
2975 16-03-2009 19:18:53 8.6 C 65 % 2.4 C
Sensor: Nr:Datum:Temp:Feuchte:Taupunkt:
Aussen-T/F 2976 16-03-2009 19:30:53 8.5 C 65 % 2.31 C
2977 16-03-2009 19:42:54 8.5 C 66 % 2.52 C
2978 16-03-2009 19:54:53 8.4 C 66 % 2.43 C
2979 16-03-2009 20:06:53 8.4 C 66 % 2.43 C
2980 16-03-2009 20:18:52 8.4 C 66 % 2.43 C
2981 16-03-2009 20:30:53 8.4 C 65 % 2.21 C
2982 16-03-2009 20:42:53 8.3 C 65 % 2.12 C
2983 16-03-2009 20:54:52 8.3 C 65 % 2.12 C
2984 16-03-2009 21:06:52 8.2 C 66 % 2.24 C
2985 16-03-2009 21:18:52 8.2 C 66 % 2.24 C
2986 16-03-2009 21:30:51 8.2 C 66 % 2.24 C
2987 16-03-2009 21:42:51 8.1 C 65 % 1.93 C
2988 16-03-2009 21:54:52 8.1 C 65 % 1.93 C
2989 16-03-2009 22:06:51 8.1 C 65 % 1.93 C
2990 16-03-2009 22:19:53 8 C 64 % 1.62 C
2991 16-03-2009 22:31:54 8 C 64 % 1.62 C
2992 16-03-2009 22:43:54 8 C 64 % 1.62 C
2993 16-03-2009 22:55:54 7.9 C 64 % 1.52 C
2994 16-03-2009 23:07:54 8 C 64 % 1.62 C
2995 16-03-2009 23:19:54 8 C 64 % 1.62 C
2996 16-03-2009 23:31:54 8 C 64 % 1.62 C
2997 16-03-2009 23:43:54 7.9 C 66 % 1.95 C
2998 16-03-2009 23:55:54 7.9 C 66 % 1.95 C
2999 17-03-2009 00:07:54 7.8 C 67 % 2.07 C
3000 17-03-2009 00:19:54 7.8 C 65 % 1.64 C
Sensor: Nr:Datum:Temp:Feuchte:Taupunkt:
Aussen-T/F 3001 17-03-2009 00:31:54 7.8 C 65 % 1.64 C
3002 17-03-2009 00:43:54 7.7 C 65 % 1.55 C
3003 17-03-2009 00:55:54 7.7 C 63 % 1.11 C
3004 17-03-2009 01:07:54 7.7 C 62 % 0.89 C
3005 17-03-2009 01:19:54 7.4 C 62 % 0.61 C
3006 17-03-2009 01:31:54 6.7 C 65 % 0.6 C
3007 17-03-2009 01:43:54 6.1 C 66 % 0.24 C
3008 17-03-2009 01:55:54 5.8 C 69 % 0.56 C
3009 17-03-2009 02:07:54 5.6 C 69 % 0.37 C
3010 17-03-2009 02:19:54 5.3 C 70 % 0.28 C
3011 17-03-2009 02:31:55 5.1 C 71 % 0.29 C
3012 17-03-2009 02:43:55 5 C 72 % 0.38 C
3013 17-03-2009 02:55:55 4.9 C 73 % 0.48 C
3014 17-03-2009 03:07:55 4.7 C 74 % 0.47 C
3015 17-03-2009 03:19:55 4.7 C 74 % 0.47 C
3016 17-03-2009 03:31:55 4.5 C 75 % 0.46 C
3017 17-03-2009 03:43:55 4.3 C 76 % 0.45 C
3018 17-03-2009 03:55:55 4.1 C 77 % 0.44 C
3019 17-03-2009 04:07:55 4 C 78 % 0.52 C
3020 17-03-2009 04:19:55 3.9 C 79 % 0.6 C
3021 17-03-2009 04:31:55 4 C 78 % 0.52 C
3022 17-03-2009 04:43:55 4 C 79 % 0.7 C
3023 17-03-2009 04:55:55 3.8 C 80 % 0.68 C
3024 17-03-2009 05:07:55 3.5 C 80 % 0.38 C
3025 17-03-2009 05:19:55 3.3 C 80 % 0.19 C
Sensor: Nr:Datum:Temp:Feuchte:Taupunkt:
Aussen-T/F 3026 17-03-2009 05:31:55 3.2 C 81 % 0.26 C
3027 17-03-2009 05:43:55 3.2 C 81 % 0.26 C
3028 17-03-2009 05:55:55 3.2 C 82 % 0.43 C
3029 17-03-2009 06:07:55 3 C 82 % 0.24 C
3030 17-03-2009 06:19:56 3 C 82 % 0.24 C
3031 17-03-2009 06:31:56 3 C 83 % 0.4 C
3032 17-03-2009 06:43:56 3.1 C 83 % 0.5 C
3033 17-03-2009 06:55:56 3.3 C 83 % 0.7 C
3034 17-03-2009 07:07:52 3.5 C 83 % 0.89 C
3035 17-03-2009 07:19:52 3.5 C 81 % 0.55 C
3036 17-03-2009 07:31:52 3.6 C 80 % 0.48 C
3037 17-03-2009 07:43:52 3.5 C 80 % 0.38 C
3038 17-03-2009 07:55:52 3.5 C 80 % 0.38 C
3039 17-03-2009 08:07:51 3.5 C 80 % 0.38 C
3040 17-03-2009 08:19:51 3.7 C 80 % 0.58 C
3041 17-03-2009 08:31:52 3.8 C 80 % 0.68 C
3042 17-03-2009 08:43:52 3.9 C 79 % 0.6 C
3043 17-03-2009 08:55:51 4.2 C 79 % 0.89 C
3044 17-03-2009 09:07:51 5 C 77 % 1.31 C
3045 17-03-2009 09:19:50 5.8 C 72 % 1.15 C
3046 17-03-2009 09:31:51 6.3 C 68 % 0.84 C
3047 17-03-2009 09:43:51 6.5 C 66 % 0.62 C
3048 17-03-2009 09:55:50 6.5 C 66 % 0.62 C
3049 17-03-2009 10:07:50 6.8 C 65 % 0.69 C
3050 17-03-2009 10:19:51 7.2 C 64 % 0.86 C
Sensor: Nr:Datum:Temp:Feuchte:Taupunkt:
Aussen-T/F 3051 17-03-2009 10:31:50 7.9 C 62 % 1.08 C
3052 17-03-2009 10:43:50 8.4 C 60 % 1.1 C
3053 17-03-2009 10:55:50 9 C 57 % 0.95 C
3054 17-03-2009 11:07:50 10.1 C 53 % 0.97 C
3055 17-03-2009 11:19:50 11.4 C 50 % 1.36 C
3056 17-03-2009 11:31:50 11.7 C 47 % 0.78 C
3057 17-03-2009 11:43:50 11.6 C 47 % 0.69 C
3058 17-03-2009 11:55:50 11.4 C 48 % 0.79 C
3059 17-03-2009 12:07:50 11.5 C 49 % 1.17 C
3060 17-03-2009 12:19:49 11.2 C 50 % 1.18 C
3061 17-03-2009 12:31:49 12 C 48 % 1.34 C
3062 17-03-2009 12:43:49 13.3 C 43 % 1 C
3063 17-03-2009 12:55:49 13.7 C 42 % 1.04 C
3064 17-03-2009 13:07:49 14.1 C 40 % 0.72 C
3065 17-03-2009 13:19:48 14.1 C 39 % 0.37 C
3066 17-03-2009 13:31:48 13.9 C 39 % 0.19 C
3067 17-03-2009 13:43:48 14.2 C 39 % 0.46 C
3068 17-03-2009 13:55:48 14.7 C 38 % 0.55 C
3069 17-03-2009 14:07:48 15.4 C 35 % 0.04 C
3070 17-03-2009 14:19:48 14.2 C 38 % 0.1 C
3071 17-03-2009 14:31:48 13.8 C 41 % 0.79 C
3072 17-03-2009 14:43:48 13.2 C 42 % 0.59 C
3073 17-03-2009 14:55:48 12.5 C 44 % 0.59 C
3074 17-03-2009 15:07:47 12.4 C 45 % 0.81 C
3075 17-03-2009 15:19:48 12.5 C 46 % 1.21 C
Sensor: Nr:Datum:Temp:Feuchte:Taupunkt:
Aussen-T/F 3076 17-03-2009 15:31:47 12.7 C 45 % 1.09 C
3077 17-03-2009 15:43:47 12.8 C 45 % 1.18 C
3078 17-03-2009 15:55:47 12.8 C 45 % 1.18 C
3079 17-03-2009 16:07:47 12.5 C 45 % 0.91 C
3080 17-03-2009 16:19:47 12.6 C 46 % 1.3 C
3081 17-03-2009 16:31:47 12.5 C 45 % 0.91 C
3082 17-03-2009 16:43:47 12.6 C 45 % 1 C
3083 17-03-2009 16:55:46 12.1 C 43 % -0.08 C
3084 17-03-2009 17:07:47 12 C 45 % 0.45 C
3085 17-03-2009 17:19:46 11.9 C 47 % 0.96 C
3086 17-03-2009 17:31:46 12.6 C 44 % 0.69 C
3087 17-03-2009 17:43:46 12.2 C 44 % 0.32 C
3088 17-03-2009 17:55:46 12 C 43 % -0.17 C
3089 17-03-2009 18:07:46 11.7 C 45 % 0.18 C
3090 17-03-2009 18:19:46 11.2 C 46 % 0.02 C
3091 17-03-2009 18:31:45 10.7 C 49 % 0.44 C
3092 17-03-2009 18:43:45 10.2 C 51 % 0.53 C
3093 17-03-2009 18:55:46 9.5 C 55 % 0.92 C
3094 17-03-2009 19:07:45 9.2 C 56 % 0.89 C
3095 17-03-2009 19:19:45 8.7 C 59 % 1.15 C
3096 17-03-2009 19:31:45 8.5 C 59 % 0.96 C
3097 17-03-2009 19:43:45 8.1 C 60 % 0.82 C
3098 17-03-2009 19:55:45 7.8 C 63 % 1.21 C
3099 17-03-2009 20:07:44 7.6 C 64 % 1.24 C
3100 17-03-2009 20:19:44 7.3 C 65 % 1.17 C
Sensor: Nr:Datum:Temp:Feuchte:Taupunkt:
Aussen-T/F 3101 17-03-2009 20:31:45 7.1 C 65 % 0.98 C
3102 17-03-2009 20:43:45 6.9 C 68 % 1.41 C
3103 17-03-2009 20:55:44 6.5 C 68 % 1.03 C
3104 17-03-2009 21:07:44 6.3 C 70 % 1.24 C
3105 17-03-2009 21:19:44 6.2 C 71 % 1.34 C
3106 17-03-2009 21:31:44 5.7 C 71 % 0.86 C
3107 17-03-2009 21:43:44 5.7 C 73 % 1.25 C
3108 17-03-2009 21:56:45 5.5 C 73 % 1.06 C
3109 17-03-2009 22:08:45 5.3 C 74 % 1.05 C
3110 17-03-2009 22:20:46 5.1 C 75 % 1.04 C
3111 17-03-2009 22:32:46 4.9 C 77 % 1.22 C
3112 17-03-2009 22:44:46 4.8 C 77 % 1.12 C
3113 17-03-2009 22:56:46 4.7 C 77 % 1.02 C
3114 17-03-2009 23:08:46 4.6 C 77 % 0.92 C
3115 17-03-2009 23:20:46 4.3 C 77 % 0.63 C
3116 17-03-2009 23:32:46 4.2 C 78 % 0.71 C
3117 17-03-2009 23:44:46 4 C 79 % 0.7 C
3118 17-03-2009 23:56:46 3.8 C 80 % 0.68 C
3119 18-03-2009 00:08:46 3.6 C 81 % 0.65 C
3120 18-03-2009 00:20:46 3.3 C 81 % 0.36 C
3121 18-03-2009 00:32:46 3.2 C 82 % 0.43 C
3122 18-03-2009 00:44:46 2.9 C 83 % 0.31 C
3123 18-03-2009 00:56:46 2.8 C 82 % 0.04 C
3124 18-03-2009 01:08:46 2.7 C 83 % 0.11 C
3125 18-03-2009 01:20:46 2.6 C 83 % 0.01 C
Sensor: Nr:Datum:Temp:Feuchte:Taupunkt:
Aussen-T/F 3126 18-03-2009 01:32:46 2.4 C 83 % -0.18 C
3127 18-03-2009 01:44:46 2.2 C 83 % -0.38 C
3128 18-03-2009 01:56:46 2.1 C 83 % -0.48 C
3129 18-03-2009 02:08:47 1.9 C 84 % -0.51 C
3130 18-03-2009 02:20:47 1.8 C 84 % -0.61 C
3131 18-03-2009 02:32:47 1.5 C 84 % -0.9 C
3132 18-03-2009 02:44:47 1.5 C 85 % -0.74 C
3133 18-03-2009 02:56:47 1.4 C 85 % -0.84 C
3134 18-03-2009 03:08:47 1.2 C 85 % -1.03 C
3135 18-03-2009 03:20:47 0.9 C 85 % -1.33 C
3136 18-03-2009 03:32:47 0.8 C 85 % -1.43 C
3137 18-03-2009 03:44:47 0.6 C 85 % -1.62 C
3138 18-03-2009 03:56:47 0.4 C 85 % -1.82 C
3139 18-03-2009 04:08:47 0.3 C 85 % -1.92 C
3140 18-03-2009 04:20:47 0.2 C 86 % -1.86 C
3141 18-03-2009 04:32:47 0.1 C 86 % -1.96 C
3142 18-03-2009 04:44:47 0.1 C 87 % -1.8 C
3143 18-03-2009 04:56:47 0 C 87 % -1.9 C
3144 18-03-2009 05:08:47 -0.1 C 87 % -2 C
3145 18-03-2009 05:20:47 0 C 88 % -1.74 C
3146 18-03-2009 05:32:47 0 C 88 % -1.74 C
3147 18-03-2009 05:44:47 -0.1 C 88 % -1.84 C
3148 18-03-2009 05:56:47 -0.2 C 88 % -1.94 C
3149 18-03-2009 06:08:48 -0.2 C 88 % -1.94 C
3150 18-03-2009 06:20:48 -0.1 C 89 % -1.69 C
Sensor: Nr:Datum:Temp:Feuchte:Taupunkt:
Aussen-T/F 3151 18-03-2009 06:32:44 0 C 89 % -1.59 C
3152 18-03-2009 06:44:45 0 C 89 % -1.59 C
3153 18-03-2009 06:56:45 0.2 C 89 % -1.39 C
3154 18-03-2009 07:08:44 0.2 C 89 % -1.39 C
3155 18-03-2009 07:20:44 0.2 C 89 % -1.39 C
3156 18-03-2009 07:32:44 0.2 C 89 % -1.39 C
3157 18-03-2009 07:44:44 0.2 C 89 % -1.39 C
3158 18-03-2009 07:56:44 0.1 C 88 % -1.65 C
3159 18-03-2009 08:08:44 0.1 C 88 % -1.65 C
3160 18-03-2009 08:20:43 0.1 C 88 % -1.65 C
3161 18-03-2009 08:32:44 0.5 C 88 % -1.25 C
3162 18-03-2009 08:44:43 1.2 C 88 % -0.56 C
3163 18-03-2009 08:56:43 1.2 C 85 % -1.03 C
3164 18-03-2009 09:08:43 1.7 C 84 % -0.71 C
3165 18-03-2009 09:20:43 1.9 C 82 % -0.84 C
3166 18-03-2009 09:32:43 1.9 C 80 % -1.18 C
3167 18-03-2009 09:44:43 2.5 C 79 % -0.76 C
3168 18-03-2009 09:56:43 2.8 C 77 % -0.82 C
3169 18-03-2009 10:08:43 3.3 C 74 % -0.88 C
3170 18-03-2009 10:20:42 3.6 C 73 % -0.78 C
3171 18-03-2009 10:32:42 3.8 C 74 % -0.4 C
3172 18-03-2009 10:44:42 4.6 C 73 % 0.19 C
3173 18-03-2009 10:56:42 5.2 C 67 % -0.41 C
3174 18-03-2009 11:08:42 5.9 C 62 % -0.81 C
3175 18-03-2009 11:20:41 6.5 C 58 % -1.15 C
Sensor: Nr:Datum:Temp:Feuchte:Taupunkt:
Aussen-T/F 3176 18-03-2009 11:32:42 6.8 C 57 % -1.11 C
3177 18-03-2009 11:44:41 7.3 C 54 % -1.38 C
3178 18-03-2009 11:56:41 7.9 C 51 % -1.6 C
3179 18-03-2009 12:08:41 8.2 C 45 % -3.01 C
3180 18-03-2009 12:20:42 8.6 C 41 % -3.89 C
3181 18-03-2009 12:32:41 9.4 C 37 % -4.53 C
3182 18-03-2009 12:44:41 9.7 C 25 % -9.35 C
3183 18-03-2009 12:56:41 10.2 C 23 % -9.98 C
3184 18-03-2009 13:08:40 11 C 20 % -11.06 C
3185 18-03-2009 13:20:41 11.8 C 20 % -10.4 C
3186 18-03-2009 13:32:41 12.6 C 20 % -9.73 C
3187 18-03-2009 13:44:40 13 C 20 % -9.4 C
3188 18-03-2009 13:56:40 13.1 C 20 % -9.32 C
3189 18-03-2009 14:08:41 13.2 C 20 % -9.24 C
3190 18-03-2009 14:20:40 12.9 C 20 % -9.49 C
3191 18-03-2009 14:32:40 13.1 C 20 % -9.32 C
3192 18-03-2009 14:44:40 13.6 C 20 % -8.91 C
3193 18-03-2009 14:56:40 13.8 C 20 % -8.74 C
3194 18-03-2009 15:08:40 14.1 C 20 % -8.49 C
3195 18-03-2009 15:20:39 14 C 20 % -8.57 C
3196 18-03-2009 15:32:39 13.7 C 20 % -8.82 C
3197 18-03-2009 15:44:39 14.7 C 20 % -7.99 C
3198 18-03-2009 15:56:39 15.3 C 20 % -7.5 C
3199 18-03-2009 16:08:39 15.2 C 20 % -7.58 C
3200 18-03-2009 16:20:39 14.6 C 20 % -8.08 C
Sensor: Nr:Datum:Temp:Feuchte:Taupunkt:
Aussen-T/F 3201 18-03-2009 16:32:39 14.3 C 20 % -8.33 C
3202 18-03-2009 16:44:39 14 C 20 % -8.57 C
3203 18-03-2009 16:56:39 14.9 C 20 % -7.83 C
3204 18-03-2009 17:08:38 14.6 C 20 % -8.08 C
3205 18-03-2009 17:20:38 14.7 C 20 % -7.99 C
3206 18-03-2009 17:32:38 13.7 C 20 % -8.82 C
3207 18-03-2009 17:44:38 12.5 C 20 % -9.82 C
3208 18-03-2009 17:56:38 12.6 C 20 % -9.73 C
3209 18-03-2009 18:08:37 11.9 C 20 % -10.31 C
3210 18-03-2009 18:20:38 11.3 C 20 % -10.81 C
3211 18-03-2009 18:32:38 10.1 C 20 % -11.81 C
3212 18-03-2009 18:44:37 9.1 C 20 % -12.64 C
3213 18-03-2009 18:56:37 8.5 C 20 % -13.14 C
3214 18-03-2009 19:08:38 8.1 C 26 % -10.22 C
3215 18-03-2009 19:20:37 7.9 C 26 % -10.39 C
3216 18-03-2009 19:32:37 7.4 C 29 % -9.44 C
3217 18-03-2009 19:44:36 7.1 C 26 % -11.07 C
3218 18-03-2009 19:56:36 6.9 C 27 % -10.77 C
3219 18-03-2009 20:08:37 6.8 C 30 % -9.53 C
3220 18-03-2009 20:20:37 6.7 C 31 % -9.21 C
3221 18-03-2009 20:32:36 6.7 C 35 % -7.65 C
3222 18-03-2009 20:44:37 6.8 C 32 % -8.71 C
3223 18-03-2009 20:56:37 6.8 C 35 % -7.57 C
3224 18-03-2009 21:08:36 6.7 C 35 % -7.65 C
3225 18-03-2009 21:20:36 6.6 C 37 % -7.03 C
Sensor: Nr:Datum:Temp:Feuchte:Taupunkt:
Aussen-T/F 3226 18-03-2009 21:32:36 6.6 C 36 % -7.38 C
3227 18-03-2009 21:44:35 6.4 C 36 % -7.56 C
3228 18-03-2009 21:56:35 6 C 37 % -7.56 C
3229 18-03-2009 22:08:36 5.7 C 40 % -6.82 C
3230 18-03-2009 22:21:36 5.6 C 40 % -6.91 C
3231 18-03-2009 22:33:36 5.5 C 40 % -7 C
3232 18-03-2009 22:45:36 5.2 C 38 % -7.93 C
3233 18-03-2009 22:57:37 4.9 C 40 % -7.54 C
3234 18-03-2009 23:09:37 4.7 C 39 % -8.05 C
3235 18-03-2009 23:21:37 4.5 C 42 % -7.27 C
3236 18-03-2009 23:33:37 4.2 C 41 % -7.86 C
3237 18-03-2009 23:45:37 3.9 C 43 % -7.51 C
3238 18-03-2009 23:57:37 3.5 C 44 % -7.58 C
3239 19-03-2009 00:09:37 3.3 C 45 % -7.47 C
3240 19-03-2009 00:21:37 3.1 C 46 % -7.37 C
3241 19-03-2009 00:33:37 3 C 48 % -6.92 C
3242 19-03-2009 00:45:37 2.7 C 49 % -6.92 C
3243 19-03-2009 00:57:37 2.4 C 51 % -6.68 C
3244 19-03-2009 01:09:37 2.3 C 51 % -6.78 C
3245 19-03-2009 01:21:37 2.1 C 53 % -6.46 C
3246 19-03-2009 01:33:37 1.8 C 56 % -6.02 C
3247 19-03-2009 01:45:37 1.8 C 56 % -6.02 C
3248 19-03-2009 01:57:37 1.5 C 56 % -6.3 C
3249 19-03-2009 02:09:37 1.4 C 56 % -6.4 C
3250 19-03-2009 02:21:37 1.3 C 56 % -6.49 C
Sensor: Nr:Datum:Temp:Feuchte:Taupunkt:
Aussen-T/F 3251 19-03-2009 02:33:37 1.2 C 57 % -6.36 C
3252 19-03-2009 02:45:38 0.9 C 58 % -6.41 C
3253 19-03-2009 02:57:38 0.7 C 59 % -6.38 C
3254 19-03-2009 03:09:38 0.6 C 60 % -6.25 C
3255 19-03-2009 03:21:38 0.5 C 60 % -6.35 C
3256 19-03-2009 03:33:38 0.4 C 60 % -6.44 C
3257 19-03-2009 03:45:38 0.2 C 61 % -6.41 C
3258 19-03-2009 03:57:38 0.1 C 61 % -6.51 C
3259 19-03-2009 04:09:38 0 C 62 % -6.39 C
3260 19-03-2009 04:21:38 -0.2 C 63 % -6.38 C
3261 19-03-2009 04:33:38 -0.3 C 64 % -6.27 C
3262 19-03-2009 04:45:38 -0.4 C 65 % -6.16 C
3263 19-03-2009 04:57:38 -0.5 C 66 % -6.06 C
3264 19-03-2009 05:09:38 -0.6 C 66 % -6.16 C
3265 19-03-2009 05:21:38 -0.7 C 66 % -6.25 C
3266 19-03-2009 05:33:38 -0.8 C 67 % -6.15 C
3267 19-03-2009 05:45:38 -0.9 C 68 % -6.05 C
3268 19-03-2009 05:57:38 -1.1 C 68 % -6.24 C
3269 19-03-2009 06:09:38 -1.1 C 68 % -6.24 C
3270 19-03-2009 06:21:38 -1.2 C 67 % -6.53 C
3271 19-03-2009 06:33:39 -1.2 C 67 % -6.53 C
3272 19-03-2009 06:45:39 -1.3 C 68 % -6.43 C
3273 19-03-2009 06:57:39 -1.3 C 68 % -6.43 C
3274 19-03-2009 07:09:36 -1.5 C 67 % -6.82 C
3275 19-03-2009 07:21:36 -1.4 C 68 % -6.53 C
Sensor: Nr:Datum:Temp:Feuchte:Taupunkt:
Aussen-T/F 3276 19-03-2009 07:33:35 -1.3 C 68 % -6.43 C
3277 19-03-2009 07:45:35 -1.2 C 68 % -6.34 C
3278 19-03-2009 07:57:35 -1.1 C 68 % -6.24 C
3279 19-03-2009 08:09:35 -0.9 C 68 % -6.05 C
3280 19-03-2009 08:21:35 -0.8 C 69 % -5.77 C
3281 19-03-2009 08:33:35 -0.3 C 69 % -5.29 C
3282 19-03-2009 08:45:35 0.4 C 67 % -5 C
3283 19-03-2009 08:57:35 0.9 C 64 % -5.12 C
3284 19-03-2009 09:09:35 1.6 C 60 % -5.31 C
3285 19-03-2009 09:21:34 1.9 C 58 % -5.47 C
3286 19-03-2009 09:33:34 2 C 53 % -6.55 C
3287 19-03-2009 09:45:34 2.2 C 52 % -6.62 C
3288 19-03-2009 09:57:34 2.5 C 54 % -5.85 C
3289 19-03-2009 10:09:34 2.8 C 53 % -5.81 C
3290 19-03-2009 10:21:34 3.2 C 50 % -6.2 C
3291 19-03-2009 10:33:34 4.1 C 49 % -5.63 C
3292 19-03-2009 10:45:34 4.6 C 47 % -5.72 C
3293 19-03-2009 10:57:34 5.3 C 45 % -5.65 C
3294 19-03-2009 11:09:33 5.6 C 44 % -5.67 C
3295 19-03-2009 11:21:34 6.5 C 42 % -5.46 C
3296 19-03-2009 11:33:33 6.5 C 40 % -6.1 C
3297 19-03-2009 11:45:33 7.1 C 41 % -5.24 C
3298 19-03-2009 11:57:33 7.3 C 38 % -6.05 C
3299 19-03-2009 12:09:32 7.6 C 38 % -5.79 C
3300 19-03-2009 12:21:33 8.7 C 34 % -6.26 C
Sensor: Nr:Datum:Temp:Feuchte:Taupunkt:
Aussen-T/F 3301 19-03-2009 12:33:33 9.5 C 27 % -8.54 C
3302 19-03-2009 12:45:32 9.8 C 25 % -9.26 C
3303 19-03-2009 12:57:32 9.9 C 25 % -9.18 C
3304 19-03-2009 13:09:33 10.7 C 23 % -9.56 C
3305 19-03-2009 13:21:32 11.1 C 20 % -10.98 C
3306 19-03-2009 13:33:32 11.9 C 21 % -9.7 C
3307 19-03-2009 13:45:32 13.5 C 20 % -8.99 C
3308 19-03-2009 13:57:32 14 C 20 % -8.57 C
3309 19-03-2009 14:09:32 14.2 C 20 % -8.41 C
3310 19-03-2009 14:21:31 14.7 C 20 % -7.99 C
3311 19-03-2009 14:33:31 14.3 C 20 % -8.33 C
3312 19-03-2009 14:45:32 15.7 C 20 % -7.17 C
3313 19-03-2009 14:57:32 15.8 C 20 % -7.08 C
3314 19-03-2009 15:09:31 14.4 C 20 % -8.24 C
3315 19-03-2009 15:21:31 15.2 C 20 % -7.58 C
3316 19-03-2009 15:33:30 15.2 C 20 % -7.58 C
3317 19-03-2009 15:45:31 16.5 C 20 % -6.5 C
3318 19-03-2009 15:57:31 15.1 C 20 % -7.66 C
3319 19-03-2009 16:09:30 13.8 C 20 % -8.74 C
3320 19-03-2009 16:21:30 13.2 C 20 % -9.24 C
3321 19-03-2009 16:33:31 13.5 C 20 % -8.99 C
3322 19-03-2009 16:45:30 12.7 C 20 % -9.65 C
3323 19-03-2009 16:57:30 12.4 C 20 % -9.9 C
3324 19-03-2009 17:09:30 12.3 C 20 % -9.98 C
3325 19-03-2009 17:21:30 12.5 C 20 % -9.82 C
Sensor: Nr:Datum:Temp:Feuchte:Taupunkt:
Aussen-T/F 3326 19-03-2009 17:33:30 12.5 C 20 % -9.82 C
3327 19-03-2009 17:45:29 11.8 C 20 % -10.4 C
3328 19-03-2009 17:57:29 11.1 C 20 % -10.98 C
3329 19-03-2009 18:09:30 10.9 C 20 % -11.14 C
3330 19-03-2009 18:21:29 10.2 C 20 % -11.73 C
3331 19-03-2009 18:33:29 9.8 C 20 % -12.06 C
3332 19-03-2009 18:45:28 9.3 C 20 % -12.47 C
3333 19-03-2009 18:57:28 8.9 C 26 % -9.53 C
3334 19-03-2009 19:09:29 8.8 C 26 % -9.62 C
3335 19-03-2009 19:21:29 8.3 C 28 % -9.11 C
3336 19-03-2009 19:33:28 7.9 C 30 % -8.58 C
3337 19-03-2009 19:45:29 7.6 C 30 % -8.84 C
3338 19-03-2009 19:57:29 7.4 C 31 % -8.59 C
3339 19-03-2009 20:09:28 7.4 C 31 % -8.59 C
3340 19-03-2009 20:21:29 7.2 C 32 % -8.36 C
3341 19-03-2009 20:33:28 6.9 C 35 % -7.48 C
3342 19-03-2009 20:45:27 6.7 C 36 % -7.29 C
3343 19-03-2009 20:57:27 6.3 C 38 % -6.95 C
3344 19-03-2009 21:09:27 6 C 37 % -7.56 C
3345 19-03-2009 21:21:28 5.8 C 38 % -7.4 C
3346 19-03-2009 21:33:27 5.6 C 39 % -7.24 C
3347 19-03-2009 21:45:27 5.3 C 40 % -7.18 C
3348 19-03-2009 21:57:27 5.1 C 40 % -7.36 C
3349 19-03-2009 22:09:28 4.9 C 42 % -6.91 C
3350 19-03-2009 22:22:28 4.7 C 43 % -6.79 C
Sensor: Nr:Datum:Temp:Feuchte:Taupunkt:
Aussen-T/F 3351 19-03-2009 22:34:28 4.5 C 42 % -7.27 C
3352 19-03-2009 22:46:28 4.2 C 44 % -6.94 C
3353 19-03-2009 22:58:28 4.1 C 43 % -7.33 C
3354 19-03-2009 23:10:28 3.7 C 47 % -6.55 C
3355 19-03-2009 23:22:28 3.6 C 47 % -6.64 C
3356 19-03-2009 23:34:29 3.5 C 47 % -6.73 C
3357 19-03-2009 23:46:29 3.3 C 48 % -6.64 C
3358 19-03-2009 23:58:29 3.1 C 49 % -6.56 C
3359 20-03-2009 00:10:29 2.9 C 51 % -6.22 C
3360 20-03-2009 00:22:29 2.7 C 53 % -5.9 C
3361 20-03-2009 00:34:29 2.5 C 54 % -5.85 C
3362 20-03-2009 00:46:29 2.4 C 54 % -5.94 C
3363 20-03-2009 00:58:29 2.3 C 55 % -5.79 C
3364 20-03-2009 01:10:29 2 C 56 % -5.84 C
3365 20-03-2009 01:22:29 1.9 C 58 % -5.47 C
3366 20-03-2009 01:34:29 1.8 C 59 % -5.34 C
3367 20-03-2009 01:46:29 1.4 C 59 % -5.72 C
3368 20-03-2009 01:58:29 1.3 C 60 % -5.59 C
3369 20-03-2009 02:10:29 1.1 C 60 % -5.78 C
3370 20-03-2009 02:22:29 0.8 C 62 % -5.63 C
3371 20-03-2009 02:34:29 0.5 C 61 % -6.13 C
3372 20-03-2009 02:46:29 0.4 C 63 % -5.8 C
3373 20-03-2009 02:58:29 0.2 C 63 % -5.99 C
3374 20-03-2009 03:10:29 0.1 C 64 % -5.88 C
3375 20-03-2009 03:22:29 0 C 65 % -5.78 C
Sensor: Nr:Datum:Temp:Feuchte:Taupunkt:
Aussen-T/F 3376 20-03-2009 03:34:30 0 C 65 % -5.78 C
3377 20-03-2009 03:46:30 -0.2 C 65 % -5.97 C
3378 20-03-2009 03:58:30 -0.3 C 66 % -5.87 C
3379 20-03-2009 04:10:30 -0.5 C 66 % -6.06 C
3380 20-03-2009 04:22:30 -0.7 C 67 % -6.05 C
3381 20-03-2009 04:34:30 -0.7 C 66 % -6.25 C
3382 20-03-2009 04:46:30 -0.6 C 66 % -6.16 C
3383 20-03-2009 04:58:30 -0.4 C 63 % -6.57 C
3384 20-03-2009 05:10:30 -0.4 C 60 % -7.2 C
3385 20-03-2009 05:22:30 -0.3 C 59 % -7.33 C
3386 20-03-2009 05:34:30 -0.5 C 60 % -7.3 C
3387 20-03-2009 05:46:30 -0.4 C 59 % -7.42 C
3388 20-03-2009 05:58:30 -0.6 C 58 % -7.83 C
3389 20-03-2009 06:10:30 -0.4 C 55 % -8.33 C
3390 20-03-2009 06:22:30 -0.4 C 56 % -8.09 C
3391 20-03-2009 06:34:30 -0.8 C 60 % -7.58 C
3392 20-03-2009 06:46:27 -0.9 C 62 % -7.25 C
3393 20-03-2009 06:58:27 -0.9 C 62 % -7.25 C
3394 20-03-2009 07:10:27 -1.1 C 61 % -7.65 C
3395 20-03-2009 07:22:28 -1.1 C 62 % -7.44 C
3396 20-03-2009 07:34:27 -1 C 61 % -7.56 C
3397 20-03-2009 07:46:27 -0.7 C 60 % -7.49 C
3398 20-03-2009 07:58:27 -0.4 C 60 % -7.2 C
3399 20-03-2009 08:10:27 -0.6 C 60 % -7.39 C
3400 20-03-2009 08:22:27 -0.6 C 60 % -7.39 C
Sensor: Nr:Datum:Temp:Feuchte:Taupunkt:
Aussen-T/F 3401 20-03-2009 08:34:26 -0.4 C 62 % -6.78 C
3402 20-03-2009 08:46:26 -0.1 C 62 % -6.5 C
3403 20-03-2009 08:58:26 0.3 C 58 % -6.97 C
3404 20-03-2009 09:10:26 0.8 C 56 % -6.96 C
3405 20-03-2009 09:22:26 1.5 C 52 % -7.27 C
3406 20-03-2009 09:34:26 2.5 C 45 % -8.2 C
3407 20-03-2009 09:46:25 3.1 C 45 % -7.66 C
3408 20-03-2009 09:58:25 3.5 C 45 % -7.29 C
3409 20-03-2009 10:10:26 3.9 C 40 % -8.44 C
3410 20-03-2009 10:22:26 4.6 C 32 % -10.64 C
3411 20-03-2009 10:34:25 5.1 C 25 % -13.27 C
3412 20-03-2009 10:46:25 5.6 C 20 % -15.55 C
3413 20-03-2009 10:58:25 6 C 20 % -15.22 C
3414 20-03-2009 11:10:25 6.4 C 20 % -14.89 C
3415 20-03-2009 11:22:25 6.4 C 20 % -14.89 C
3416 20-03-2009 11:34:24 6.4 C 20 % -14.89 C
3417 20-03-2009 11:46:25 6.8 C 20 % -14.55 C
3418 20-03-2009 11:58:25 7.7 C 20 % -13.8 C
3419 20-03-2009 12:10:24 7.9 C 20 % -13.64 C
3420 20-03-2009 12:22:24 7.9 C 20 % -13.64 C
3421 20-03-2009 12:34:24 8.5 C 20 % -13.14 C
3422 20-03-2009 12:46:24 8.7 C 20 % -12.97 C
3423 20-03-2009 12:58:24 9.3 C 20 % -12.47 C
3424 20-03-2009 13:10:24 9.2 C 20 % -12.56 C
3425 20-03-2009 13:22:23 9.2 C 20 % -12.56 C
Sensor: Nr:Datum:Temp:Feuchte:Taupunkt:
Aussen-T/F 3426 20-03-2009 13:34:24 9.5 C 20 % -12.31 C
3427 20-03-2009 13:46:23 9.8 C 20 % -12.06 C
3428 20-03-2009 13:58:23 10.5 C 20 % -11.48 C
3429 20-03-2009 14:10:23 11.3 C 20 % -10.81 C
3430 20-03-2009 14:22:24 11.4 C 20 % -10.73 C
3431 20-03-2009 14:34:23 11.6 C 20 % -10.56 C
3432 20-03-2009 14:46:23 12 C 20 % -10.23 C
3433 20-03-2009 14:58:23 12.4 C 20 % -9.9 C
3434 20-03-2009 15:10:22 10.4 C 20 % -11.56 C
3435 20-03-2009 15:22:23 12.5 C 20 % -9.82 C
3436 20-03-2009 15:34:22 13.1 C 20 % -9.32 C
3437 20-03-2009 15:46:22 12.4 C 20 % -9.9 C
3438 20-03-2009 15:58:23 13.2 C 20 % -9.24 C
3439 20-03-2009 16:10:22 13.9 C 20 % -8.66 C
3440 20-03-2009 16:22:22 13.8 C 20 % -8.74 C
3441 20-03-2009 16:34:22 14 C 20 % -8.57 C
3442 20-03-2009 16:46:22 14.1 C 20 % -8.49 C
3443 20-03-2009 16:58:22 14 C 20 % -8.57 C
3444 20-03-2009 17:10:22 13.8 C 20 % -8.74 C
3445 20-03-2009 17:22:21 13.8 C 20 % -8.74 C
3446 20-03-2009 17:34:21 13.7 C 20 % -8.82 C
3447 20-03-2009 17:46:21 13 C 20 % -9.4 C
3448 20-03-2009 17:58:21 12.4 C 20 % -9.9 C
3449 20-03-2009 18:10:21 11.8 C 20 % -10.4 C
3450 20-03-2009 18:22:21 10.8 C 20 % -11.23 C
Sensor: Nr:Datum:Temp:Feuchte:Taupunkt:
Aussen-T/F 3451 20-03-2009 18:34:21 9.5 C 20 % -12.31 C
3452 20-03-2009 18:46:21 8 C 20 % -13.56 C
3453 20-03-2009 18:58:21 7 C 20 % -14.39 C
3454 20-03-2009 19:10:20 6.1 C 23 % -13.44 C
3455 20-03-2009 19:22:20 5.6 C 27 % -11.89 C
3456 20-03-2009 19:34:20 5.3 C 28 % -11.7 C
3457 20-03-2009 19:46:20 5 C 30 % -11.1 C
3458 20-03-2009 19:58:20 4.6 C 30 % -11.45 C
3459 20-03-2009 20:10:19 4.4 C 33 % -10.43 C
3460 20-03-2009 20:22:20 4.1 C 36 % -9.6 C
3461 20-03-2009 20:34:20 4.1 C 35 % -9.96 C
3462 20-03-2009 20:46:19 3.9 C 36 % -9.78 C
3463 20-03-2009 20:58:19 3.6 C 37 % -9.7 C
3464 20-03-2009 21:10:19 3.5 C 39 % -9.12 C
3465 20-03-2009 21:22:19 3.3 C 39 % -9.3 C
3466 20-03-2009 21:34:18 3.1 C 40 % -9.16 C
3467 20-03-2009 21:46:19 2.8 C 41 % -9.12 C
3468 20-03-2009 21:58:19 2.7 C 42 % -8.9 C
3469 20-03-2009 22:10:19 2.4 C 42 % -9.18 C
3470 20-03-2009 22:22:18 2.3 C 45 % -8.39 C
3471 20-03-2009 22:34:19 2 C 45 % -8.66 C
3472 20-03-2009 22:46:18 1.8 C 46 % -8.56 C
3473 20-03-2009 22:58:18 1.6 C 45 % -9.03 C
3474 20-03-2009 23:10:18 1.4 C 46 % -8.93 C
3475 20-03-2009 23:22:18 1.2 C 47 % -8.84 C
Sensor: Nr:Datum:Temp:Feuchte:Taupunkt:
Aussen-T/F 3476 20-03-2009 23:34:18 1.2 C 47 % -8.84 C
3477 20-03-2009 23:46:17 0.9 C 49 % -8.58 C
3478 20-03-2009 23:58:17 0.7 C 51 % -8.26 C
3479 21-03-2009 00:10:17 0.5 C 52 % -8.19 C
3480 21-03-2009 00:22:18 0.4 C 52 % -8.29 C
3481 21-03-2009 00:34:17 0.2 C 51 % -8.72 C
3482 21-03-2009 00:46:17 0.2 C 51 % -8.72 C
3483 21-03-2009 00:58:17 0.1 C 53 % -8.32 C
3484 21-03-2009 01:10:17 -0.1 C 53 % -8.52 C
3485 21-03-2009 01:22:17 -0.2 C 52 % -8.86 C
3486 21-03-2009 01:34:17 -0.4 C 53 % -8.8 C
3487 21-03-2009 01:46:16 -0.4 C 54 % -8.56 C
3488 21-03-2009 01:58:16 -0.5 C 53 % -8.89 C
3489 21-03-2009 02:10:17 -0.6 C 54 % -8.75 C
3490 21-03-2009 02:22:16 -0.6 C 55 % -8.51 C
3491 21-03-2009 02:34:16 -0.7 C 55 % -8.61 C
3492 21-03-2009 02:47:01 -0.9 C 56 % -8.56 C
3493 21-03-2009 02:59:01 -0.9 C 56 % -8.56 C
3494 21-03-2009 03:11:02 -1 C 56 % -8.66 C
3495 21-03-2009 03:23:02 -1.3 C 56 % -8.94 C
3496 21-03-2009 03:35:01 -1.4 C 57 % -8.81 C
3497 21-03-2009 03:47:01 -1.4 C 57 % -8.81 C
3498 21-03-2009 03:59:01 -1.5 C 57 % -8.9 C
3499 21-03-2009 04:11:02 -1.5 C 57 % -8.9 C
3500 21-03-2009 04:23:01 -1.4 C 59 % -8.36 C
Sensor: Nr:Datum:Temp:Feuchte:Taupunkt:
Aussen-T/F 3501 21-03-2009 04:35:01 -1.4 C 58 % -8.58 C
3502 21-03-2009 04:47:01 -1.3 C 58 % -8.49 C
3503 21-03-2009 04:59:01 -1.1 C 59 % -8.08 C
3504 21-03-2009 05:11:02 -1.1 C 59 % -8.08 C
3505 21-03-2009 05:23:01 -1.3 C 58 % -8.49 C
3506 21-03-2009 05:35:02 -1.4 C 60 % -8.15 C
3507 21-03-2009 05:47:02 -1.6 C 60 % -8.34 C
3508 21-03-2009 05:59:02 -1.7 C 60 % -8.43 C
3509 21-03-2009 06:11:01 -1.9 C 60 % -8.62 C
3510 21-03-2009 06:23:01 -2.1 C 60 % -8.81 C
3511 21-03-2009 06:35:02 -2.1 C 62 % -8.39 C
3512 21-03-2009 06:47:01 -2.1 C 63 % -8.19 C
3513 21-03-2009 06:59:01 -2.1 C 62 % -8.39 C
3514 21-03-2009 07:11:02 -2.1 C 63 % -8.19 C
3515 21-03-2009 07:23:01 -2.1 C 63 % -8.19 C
3516 21-03-2009 07:35:02 -2 C 63 % -8.09 C
3517 21-03-2009 07:47:01 -2 C 64 % -7.89 C
3518 21-03-2009 07:59:01 -1.9 C 65 % -7.59 C
3519 21-03-2009 08:11:01 -1.8 C 64 % -7.7 C
3520 21-03-2009 08:23:01 -1.7 C 64 % -7.6 C
3521 21-03-2009 08:35:01 -1.6 C 62 % -7.92 C
3522 21-03-2009 08:47:02 -1.4 C 61 % -7.94 C
3523 21-03-2009 08:59:02 -1 C 60 % -7.77 C
3524 21-03-2009 09:11:01 -0.3 C 59 % -7.33 C
3525 21-03-2009 09:23:02 0.2 C 56 % -7.52 C
Sensor: Nr:Datum:Temp:Feuchte:Taupunkt:
Aussen-T/F 3526 21-03-2009 09:35:01 0.9 C 51 % -8.07 C
3527 21-03-2009 09:47:02 1.7 C 47 % -8.38 C
3528 21-03-2009 09:59:02 1.9 C 47 % -8.2 C
3529 21-03-2009 10:11:01 2.8 C 45 % -7.93 C
3530 21-03-2009 10:23:01 3.2 C 43 % -8.15 C
3531 21-03-2009 10:35:02 3.9 C 42 % -7.82 C
3532 21-03-2009 10:47:01 4.5 C 39 % -8.23 C
3533 21-03-2009 10:59:01 4.8 C 37 % -8.63 C
3534 21-03-2009 11:11:02 5.2 C 36 % -8.62 C
3535 21-03-2009 11:23:01 5.7 C 33 % -9.29 C
3536 21-03-2009 11:35:02 6.2 C 30 % -10.06 C
3537 21-03-2009 11:47:01 6.7 C 29 % -10.05 C
3538 21-03-2009 11:59:01 7.3 C 20 % -14.14 C
3539 21-03-2009 12:11:02 7.8 C 25 % -10.97 C
3540 21-03-2009 12:23:01 8.1 C 23 % -11.75 C
3541 21-03-2009 12:35:01 8.9 C 20 % -12.81 C
3542 21-03-2009 12:47:01 9.3 C 20 % -12.47 C
3543 21-03-2009 12:59:01 9.7 C 20 % -12.14 C
3544 21-03-2009 13:11:01 10.1 C 20 % -11.81 C
3545 21-03-2009 13:23:02 10.5 C 20 % -11.48 C
3546 21-03-2009 13:35:01 11.4 C 20 % -10.73 C
3547 21-03-2009 13:47:02 12 C 20 % -10.23 C
3548 21-03-2009 13:59:02 12.4 C 20 % -9.9 C
3549 21-03-2009 14:11:01 12.7 C 20 % -9.65 C
3550 21-03-2009 14:23:01 12.2 C 20 % -10.07 C
Sensor: Nr:Datum:Temp:Feuchte:Taupunkt:
Aussen-T/F 3551 21-03-2009 14:35:01 13.4 C 20 % -9.07 C
3552 21-03-2009 14:47:01 13.7 C 20 % -8.82 C
3553 21-03-2009 14:59:01 14.4 C 20 % -8.24 C
3554 21-03-2009 15:11:02 14.9 C 20 % -7.83 C
3555 21-03-2009 15:23:01 15.2 C 20 % -7.58 C
3556 21-03-2009 15:35:02 15.1 C 20 % -7.66 C
3557 21-03-2009 15:47:01 15.8 C 20 % -7.08 C
3558 21-03-2009 15:59:01 14.4 C 20 % -8.24 C
3559 21-03-2009 16:11:02 14.4 C 20 % -8.24 C
3560 21-03-2009 16:23:01 15.5 C 20 % -7.33 C
3561 21-03-2009 16:35:01 16.4 C 20 % -6.59 C
3562 21-03-2009 16:47:01 16.7 C 20 % -6.34 C
3563 21-03-2009 16:59:01 15.9 C 20 % -7 C
3564 21-03-2009 17:11:01 15.6 C 20 % -7.25 C
3565 21-03-2009 17:23:02 15.2 C 20 % -7.58 C
3566 21-03-2009 17:35:01 15 C 20 % -7.75 C
3567 21-03-2009 17:47:02 14.6 C 20 % -8.08 C
3568 21-03-2009 17:59:02 14 C 20 % -8.57 C
3569 21-03-2009 18:11:01 12.3 C 20 % -9.98 C
3570 21-03-2009 18:23:01 11.7 C 20 % -10.48 C
3571 21-03-2009 18:35:01 11.1 C 20 % -10.98 C
3572 21-03-2009 18:47:01 10.2 C 20 % -11.73 C
3573 21-03-2009 18:59:01 9.7 C 20 % -12.14 C
3574 21-03-2009 19:11:01 9.3 C 25 % -9.69 C
3575 21-03-2009 19:23:02 9 C 27 % -8.97 C
Sensor: Nr:Datum:Temp:Feuchte:Taupunkt:
Aussen-T/F 3576 21-03-2009 19:35:01 8.7 C 30 % -7.88 C
3577 21-03-2009 19:47:02 8.4 C 31 % -7.72 C
3578 21-03-2009 19:59:02 8 C 32 % -7.66 C
3579 21-03-2009 20:11:01 7.9 C 33 % -7.35 C
3580 21-03-2009 20:23:02 7.8 C 34 % -7.06 C
3581 21-03-2009 20:35:01 7.6 C 35 % -6.86 C
3582 21-03-2009 20:47:02 7.4 C 36 % -6.67 C
3583 21-03-2009 20:59:02 7.1 C 38 % -6.23 C
3584 21-03-2009 21:11:01 6.9 C 38 % -6.41 C
3585 21-03-2009 21:23:02 6.6 C 40 % -6.01 C
3586 21-03-2009 21:35:01 6.4 C 41 % -5.87 C
3587 21-03-2009 21:47:02 6 C 43 % -5.61 C
3588 21-03-2009 21:59:02 5.6 C 45 % -5.38 C
3589 21-03-2009 22:11:44 5.2 C 46 % -5.45 C
3590 21-03-2009 22:23:44 4.9 C 48 % -5.17 C
3591 21-03-2009 22:35:01 4.7 C 48 % -5.35 C
3592 21-03-2009 22:47:07 4.5 C 48 % -5.54 C
3593 21-03-2009 22:59:07 4.3 C 48 % -5.72 C
3594 21-03-2009 23:11:07 4.3 C 46 % -6.28 C
3595 21-03-2009 23:23:07 4.1 C 47 % -6.18 C
3596 21-03-2009 23:35:07 3.9 C 48 % -6.09 C
3597 21-03-2009 23:47:07 3.6 C 49 % -6.1 C
3598 21-03-2009 23:59:07 3.4 C 50 % -6.02 C
3599 22-03-2009 00:11:07 3.2 C 51 % -5.94 C
3600 22-03-2009 00:23:07 3 C 51 % -6.13 C
Sensor: Nr:Datum:Temp:Feuchte:Taupunkt:
Aussen-T/F 3601 22-03-2009 00:35:07 2.8 C 53 % -5.81 C
3602 22-03-2009 00:47:07 2.6 C 53 % -6 C
3603 22-03-2009 00:59:07 2.5 C 53 % -6.09 C
3604 22-03-2009 01:11:07 2.4 C 54 % -5.94 C
3605 22-03-2009 01:23:07 2.2 C 54 % -6.12 C
3606 22-03-2009 01:35:07 2 C 55 % -6.07 C
3607 22-03-2009 01:47:07 2 C 55 % -6.07 C
3608 22-03-2009 01:59:07 1.9 C 56 % -5.93 C
3609 22-03-2009 02:11:07 1.8 C 57 % -5.79 C
3610 22-03-2009 02:23:08 1.5 C 58 % -5.85 C
3611 22-03-2009 02:35:08 1.4 C 59 % -5.72 C
3612 22-03-2009 02:47:08 1.2 C 59 % -5.91 C
3613 22-03-2009 02:59:08 1.1 C 60 % -5.78 C
3614 22-03-2009 03:11:08 1.4 C 58 % -5.94 C
3615 22-03-2009 03:23:08 1.4 C 57 % -6.17 C
3616 22-03-2009 03:35:08 1.1 C 58 % -6.22 C
3617 22-03-2009 03:47:08 0.9 C 60 % -5.97 C
3618 22-03-2009 03:59:08 0.7 C 61 % -5.94 C
3619 22-03-2009 04:11:08 0.5 C 63 % -5.71 C
3620 22-03-2009 04:23:08 0.6 C 62 % -5.82 C
3621 22-03-2009 04:35:08 0.6 C 61 % -6.04 C
3622 22-03-2009 04:47:08 0.6 C 62 % -5.82 C
3623 22-03-2009 04:59:08 0.3 C 62 % -6.11 C
3624 22-03-2009 05:11:08 0.1 C 64 % -5.88 C
3625 22-03-2009 05:23:08 0.1 C 64 % -5.88 C
Sensor: Nr:Datum:Temp:Feuchte:Taupunkt:
Aussen-T/F 3626 22-03-2009 05:35:08 0.3 C 63 % -5.9 C
3627 22-03-2009 05:47:08 -0.1 C 64 % -6.08 C
3628 22-03-2009 05:59:08 -0.3 C 66 % -5.87 C
3629 22-03-2009 06:11:08 -0.4 C 67 % -5.77 C
3630 22-03-2009 06:23:08 -0.4 C 68 % -5.57 C
3631 22-03-2009 06:35:09 -0.4 C 68 % -5.57 C
3632 22-03-2009 06:47:09 -0.4 C 68 % -5.57 C
3633 22-03-2009 06:59:09 -0.3 C 69 % -5.29 C
3634 22-03-2009 07:11:07 -0.3 C 68 % -5.48 C
3635 22-03-2009 07:23:07 0 C 68 % -5.18 C
3636 22-03-2009 07:35:07 0.3 C 67 % -5.09 C
3637 22-03-2009 07:47:06 0.7 C 67 % -4.71 C
3638 22-03-2009 07:59:06 1 C 66 % -4.62 C
3639 22-03-2009 08:11:07 1.1 C 67 % -4.33 C
3640 22-03-2009 08:23:06 1.1 C 67 % -4.33 C
3641 22-03-2009 08:35:06 1.4 C 67 % -4.04 C
3642 22-03-2009 08:47:06 1.6 C 66 % -4.05 C
3643 22-03-2009 08:59:06 1.7 C 68 % -3.56 C
3644 22-03-2009 09:11:06 1.8 C 69 % -3.27 C
3645 22-03-2009 09:23:06 1.9 C 72 % -2.6 C
3646 22-03-2009 09:35:05 2.1 C 72 % -2.41 C
3647 22-03-2009 09:47:06 2.3 C 71 % -2.4 C
3648 22-03-2009 09:59:06 2.1 C 69 % -2.98 C
3649 22-03-2009 10:11:05 2.5 C 70 % -2.4 C
3650 22-03-2009 10:23:05 2.5 C 69 % -2.6 C
Sensor: Nr:Datum:Temp:Feuchte:Taupunkt:
Aussen-T/F 3651 22-03-2009 10:35:05 2.7 C 69 % -2.4 C
3652 22-03-2009 10:47:05 2.8 C 68 % -2.51 C
3653 22-03-2009 10:59:05 3.1 C 67 % -2.42 C
3654 22-03-2009 11:11:04 3.3 C 66 % -2.43 C
3655 22-03-2009 11:23:05 3.7 C 65 % -2.25 C
3656 22-03-2009 11:35:04 4.1 C 65 % -1.87 C
3657 22-03-2009 11:47:04 4.4 C 66 % -1.38 C
3658 22-03-2009 11:59:04 5 C 69 % -0.2 C
3659 22-03-2009 12:11:04 5.8 C 75 % 1.72 C
3660 22-03-2009 12:23:04 6.2 C 74 % 1.92 C
3661 22-03-2009 12:35:04 6.7 C 72 % 2.02 C
3662 22-03-2009 12:47:04 7 C 68 % 1.51 C
3663 22-03-2009 12:59:04 7.7 C 66 % 1.76 C
3664 22-03-2009 13:11:04 8.3 C 61 % 1.23 C
3665 22-03-2009 13:23:03 8.9 C 52 % -0.41 C
3666 22-03-2009 13:35:03 9.5 C 47 % -1.23 C
3667 22-03-2009 13:47:03 9.5 C 46 % -1.53 C
3668 22-03-2009 13:59:03 9 C 47 % -1.69 C
3669 22-03-2009 14:11:03 9.5 C 45 % -1.82 C
3670 22-03-2009 14:23:03 9.3 C 45 % -2.01 C
3671 22-03-2009 14:35:02 9.6 C 44 % -2.04 C
3672 22-03-2009 14:47:03 9.9 C 42 % -2.39 C
3673 22-03-2009 14:59:03 10 C 40 % -2.96 C
3674 22-03-2009 15:11:02 10.3 C 40 % -2.69 C
3675 22-03-2009 15:23:02 10.4 C 39 % -2.94 C
Sensor: Nr:Datum:Temp:Feuchte:Taupunkt:
Aussen-T/F 3676 22-03-2009 15:35:02 10.2 C 40 % -2.78 C
3677 22-03-2009 15:47:02 10.4 C 39 % -2.94 C
3678 22-03-2009 15:59:02 10 C 38 % -3.64 C
3679 22-03-2009 16:11:02 10.2 C 39 % -3.12 C
3680 22-03-2009 16:23:01 10.2 C 39 % -3.12 C
3681 22-03-2009 16:35:02 10.5 C 38 % -3.2 C
3682 22-03-2009 16:47:01 10.7 C 36 % -3.74 C
3683 22-03-2009 16:59:01 10.4 C 36 % -4.01 C
3684 22-03-2009 17:11:01 10.7 C 36 % -3.74 C
3685 22-03-2009 17:23:01 10.5 C 37 % -3.55 C
3686 22-03-2009 17:35:01 10.3 C 37 % -3.73 C
3687 22-03-2009 17:47:01 10 C 38 % -3.64 C
3688 22-03-2009 17:59:01 9.9 C 39 % -3.39 C
3689 22-03-2009 18:11:00 9.7 C 40 % -3.23 C
3690 22-03-2009 18:23:01 9.7 C 40 % -3.23 C
3691 22-03-2009 18:35:00 9.5 C 40 % -3.41 C
3692 22-03-2009 18:47:00 9.3 C 41 % -3.26 C
3693 22-03-2009 18:59:00 9.3 C 41 % -3.26 C
3694 22-03-2009 19:11:00 9.1 C 41 % -3.44 C
3695 22-03-2009 19:23:00 8.9 C 43 % -2.98 C
3696 22-03-2009 19:35:00 8.9 C 43 % -2.98 C
3697 22-03-2009 19:58:59 8.6 C 44 % -2.94 C
3698 22-03-2009 19:59:00 8.4 C 45 % -2.83 C
3699 22-03-2009 20:11:00 8.4 C 45 % -2.83 C
3700 22-03-2009 20:23:59 8.4 C 45 % -2.83 C
Sensor: Nr:Datum:Temp:Feuchte:Taupunkt:
Aussen-T/F 3701 22-03-2009 20:35:59 8.4 C 45 % -2.83 C
3702 22-03-2009 20:47:59 8.4 C 45 % -2.83 C
3703 22-03-2009 20:59:58 8.5 C 45 % -2.73 C
3704 22-03-2009 21:11:58 8.4 C 45 % -2.83 C
3705 22-03-2009 21:23:59 8.3 C 46 % -2.62 C
3706 22-03-2009 21:35:59 8.2 C 46 % -2.71 C
3707 22-03-2009 21:47:59 8.1 C 46 % -2.8 C
3708 22-03-2009 22:00:59 8 C 47 % -2.61 C
3709 22-03-2009 22:12:59 7.7 C 53 % -1.26 C
3710 22-03-2009 22:24:59 7.7 C 54 % -1 C
3711 22-03-2009 22:36:59 7.5 C 58 % -0.21 C
3712 22-03-2009 22:48:59 7.3 C 59 % -0.17 C
3713 22-03-2009 23:00:59 7.5 C 58 % -0.21 C
3714 22-03-2009 23:12:59 7.5 C 57 % -0.45 C
3715 22-03-2009 23:24:59 7.6 C 57 % -0.36 C
3716 22-03-2009 23:37:00 7.5 C 59 % 0.02 C
3717 22-03-2009 23:49:00 7.6 C 58 % -0.12 C
3718 23-03-2009 00:01:00 7.5 C 58 % -0.21 C
3719 23-03-2009 00:13:00 7.5 C 58 % -0.21 C
3720 23-03-2009 00:24:00 7.5 C 58 % -0.21 C
3721 23-03-2009 00:36:00 7.5 C 59 % 0.02 C
3722 23-03-2009 00:48:00 7.5 C 59 % 0.02 C
3723 23-03-2009 01:00:00 7.5 C 59 % 0.02 C
3724 23-03-2009 01:12:00 7.5 C 58 % -0.21 C
3725 23-03-2009 01:24:00 7.5 C 58 % -0.21 C
Sensor: Nr:Datum:Temp:Feuchte:Taupunkt:
Aussen-T/F 3726 23-03-2009 01:36:00 7.6 C 58 % -0.12 C
3727 23-03-2009 01:48:00 7.6 C 58 % -0.12 C
3728 23-03-2009 02:00:00 7.6 C 58 % -0.12 C
3729 23-03-2009 02:12:00 7.5 C 58 % -0.21 C
3730 23-03-2009 02:24:00 7.5 C 59 % 0.02 C
3731 23-03-2009 02:36:00 7.6 C 59 % 0.11 C
3732 23-03-2009 02:48:00 7.6 C 59 % 0.11 C
3733 23-03-2009 03:00:00 7.7 C 59 % 0.21 C
3734 23-03-2009 03:12:00 7.6 C 59 % 0.11 C
3735 23-03-2009 03:24:00 7.5 C 59 % 0.02 C
3736 23-03-2009 03:36:01 7.5 C 59 % 0.02 C
3737 23-03-2009 03:48:01 7.6 C 59 % 0.11 C
3738 23-03-2009 04:00:01 7.7 C 60 % 0.44 C
3739 23-03-2009 04:12:01 7.9 C 60 % 0.63 C
3740 23-03-2009 04:24:01 7.8 C 60 % 0.53 C
3741 23-03-2009 04:36:01 7.8 C 60 % 0.53 C
3742 23-03-2009 04:48:01 7.8 C 60 % 0.53 C
3743 23-03-2009 05:00:01 7.8 C 60 % 0.53 C
3744 23-03-2009 05:12:01 7.8 C 60 % 0.53 C
3745 23-03-2009 05:24:01 7.8 C 60 % 0.53 C
3746 23-03-2009 05:36:01 7.8 C 60 % 0.53 C
3747 23-03-2009 05:48:01 7.9 C 59 % 0.4 C
3748 23-03-2009 06:00:01 7.7 C 60 % 0.44 C
3749 23-03-2009 06:12:01 7.6 C 60 % 0.35 C
3750 23-03-2009 06:24:01 7.6 C 60 % 0.35 C
Sensor: Nr:Datum:Temp:Feuchte:Taupunkt:
Aussen-T/F 3751 23-03-2009 06:36:01 7.5 C 60 % 0.25 C
3752 23-03-2009 06:48:01 7.5 C 61 % 0.48 C
3753 23-03-2009 07:00:59 7.6 C 60 % 0.35 C
3754 23-03-2009 07:12:59 7.6 C 60 % 0.35 C
3755 23-03-2009 07:24:59 7.6 C 61 % 0.57 C
3756 23-03-2009 07:36:59 7.6 C 60 % 0.35 C
3757 23-03-2009 07:48:58 7.7 C 60 % 0.44 C
3758 23-03-2009 08:00:59 7.9 C 60 % 0.63 C
3759 23-03-2009 08:12:59 8 C 58 % 0.25 C
3760 23-03-2009 08:24:58 8.1 C 58 % 0.35 C
3761 23-03-2009 08:36:58 8.1 C 58 % 0.35 C
3762 23-03-2009 08:48:57 8.2 C 58 % 0.44 C
3763 23-03-2009 09:00:58 8.2 C 58 % 0.44 C
3764 23-03-2009 09:12:58 8.2 C 58 % 0.44 C
3765 23-03-2009 09:24:58 8.3 C 58 % 0.54 C
3766 23-03-2009 09:36:57 8.4 C 56 % 0.15 C
3767 23-03-2009 09:48:58 8.7 C 55 % 0.18 C
3768 23-03-2009 10:00:57 8.9 C 52 % -0.41 C
3769 23-03-2009 10:12:57 9 C 50 % -0.85 C
3770 23-03-2009 10:24:57 9.1 C 50 % -0.76 C
3771 23-03-2009 10:36:56 9.2 C 49 % -0.94 C
3772 23-03-2009 10:48:57 9.3 C 48 % -1.13 C
3773 23-03-2009 11:00:57 9.4 C 47 % -1.33 C
3774 23-03-2009 11:12:57 9.7 C 46 % -1.34 C
3775 23-03-2009 11:24:56 9.8 C 45 % -1.55 C
Sensor: Nr:Datum:Temp:Feuchte:Taupunkt:
Aussen-T/F 3776 23-03-2009 11:36:57 9.9 C 44 % -1.76 C
3777 23-03-2009 11:48:56 9.9 C 43 % -2.08 C
3778 23-03-2009 12:00:56 10.2 C 42 % -2.12 C
3779 23-03-2009 12:12:56 10.7 C 40 % -2.33 C
3780 23-03-2009 12:24:56 10.8 C 40 % -2.24 C
3781 23-03-2009 12:36:56 11.6 C 37 % -2.57 C
3782 23-03-2009 12:48:55 12 C 35 % -2.97 C
3783 23-03-2009 13:00:55 11.8 C 36 % -2.76 C
3784 23-03-2009 13:12:55 11.6 C 37 % -2.57 C
3785 23-03-2009 13:24:56 11.9 C 37 % -2.31 C
3786 23-03-2009 13:36:55 11.9 C 37 % -2.31 C
3787 23-03-2009 13:48:55 11.6 C 38 % -2.22 C
3788 23-03-2009 14:00:55 11.6 C 39 % -1.86 C
3789 23-03-2009 14:12:55 11.6 C 40 % -1.52 C
3790 23-03-2009 14:24:55 11.4 C 40 % -1.7 C
3791 23-03-2009 14:36:54 11.3 C 40 % -1.79 C
3792 23-03-2009 14:48:54 11.3 C 40 % -1.79 C
3793 23-03-2009 15:00:55 10.4 C 47 % -0.41 C
3794 23-03-2009 15:12:55 9.8 C 52 % 0.43 C
3795 23-03-2009 15:24:54 9.5 C 56 % 1.17 C
3796 23-03-2009 15:36:54 9.6 C 56 % 1.27 C
3797 23-03-2009 15:48:54 9.9 C 55 % 1.3 C
3798 23-03-2009 16:00:54 9.6 C 58 % 1.75 C
3799 23-03-2009 16:12:54 9.7 C 57 % 1.61 C
3800 23-03-2009 16:24:53 9.5 C 59 % 1.9 C
Sensor: Nr:Datum:Temp:Feuchte:Taupunkt:
Aussen-T/F 3801 23-03-2009 16:36:53 9.5 C 58 % 1.66 C
3802 23-03-2009 16:48:53 9.4 C 59 % 1.81 C
3803 23-03-2009 17:00:53 9.2 C 60 % 1.85 C
3804 23-03-2009 17:12:53 9.1 C 61 % 1.99 C
3805 23-03-2009 17:24:53 9.1 C 60 % 1.76 C
3806 23-03-2009 17:36:53 8.6 C 65 % 2.4 C
3807 23-03-2009 17:48:53 8.5 C 67 % 2.73 C
3808 23-03-2009 18:00:52 8.3 C 70 % 3.16 C
3809 23-03-2009 18:12:52 7.9 C 74 % 3.56 C
3810 23-03-2009 18:24:53 7.6 C 76 % 3.65 C
3811 23-03-2009 18:36:52 7.6 C 77 % 3.83 C
3812 23-03-2009 18:48:52 7.7 C 76 % 3.75 C
3813 23-03-2009 19:00:52 7.8 C 76 % 3.84 C
3814 23-03-2009 19:12:52 7.7 C 75 % 3.56 C
3815 23-03-2009 19:24:52 7.6 C 76 % 3.65 C
3816 23-03-2009 19:36:52 7.4 C 77 % 3.64 C
3817 23-03-2009 19:48:51 4.4 C 74 % 0.18 C
3818 23-03-2009 20:00:52 3.9 C 82 % 1.12 C
3819 23-03-2009 20:12:52 3.8 C 84 % 1.35 C
3820 23-03-2009 20:24:51 3.6 C 85 % 1.32 C
3821 23-03-2009 20:36:51 3.3 C 86 % 1.19 C
3822 23-03-2009 20:48:51 3.5 C 87 % 1.55 C
3823 23-03-2009 21:00:50 3.5 C 87 % 1.55 C
3824 23-03-2009 21:12:50 3.5 C 85 % 1.22 C
3825 23-03-2009 21:24:51 3.8 C 84 % 1.35 C
Sensor: Nr:Datum:Temp:Feuchte:Taupunkt:
Aussen-T/F 3826 23-03-2009 21:36:51 3.8 C 82 % 1.02 C
3827 23-03-2009 21:48:50 3.6 C 80 % 0.48 C
3828 23-03-2009 22:00:51 3.7 C 79 % 0.4 C
3829 23-03-2009 22:12:51 3.8 C 76 % -0.03 C
3830 23-03-2009 22:24:50 3.7 C 75 % -0.31 C
3831 23-03-2009 22:36:50 3.5 C 75 % -0.5 C
3832 23-03-2009 22:49:50 3.7 C 73 % -0.68 C
3833 23-03-2009 23:01:50 3.6 C 71 % -1.15 C
3834 23-03-2009 23:13:50 3.5 C 72 % -1.06 C
3835 23-03-2009 23:25:50 3.3 C 74 % -0.88 C
3836 23-03-2009 23:37:50 3.3 C 74 % -0.88 C
3837 23-03-2009 23:49:50 3.1 C 72 % -1.45 C
3838 24-03-2009 00:01:50 3.1 C 72 % -1.45 C
3839 24-03-2009 00:13:50 2.9 C 72 % -1.64 C
3840 24-03-2009 00:25:50 2.9 C 72 % -1.64 C
3841 24-03-2009 00:37:51 3 C 68 % -2.31 C
3842 24-03-2009 00:49:51 3.1 C 68 % -2.22 C
3843 24-03-2009 01:01:51 3.1 C 67 % -2.42 C
3844 24-03-2009 01:13:51 2.8 C 69 % -2.31 C
3845 24-03-2009 01:25:51 2.5 C 71 % -2.21 C
3846 24-03-2009 01:37:51 2.4 C 72 % -2.12 C
3847 24-03-2009 01:49:51 2.6 C 72 % -1.93 C
3848 24-03-2009 02:01:51 2.7 C 71 % -2.02 C
3849 24-03-2009 02:13:51 3 C 69 % -2.12 C
3850 24-03-2009 02:25:51 3.3 C 67 % -2.23 C
Sensor: Nr:Datum:Temp:Feuchte:Taupunkt:
Aussen-T/F 3851 24-03-2009 02:37:51 3.3 C 67 % -2.23 C
3852 24-03-2009 02:49:51 3.5 C 65 % -2.44 C
3853 24-03-2009 03:01:51 3.6 C 65 % -2.35 C
3854 24-03-2009 03:13:51 3.8 C 63 % -2.58 C
3855 24-03-2009 03:25:51 3.2 C 69 % -1.93 C
3856 24-03-2009 03:37:51 2.8 C 76 % -1 C
3857 24-03-2009 03:49:51 2.7 C 77 % -0.92 C
3858 24-03-2009 04:01:51 2.6 C 78 % -0.84 C
3859 24-03-2009 04:13:51 2.7 C 78 % -0.74 C
3860 24-03-2009 04:25:51 3 C 75 % -0.99 C
3861 24-03-2009 04:37:52 3.1 C 72 % -1.45 C
3862 24-03-2009 04:49:52 3.3 C 70 % -1.64 C
3863 24-03-2009 05:01:52 2.8 C 74 % -1.36 C
3864 24-03-2009 05:13:52 2.9 C 76 % -0.9 C
3865 24-03-2009 05:25:52 3 C 71 % -1.73 C
3866 24-03-2009 05:37:52 3.2 C 70 % -1.73 C
3867 24-03-2009 05:49:52 3.1 C 70 % -1.83 C
3868 24-03-2009 06:01:52 3.1 C 69 % -2.02 C
3869 24-03-2009 06:13:52 3.2 C 67 % -2.32 C
3870 24-03-2009 06:25:52 3.1 C 68 % -2.22 C
3871 24-03-2009 06:37:52 3.1 C 69 % -2.02 C
3872 24-03-2009 06:49:52 3.1 C 71 % -1.63 C
3873 24-03-2009 07:01:50 3.1 C 71 % -1.63 C
3874 24-03-2009 07:13:50 3.2 C 71 % -1.54 C
3875 24-03-2009 07:25:50 3.3 C 70 % -1.64 C
Sensor: Nr:Datum:Temp:Feuchte:Taupunkt:
Aussen-T/F 3876 24-03-2009 07:37:50 3.3 C 69 % -1.83 C
3877 24-03-2009 07:49:50 3.5 C 69 % -1.64 C
3878 24-03-2009 08:01:51 3.7 C 68 % -1.64 C
3879 24-03-2009 08:13:50 3.7 C 68 % -1.64 C
3880 24-03-2009 08:25:50 3.7 C 66 % -2.05 C
3881 24-03-2009 08:37:49 4.2 C 63 % -2.2 C
3882 24-03-2009 08:49:49 4.3 C 60 % -2.76 C
3883 24-03-2009 09:01:49 4.1 C 60 % -2.95 C
3884 24-03-2009 09:13:49 4.2 C 58 % -3.31 C
3885 24-03-2009 09:25:49 4.4 C 58 % -3.12 C
3886 24-03-2009 09:37:49 4.6 C 55 % -3.65 C
3887 24-03-2009 09:49:48 4.8 C 53 % -3.95 C
3888 24-03-2009 10:01:49 5 C 53 % -3.77 C
3889 24-03-2009 10:13:48 5.6 C 52 % -3.46 C
3890 24-03-2009 10:25:48 5.9 C 49 % -3.98 C
3891 24-03-2009 10:37:48 5 C 55 % -3.27 C
3892 24-03-2009 10:49:48 3.2 C 72 % -1.35 C
3893 24-03-2009 11:01:48 3.3 C 79 % 0.02 C
3894 24-03-2009 11:13:47 4.3 C 81 % 1.34 C
3895 24-03-2009 11:25:47 4.6 C 78 % 1.1 C